Wetterdaten: Freitag, 24.03.2017
Datum Zeit Temp. A. Feuchte A. Luftdruck Regen Wind Richtung Richtung Sonnenschein ET UV Solar Taupunkt Windchill Windben Empfang
24.03.2017 00:00 5,3 C 95 % 1018,7 hPa 0,0 l/m 8,0 km/h (2 Bft) O-NO 68 0 min 0,000 mm 0,0 UV-I 0 W/m 4,6 C 3,9 C 12,9 km/h (3 Bft) 97,44 %
24.03.2017 00:02 5,3 C 95 % 1018,8 hPa 0,0 l/m 7,7 km/h (2 Bft) O-NO 61 0 min 0,000 mm 0,0 UV-I 0 W/m 4,6 C 4,2 C 12,9 km/h (3 Bft) 97,67 %
24.03.2017 00:04 5,3 C 95 % 1018,8 hPa 0,0 l/m 8,3 km/h (2 Bft) O-NO 66 0 min 0,000 mm 0,0 UV-I 0 W/m 4,6 C 3,7 C 12,9 km/h (3 Bft) 100,00 %
24.03.2017 00:06 5,3 C 95 % 1018,9 hPa 0,0 l/m 7,2 km/h (2 Bft) O-NO 65 0 min 0,000 mm 0,0 UV-I 0 W/m 4,6 C 4,6 C 11,3 km/h (2 Bft) 96,00 %
24.03.2017 00:08 5,3 C 95 % 1019,0 hPa 0,0 l/m 7,0 km/h (2 Bft) O-NO 77 0 min 0,000 mm 0,0 UV-I 0 W/m 4,6 C 4,8 C 11,3 km/h (2 Bft) 100,00 %
24.03.2017 00:10 5,3 C 95 % 1019,0 hPa 0,0 l/m 6,6 km/h (2 Bft) O-NO 70 0 min 0,000 mm 0,0 UV-I 0 W/m 4,6 C 5,1 C 11,3 km/h (2 Bft) 100,00 %
24.03.2017 00:12 5,2 C 95 % 1019,0 hPa 0,0 l/m 7,1 km/h (2 Bft) O-NO 73 0 min 0,000 mm 0,0 UV-I 0 W/m 4,5 C 4,6 C 11,3 km/h (2 Bft) 97,37 %
24.03.2017 00:14 5,2 C 95 % 1019,0 hPa 0,0 l/m 5,6 km/h (1 Bft) O 82 0 min 0,000 mm 0,0 UV-I 0 W/m 4,5 C 5,2 C 9,7 km/h (2 Bft) 98,21 %
24.03.2017 00:16 5,2 C 95 % 1019,0 hPa 0,0 l/m 6,0 km/h (2 Bft) O-NO 72 0 min 0,000 mm 0,0 UV-I 0 W/m 4,5 C 5,2 C 8,0 km/h (2 Bft) 100,00 %
24.03.2017 00:18 5,2 C 95 % 1019,1 hPa 0,0 l/m 6,8 km/h (2 Bft) O-NO 63 0 min 0,000 mm 0,0 UV-I 0 W/m 4,5 C 4,9 C 11,3 km/h (2 Bft) 98,11 %
24.03.2017 00:20 5,2 C 95 % 1019,1 hPa 0,0 l/m 6,0 km/h (2 Bft) O-NO 76 0 min 0,000 mm 0,0 UV-I 0 W/m 4,5 C 5,2 C 9,7 km/h (2 Bft) 98,00 %
24.03.2017 00:22 5,2 C 95 % 1019,1 hPa 0,0 l/m 3,7 km/h (1 Bft) O 84 0 min 0,000 mm 0,0 UV-I 0 W/m 4,5 C 5,2 C 4,8 km/h (1 Bft) 100,00 %
24.03.2017 00:24 5,2 C 95 % 1019,1 hPa 0,0 l/m 4,2 km/h (1 Bft) O-NO 59 0 min 0,000 mm 0,0 UV-I 0 W/m 4,5 C 5,2 C 6,4 km/h (2 Bft) 100,00 %
24.03.2017 00:26 5,2 C 95 % 1019,2 hPa 0,0 l/m 4,2 km/h (1 Bft) O-NO 67 0 min 0,000 mm 0,0 UV-I 0 W/m 4,5 C 5,2 C 6,4 km/h (2 Bft) 98,46 %
24.03.2017 00:28 5,2 C 95 % 1019,2 hPa 0,0 l/m 4,7 km/h (1 Bft) O-NO 59 0 min 0,000 mm 0,0 UV-I 0 W/m 4,5 C 5,2 C 8,0 km/h (2 Bft) 92,45 %
24.03.2017 00:30 5,1 C 95 % 1019,2 hPa 0,0 l/m 5,6 km/h (1 Bft) O-NO 70 0 min 0,000 mm 0,0 UV-I 0 W/m 4,4 C 5,1 C 8,0 km/h (2 Bft) 97,37 %
24.03.2017 00:32 5,1 C 95 % 1019,1 hPa 0,0 l/m 5,1 km/h (1 Bft) O-NO 71 0 min 0,000 mm 0,0 UV-I 0 W/m 4,4 C 5,1 C 6,4 km/h (2 Bft) 96,00 %
24.03.2017 00:34 5,1 C 95 % 1019,1 hPa 0,0 l/m 5,3 km/h (1 Bft) O-NO 65 0 min 0,000 mm 0,0 UV-I 0 W/m 4,4 C 5,1 C 8,0 km/h (2 Bft) 98,00 %
24.03.2017 00:36 5,1 C 95 % 1019,1 hPa 0,0 l/m 6,5 km/h (2 Bft) O-NO 65 0 min 0,000 mm 0,0 UV-I 0 W/m 4,4 C 5,0 C 9,7 km/h (2 Bft) 96,00 %
24.03.2017 00:38 5,1 C 95 % 1019,1 hPa 0,0 l/m 7,2 km/h (2 Bft) O-NO 71 0 min 0,000 mm 0,0 UV-I 0 W/m 4,4 C 4,4 C 9,7 km/h (2 Bft) 94,74 %
24.03.2017 00:40 5,0 C 95 % 1019,1 hPa 0,0 l/m 5,4 km/h (1 Bft) O-NO 63 0 min 0,000 mm 0,0 UV-I 0 W/m 4,3 C 5,0 C 8,0 km/h (2 Bft) 95,74 %
24.03.2017 00:42 4,9 C 95 % 1019,2 hPa 0,0 l/m 4,1 km/h (1 Bft) NO 53 0 min 0,000 mm 0,0 UV-I 0 W/m 4,2 C 4,9 C 6,4 km/h (2 Bft) 96,43 %
24.03.2017 00:44 4,9 C 95 % 1019,3 hPa 0,0 l/m 4,7 km/h (1 Bft) O-NO 63 0 min 0,000 mm 0,0 UV-I 0 W/m 4,2 C 4,9 C 8,0 km/h (2 Bft) 95,74 %
24.03.2017 00:46 4,9 C 95 % 1019,3 hPa 0,0 l/m 3,8 km/h (1 Bft) O-NO 64 0 min 0,000 mm 0,0 UV-I 0 W/m 4,2 C 4,9 C 6,4 km/h (2 Bft) 94,87 %
24.03.2017 00:48 4,8 C 95 % 1019,3 hPa 0,0 l/m 4,9 km/h (1 Bft) O-NO 67 0 min 0,000 mm 0,0 UV-I 0 W/m 4,1 C 4,8 C 8,0 km/h (2 Bft) 90,91 %
24.03.2017 00:50 4,8 C 95 % 1019,3 hPa 0,0 l/m 3,8 km/h (1 Bft) O-NO 67 0 min 0,000 mm 0,0 UV-I 0 W/m 4,1 C 4,8 C 6,4 km/h (2 Bft) 94,87 %
24.03.2017 00:52 4,7 C 95 % 1019,3 hPa 0,0 l/m 3,7 km/h (1 Bft) O-NO 67 0 min 0,000 mm 0,0 UV-I 0 W/m 4,0 C 4,7 C 4,8 km/h (1 Bft) 92,00 %
24.03.2017 00:54 4,6 C 95 % 1019,3 hPa 0,0 l/m 2,7 km/h (1 Bft) O-NO 67 0 min 0,000 mm 0,0 UV-I 0 W/m 3,9 C 4,6 C 4,8 km/h (1 Bft) 92,00 %
24.03.2017 00:56 4,7 C 95 % 1019,3 hPa 0,0 l/m 2,5 km/h (1 Bft) O-NO 67 0 min 0,000 mm 0,0 UV-I 0 W/m 4,0 C 4,7 C 4,8 km/h (1 Bft) 95,65 %
24.03.2017 00:58 4,7 C 95 % 1019,4 hPa 0,0 l/m 2,2 km/h (1 Bft) O-NO 67 0 min 0,000 mm 0,0 UV-I 0 W/m 4,0 C 4,7 C 4,8 km/h (1 Bft) 93,22 %
24.03.2017 01:00 4,7 C 96 % 1019,3 hPa 0,0 l/m 3,5 km/h (1 Bft) O-NO 67 0 min 0,000 mm 0,0 UV-I 0 W/m 4,1 C 4,7 C 6,4 km/h (2 Bft) 90,57 %
24.03.2017 01:02 4,8 C 96 % 1019,2 hPa 0,0 l/m 6,4 km/h (2 Bft) NO 48 0 min 0,000 mm 0,0 UV-I 0 W/m 4,2 C 4,8 C 9,7 km/h (2 Bft) 96,23 %
24.03.2017 01:04 4,8 C 96 % 1019,2 hPa 0,0 l/m 6,7 km/h (2 Bft) O-NO 78 0 min 0,000 mm 0,0 UV-I 0 W/m 4,2 C 4,6 C 8,0 km/h (2 Bft) 92,11 %
24.03.2017 01:06 4,8 C 96 % 1019,2 hPa 0,0 l/m 5,5 km/h (1 Bft) O-NO 74 0 min 0,000 mm 0,0 UV-I 0 W/m 4,2 C 4,8 C 6,4 km/h (2 Bft) 93,62 %
24.03.2017 01:08 4,9 C 96 % 1019,2 hPa 0,0 l/m 4,8 km/h (1 Bft) O-NO 61 0 min 0,000 mm 0,0 UV-I 0 W/m 4,3 C 4,9 C 6,4 km/h (2 Bft) 90,00 %
24.03.2017 01:10 4,9 C 96 % 1019,3 hPa 0,0 l/m 3,6 km/h (1 Bft) NO 49 0 min 0,000 mm 0,0 UV-I 0 W/m 4,3 C 4,9 C 6,4 km/h (2 Bft) 92,68 %
24.03.2017 01:12 4,8 C 96 % 1019,3 hPa 0,0 l/m 4,4 km/h (1 Bft) N-NO 30 0 min 0,000 mm 0,0 UV-I 0 W/m 4,2 C 4,8 C 6,4 km/h (2 Bft) 94,87 %
24.03.2017 01:14 4,8 C 96 % 1019,3 hPa 0,0 l/m 5,0 km/h (1 Bft) N-NO 28 0 min 0,000 mm 0,0 UV-I 0 W/m 4,2 C 4,8 C 8,0 km/h (2 Bft) 92,73 %
24.03.2017 01:16 4,7 C 96 % 1019,4 hPa 0,0 l/m 6,2 km/h (2 Bft) N-NO 32 0 min 0,000 mm 0,0 UV-I 0 W/m 4,1 C 4,7 C 8,0 km/h (2 Bft) 93,22 %
24.03.2017 01:18 4,8 C 96 % 1019,3 hPa 0,0 l/m 4,9 km/h (1 Bft) NO 36 0 min 0,000 mm 0,0 UV-I 0 W/m 4,2 C 4,8 C 8,0 km/h (2 Bft) 92,11 %
24.03.2017 01:20 4,8 C 96 % 1019,4 hPa 0,0 l/m 4,7 km/h (1 Bft) N-NO 18 0 min 0,000 mm 0,0 UV-I 0 W/m 4,2 C 4,8 C 8,0 km/h (2 Bft) 93,62 %
24.03.2017 01:22 4,8 C 96 % 1019,5 hPa 0,0 l/m 4,2 km/h (1 Bft) N-NO 30 0 min 0,000 mm 0,0 UV-I 0 W/m 4,2 C 4,8 C 6,4 km/h (2 Bft) 98,00 %
24.03.2017 01:24 4,8 C 96 % 1019,6 hPa 0,0 l/m 5,0 km/h (1 Bft) N-NO 30 0 min 0,000 mm 0,0 UV-I 0 W/m 4,2 C 4,8 C 8,0 km/h (2 Bft) 96,00 %
24.03.2017 01:26 4,8 C 96 % 1019,7 hPa 0,0 l/m 3,9 km/h (1 Bft) NO 36 0 min 0,000 mm 0,0 UV-I 0 W/m 4,2 C 4,8 C 6,4 km/h (2 Bft) 97,44 %
24.03.2017 01:28 4,8 C 96 % 1019,7 hPa 0,0 l/m 2,3 km/h (1 Bft) NO 39 0 min 0,000 mm 0,0 UV-I 0 W/m 4,2 C 4,8 C 4,8 km/h (1 Bft) 98,11 %
24.03.2017 01:30 4,8 C 96 % 1019,8 hPa 0,0 l/m 0,7 km/h (0 Bft) NO 39 0 min 0,000 mm 0,0 UV-I 0 W/m 4,2 C 4,8 C 3,2 km/h (1 Bft) 97,56 %
24.03.2017 01:32 4,8 C 96 % 1019,8 hPa 0,0 l/m 2,2 km/h (1 Bft) NO 38 0 min 0,000 mm 0,0 UV-I 0 W/m 4,2 C 4,8 C 3,2 km/h (1 Bft) 96,43 %
24.03.2017 01:34 4,9 C 96 % 1019,9 hPa 0,0 l/m 4,2 km/h (1 Bft) NO 39 0 min 0,000 mm 0,0 UV-I 0 W/m 4,3 C 4,9 C 6,4 km/h (2 Bft) 100,00 %
24.03.2017 01:36 5,1 C 96 % 1019,9 hPa 0,0 l/m 5,3 km/h (1 Bft) NO 40 0 min 0,000 mm 0,0 UV-I 0 W/m 4,5 C 5,1 C 6,4 km/h (2 Bft) 95,74 %
24.03.2017 01:38 5,2 C 96 % 1019,9 hPa 0,0 l/m 3,6 km/h (1 Bft) NO 40 0 min 0,000 mm 0,0 UV-I 0 W/m 4,6 C 5,2 C 4,8 km/h (1 Bft) 94,74 %
24.03.2017 01:40 5,3 C 96 % 1019,9 hPa 0,0 l/m 2,9 km/h (1 Bft) O-NO 57 0 min 0,000 mm 0,0 UV-I 0 W/m 4,7 C 5,3 C 4,8 km/h (1 Bft) 97,87 %
24.03.2017 01:42 5,3 C 96 % 1019,9 hPa 0,0 l/m 5,1 km/h (1 Bft) O-NO 57 0 min 0,000 mm 0,0 UV-I 0 W/m 4,7 C 5,3 C 8,0 km/h (2 Bft) 98,21 %
24.03.2017 01:44 5,4 C 96 % 1019,9 hPa 0,0 l/m 6,1 km/h (2 Bft) O-NO 57 0 min 0,000 mm 0,0 UV-I 0 W/m 4,8 C 5,4 C 8,0 km/h (2 Bft) 100,00 %
24.03.2017 01:46 5,5 C 96 % 1019,9 hPa 0,0 l/m 3,8 km/h (1 Bft) NO 53 0 min 0,000 mm 0,0 UV-I 0 W/m 4,9 C 5,5 C 6,4 km/h (2 Bft) 96,43 %
24.03.2017 01:48 5,6 C 96 % 1019,9 hPa 0,0 l/m 5,7 km/h (1 Bft) NO 38 0 min 0,000 mm 0,0 UV-I 0 W/m 5,0 C 5,6 C 9,7 km/h (2 Bft) 97,87 %
24.03.2017 01:50 5,6 C 96 % 1019,8 hPa 0,0 l/m 8,0 km/h (2 Bft) NO 43 0 min 0,000 mm 0,0 UV-I 0 W/m 5,0 C 4,2 C 11,3 km/h (2 Bft) 97,56 %
24.03.2017 01:52 5,7 C 96 % 1019,9 hPa 0,0 l/m 7,3 km/h (2 Bft) O-NO 59 0 min 0,000 mm 0,0 UV-I 0 W/m 5,1 C 4,9 C 11,3 km/h (2 Bft) 100,00 %
24.03.2017 01:54 5,7 C 96 % 1019,8 hPa 0,0 l/m 6,4 km/h (2 Bft) O-NO 67 0 min 0,000 mm 0,0 UV-I 0 W/m 5,1 C 5,7 C 11,3 km/h (2 Bft) 98,11 %
24.03.2017 01:56 5,8 C 96 % 1019,9 hPa 0,0 l/m 8,2 km/h (2 Bft) NO 49 0 min 0,000 mm 0,0 UV-I 0 W/m 5,2 C 4,3 C 12,9 km/h (3 Bft) 100,00 %
24.03.2017 01:58 5,8 C 96 % 1019,8 hPa 0,0 l/m 6,4 km/h (2 Bft) NO 55 0 min 0,000 mm 0,0 UV-I 0 W/m 5,2 C 5,8 C 8,0 km/h (2 Bft) 98,11 %
24.03.2017 02:00 5,8 C 96 % 1019,8 hPa 0,0 l/m 10,1 km/h (2 Bft) O-NO 59 0 min 0,000 mm 0,0 UV-I 0 W/m 5,2 C 2,9 C 16,1 km/h (3 Bft) 98,00 %
24.03.2017 02:02 5,8 C 96 % 1019,9 hPa 0,0 l/m 11,0 km/h (2 Bft) O-NO 67 0 min 0,000 mm 0,0 UV-I 0 W/m 5,2 C 2,3 C 14,5 km/h (3 Bft) 100,00 %
24.03.2017 02:04 5,8 C 96 % 1019,8 hPa 0,0 l/m 8,6 km/h (2 Bft) O-NO 74 0 min 0,000 mm 0,0 UV-I 0 W/m 5,2 C 4,0 C 12,9 km/h (3 Bft) 97,62 %
24.03.2017 02:06 5,8 C 96 % 1019,7 hPa 0,0 l/m 9,2 km/h (2 Bft) O-NO 65 0 min 0,000 mm 0,0 UV-I 0 W/m 5,2 C 3,5 C 16,1 km/h (3 Bft) 100,00 %
24.03.2017 02:08 5,8 C 95 % 1019,6 hPa 0,0 l/m 11,0 km/h (2 Bft) NO 46 0 min 0,000 mm 0,0 UV-I 0 W/m 5,1 C 2,3 C 16,1 km/h (3 Bft) 98,11 %
24.03.2017 02:10 5,8 C 95 % 1019,6 hPa 0,0 l/m 11,4 km/h (2 Bft) O 85 0 min 0,000 mm 0,0 UV-I 0 W/m 5,1 C 2,0 C 14,5 km/h (3 Bft) 97,37 %
24.03.2017 02:12 5,8 C 96 % 1019,6 hPa 0,0 l/m 12,4 km/h (3 Bft) NO 56 0 min 0,000 mm 0,0 UV-I 0 W/m 5,2 C 1,4 C 16,1 km/h (3 Bft) 100,00 %
24.03.2017 02:14 5,8 C 95 % 1019,6 hPa 0,0 l/m 12,5 km/h (3 Bft) NO 55 0 min 0,000 mm 0,0 UV-I 0 W/m 5,1 C 1,4 C 19,3 km/h (3 Bft) 97,37 %
24.03.2017 02:16 5,8 C 95 % 1019,6 hPa 0,0 l/m 15,0 km/h (3 Bft) O-NO 70 0 min 0,000 mm 0,0 UV-I 0 W/m 5,1 C 0,0 C 19,3 km/h (3 Bft) 100,00 %
24.03.2017 02:18 5,9 C 95 % 1019,5 hPa 0,0 l/m 13,2 km/h (3 Bft) O 79 0 min 0,000 mm 0,0 UV-I 0 W/m 5,2 C 1,1 C 17,7 km/h (3 Bft) 97,73 %
24.03.2017 02:20 5,9 C 95 % 1019,6 hPa 0,0 l/m 13,8 km/h (3 Bft) NO 56 0 min 0,000 mm 0,0 UV-I 0 W/m 5,2 C 0,8 C 17,7 km/h (3 Bft) 100,00 %
24.03.2017 02:22 5,9 C 95 % 1019,6 hPa 0,0 l/m 15,5 km/h (3 Bft) NO 46 0 min 0,000 mm 0,0 UV-I 0 W/m 5,2 C -0,1 C 20,9 km/h (4 Bft) 100,00 %
24.03.2017 02:24 5,9 C 95 % 1019,7 hPa 0,0 l/m 11,4 km/h (2 Bft) O-NO 63 0 min 0,000 mm 0,0 UV-I 0 W/m 5,2 C 2,2 C 14,5 km/h (3 Bft) 92,68 %
24.03.2017 02:26 5,9 C 95 % 1019,7 hPa 0,0 l/m 11,3 km/h (2 Bft) NO 51 0 min 0,000 mm 0,0 UV-I 0 W/m 5,2 C 2,2 C 17,7 km/h (3 Bft) 98,11 %
24.03.2017 02:28 6,0 C 95 % 1019,8 hPa 0,0 l/m 12,0 km/h (2 Bft) O-NO 69 0 min 0,000 mm 0,0 UV-I 0 W/m 5,3 C 1,9 C 16,1 km/h (3 Bft) 97,73 %
24.03.2017 02:30 6,0 C 95 % 1019,8 hPa 0,0 l/m 10,5 km/h (2 Bft) NO 53 0 min 0,000 mm 0,0 UV-I 0 W/m 5,3 C 2,8 C 16,1 km/h (3 Bft) 97,56 %
24.03.2017 02:32 6,0 C 95 % 1019,9 hPa 0,0 l/m 8,1 km/h (2 Bft) O-NO 62 0 min 0,000 mm 0,0 UV-I 0 W/m 5,3 C 4,6 C 12,9 km/h (3 Bft) 98,11 %
24.03.2017 02:34 6,0 C 95 % 1019,9 hPa 0,0 l/m 7,7 km/h (2 Bft) O-NO 63 0 min 0,000 mm 0,0 UV-I 0 W/m 5,3 C 4,9 C 11,3 km/h (2 Bft) 100,00 %
24.03.2017 02:36 6,0 C 95 % 1020,0 hPa 0,0 l/m 6,9 km/h (2 Bft) O-NO 78 0 min 0,000 mm 0,0 UV-I 0 W/m 5,3 C 5,6 C 9,7 km/h (2 Bft) 97,87 %
24.03.2017 02:38 6,0 C 95 % 1020,0 hPa 0,0 l/m 9,5 km/h (2 Bft) O-NO 69 0 min 0,000 mm 0,0 UV-I 0 W/m 5,3 C 3,5 C 14,5 km/h (3 Bft) 100,00 %
24.03.2017 02:40 6,0 C 95 % 1020,0 hPa 0,0 l/m 7,7 km/h (2 Bft) O-NO 67 0 min 0,000 mm 0,0 UV-I 0 W/m 5,3 C 4,9 C 16,1 km/h (3 Bft) 96,43 %
24.03.2017 02:42 6,0 C 95 % 1019,9 hPa 0,0 l/m 9,8 km/h (2 Bft) O-NO 67 0 min 0,000 mm 0,0 UV-I 0 W/m 5,3 C 3,3 C 14,5 km/h (3 Bft) 96,00 %
24.03.2017 02:44 6,0 C 95 % 1020,0 hPa 0,0 l/m 9,8 km/h (2 Bft) O 81 0 min 0,000 mm 0,0 UV-I 0 W/m 5,3 C 3,3 C 12,9 km/h (3 Bft) 100,00 %
24.03.2017 02:46 6,0 C 95 % 1020,0 hPa 0,0 l/m 12,3 km/h (3 Bft) O 80 0 min 0,000 mm 0,0 UV-I 0 W/m 5,3 C 1,7 C 17,7 km/h (3 Bft) 98,11 %
24.03.2017 02:48 6,0 C 95 % 1020,0 hPa 0,0 l/m 11,9 km/h (2 Bft) O-NO 62 0 min 0,000 mm 0,0 UV-I 0 W/m 5,3 C 2,0 C 17,7 km/h (3 Bft) 100,00 %
24.03.2017 02:50 6,0 C 95 % 1020,1 hPa 0,0 l/m 11,6 km/h (2 Bft) O 84 0 min 0,000 mm 0,0 UV-I 0 W/m 5,3 C 2,1 C 16,1 km/h (3 Bft) 97,37 %
24.03.2017 02:52 6,0 C 95 % 1020,0 hPa 0,0 l/m 12,4 km/h (3 Bft) O 87 0 min 0,000 mm 0,0 UV-I 0 W/m 5,3 C 1,7 C 16,1 km/h (3 Bft) 100,00 %
24.03.2017 02:54 6,0 C 95 % 1020,0 hPa 0,0 l/m 9,8 km/h (2 Bft) O-NO 65 0 min 0,000 mm 0,0 UV-I 0 W/m 5,3 C 3,3 C 16,1 km/h (3 Bft) 95,12 %
24.03.2017 02:56 6,0 C 95 % 1020,0 hPa 0,0 l/m 11,6 km/h (2 Bft) O-NO 78 0 min 0,000 mm 0,0 UV-I 0 W/m 5,3 C 2,1 C 16,1 km/h (3 Bft) 96,00 %
24.03.2017 02:58 6,0 C 95 % 1020,0 hPa 0,0 l/m 9,9 km/h (2 Bft) O-NO 70 0 min 0,000 mm 0,0 UV-I 0 W/m 5,3 C 3,2 C 16,1 km/h (3 Bft) 97,56 %
24.03.2017 03:00 6,0 C 95 % 1020,1 hPa 0,0 l/m 9,7 km/h (2 Bft) O-NO 69 0 min 0,000 mm 0,0 UV-I 0 W/m 5,3 C 3,4 C 17,7 km/h (3 Bft) 92,45 %
24.03.2017 03:02 6,0 C 95 % 1020,1 hPa 0,0 l/m 10,8 km/h (2 Bft) O-NO 76 0 min 0,000 mm 0,0 UV-I 0 W/m 5,3 C 2,6 C 16,1 km/h (3 Bft) 93,62 %
24.03.2017 03:04 6,0 C 95 % 1020,2 hPa 0,0 l/m 8,0 km/h (2 Bft) O-NO 66 0 min 0,000 mm 0,0 UV-I 0 W/m 5,3 C 4,7 C 11,3 km/h (2 Bft) 95,12 %
24.03.2017 03:06 6,0 C 95 % 1020,2 hPa 0,0 l/m 9,6 km/h (2 Bft) O 89 0 min 0,000 mm 0,0 UV-I 0 W/m 5,3 C 3,5 C 16,1 km/h (3 Bft) 96,00 %
24.03.2017 03:08 6,0 C 95 % 1020,3 hPa 0,0 l/m 10,3 km/h (2 Bft) O-NO 74 0 min 0,000 mm 0,0 UV-I 0 W/m 5,3 C 3,0 C 12,9 km/h (3 Bft) 97,73 %
24.03.2017 03:10 6,0 C 95 % 1020,3 hPa 0,0 l/m 9,8 km/h (2 Bft) O-NO 71 0 min 0,000 mm 0,0 UV-I 0 W/m 5,3 C 3,3 C 14,5 km/h (3 Bft) 95,45 %
24.03.2017 03:12 6,0 C 95 % 1020,3 hPa 0,0 l/m 6,5 km/h (2 Bft) O-NO 72 0 min 0,000 mm 0,0 UV-I 0 W/m 5,3 C 5,9 C 11,3 km/h (2 Bft) 98,00 %
24.03.2017 03:14 6,0 C 95 % 1020,3 hPa 0,0 l/m 7,4 km/h (2 Bft) NO 47 0 min 0,000 mm 0,0 UV-I 0 W/m 5,3 C 5,1 C 11,3 km/h (2 Bft) 98,11 %
24.03.2017 03:16 6,0 C 95 % 1020,3 hPa 0,0 l/m 6,0 km/h (2 Bft) O-NO 70 0 min 0,000 mm 0,0 UV-I 0 W/m 5,3 C 6,0 C 9,7 km/h (2 Bft) 94,00 %
24.03.2017 03:18 6,0 C 95 % 1020,3 hPa 0,0 l/m 5,3 km/h (1 Bft) NO 55 0 min 0,000 mm 0,0 UV-I 0 W/m 5,3 C 6,0 C 8,0 km/h (2 Bft) 97,37 %
24.03.2017 03:20 6,0 C 95 % 1020,4 hPa 0,0 l/m 6,0 km/h (2 Bft) O-NO 71 0 min 0,000 mm 0,0 UV-I 0 W/m 5,3 C 6,0 C 9,7 km/h (2 Bft) 94,64 %
24.03.2017 03:22 6,0 C 95 % 1020,4 hPa 0,0 l/m 6,6 km/h (2 Bft) O-NO 60 0 min 0,000 mm 0,0 UV-I 0 W/m 5,3 C 5,9 C 9,7 km/h (2 Bft) 95,45 %
24.03.2017 03:24 6,0 C 95 % 1020,4 hPa 0,0 l/m 8,0 km/h (2 Bft) NO 52 0 min 0,000 mm 0,0 UV-I 0 W/m 5,3 C 4,7 C 12,9 km/h (3 Bft) 97,62 %
24.03.2017 03:26 6,0 C 95 % 1020,5 hPa 0,0 l/m 7,6 km/h (2 Bft) O-NO 59 0 min 0,000 mm 0,0 UV-I 0 W/m 5,3 C 5,0 C 9,7 km/h (2 Bft) 96,23 %
24.03.2017 03:28 6,0 C 95 % 1020,5 hPa 0,0 l/m 7,3 km/h (2 Bft) O-NO 61 0 min 0,000 mm 0,0 UV-I 0 W/m 5,3 C 5,2 C 9,7 km/h (2 Bft) 97,73 %
24.03.2017 03:30 6,0 C 95 % 1020,5 hPa 0,0 l/m 9,3 km/h (2 Bft) O-NO 74 0 min 0,000 mm 0,0 UV-I 0 W/m 5,3 C 3,7 C 14,5 km/h (3 Bft) 97,37 %
24.03.2017 03:33 6,0 C 95 % 1020,6 hPa 0,0 l/m 8,1 km/h (2 Bft) O-NO 69 0 min 0,000 mm 0,0 UV-I 0 W/m 5,3 C 4,6 C 12,9 km/h (3 Bft) 98,73 %
24.03.2017 03:34 6,0 C 95 % 1020,6 hPa 0,0 l/m 9,0 km/h (2 Bft) O-NO 59 0 min 0,000 mm 0,0 UV-I 0 W/m 5,3 C 3,9 C 11,3 km/h (2 Bft) 100,00 %
24.03.2017 03:36 6,1 C 95 % 1020,6 hPa 0,0 l/m 7,2 km/h (2 Bft) O-NO 59 0 min 0,000 mm 0,0 UV-I 0 W/m 5,4 C 5,4 C 11,3 km/h (2 Bft) 95,45 %
24.03.2017 03:38 6,1 C 95 % 1020,7 hPa 0,0 l/m 6,4 km/h (2 Bft) NO 46 0 min 0,000 mm 0,0 UV-I 0 W/m 5,4 C 6,1 C 9,7 km/h (2 Bft) 100,00 %
24.03.2017 03:40 6,1 C 95 % 1020,7 hPa 0,0 l/m 7,2 km/h (2 Bft) NO 55 0 min 0,000 mm 0,0 UV-I 0 W/m 5,4 C 5,4 C 9,7 km/h (2 Bft) 97,73 %
24.03.2017 03:42 6,1 C 95 % 1020,7 hPa 0,0 l/m 6,2 km/h (2 Bft) O-NO 57 0 min 0,000 mm 0,0 UV-I 0 W/m 5,4 C 6,1 C 9,7 km/h (2 Bft) 100,00 %
24.03.2017 03:44 6,1 C 94 % 1020,8 hPa 0,0 l/m 6,8 km/h (2 Bft) NO 47 0 min 0,000 mm 0,0 UV-I 0 W/m 5,2 C 5,8 C 12,9 km/h (3 Bft) 97,37 %
24.03.2017 03:46 6,1 C 95 % 1020,8 hPa 0,0 l/m 9,4 km/h (2 Bft) NO 36 0 min 0,000 mm 0,0 UV-I 0 W/m 5,4 C 3,7 C 17,7 km/h (3 Bft) 98,00 %
24.03.2017 03:48 6,1 C 94 % 1020,8 hPa 0,0 l/m 7,9 km/h (2 Bft) NO 46 0 min 0,000 mm 0,0 UV-I 0 W/m 5,2 C 4,8 C 12,9 km/h (3 Bft) 97,87 %
24.03.2017 03:50 6,1 C 94 % 1020,8 hPa 0,0 l/m 9,1 km/h (2 Bft) N-NO 32 0 min 0,000 mm 0,0 UV-I 0 W/m 5,2 C 3,9 C 12,9 km/h (3 Bft) 97,87 %
24.03.2017 03:52 6,2 C 94 % 1020,8 hPa 0,0 l/m 12,6 km/h (3 Bft) NO 46 0 min 0,000 mm 0,0 UV-I 0 W/m 5,3 C 1,8 C 17,7 km/h (3 Bft) 95,12 %
24.03.2017 03:54 6,2 C 94 % 1020,8 hPa 0,0 l/m 9,1 km/h (2 Bft) NO 53 0 min 0,000 mm 0,0 UV-I 0 W/m 5,3 C 4,0 C 14,5 km/h (3 Bft) 100,00 %
24.03.2017 03:56 6,1 C 94 % 1020,8 hPa 0,0 l/m 10,1 km/h (2 Bft) NO 35 0 min 0,000 mm 0,0 UV-I 0 W/m 5,2 C 3,2 C 16,1 km/h (3 Bft) 97,73 %
24.03.2017 03:58 6,2 C 94 % 1020,7 hPa 0,0 l/m 11,5 km/h (2 Bft) NO 44 0 min 0,000 mm 0,0 UV-I 0 W/m 5,3 C 2,4 C 16,1 km/h (3 Bft) 100,00 %
24.03.2017 04:00 6,2 C 94 % 1020,8 hPa 0,0 l/m 10,3 km/h (2 Bft) NO 55 0 min 0,000 mm 0,0 UV-I 0 W/m 5,3 C 3,2 C 16,1 km/h (3 Bft) 96,15 %
24.03.2017 04:02 6,1 C 93 % 1020,8 hPa 0,0 l/m 11,3 km/h (2 Bft) NO 38 0 min 0,000 mm 0,0 UV-I 0 W/m 5,1 C 2,4 C 14,5 km/h (3 Bft) 96,88 %
24.03.2017 04:04 6,1 C 93 % 1020,9 hPa 0,0 l/m 10,0 km/h (2 Bft) NO 50 0 min 0,000 mm 0,0 UV-I 0 W/m 5,1 C 3,3 C 16,1 km/h (3 Bft) 100,00 %
24.03.2017 04:06 6,1 C 93 % 1020,8 hPa 0,0 l/m 9,9 km/h (2 Bft) N-NO 17 0 min 0,000 mm 0,0 UV-I 0 W/m 5,1 C 3,4 C 14,5 km/h (3 Bft) 98,21 %
24.03.2017 04:08 6,2 C 93 % 1020,9 hPa 0,0 l/m 13,3 km/h (3 Bft) O-NO 57 0 min 0,000 mm 0,0 UV-I 0 W/m 5,2 C 1,4 C 17,7 km/h (3 Bft) 97,56 %
24.03.2017 04:10 6,2 C 93 % 1021,0 hPa 0,0 l/m 10,0 km/h (2 Bft) NO 52 0 min 0,000 mm 0,0 UV-I 0 W/m 5,2 C 3,4 C 16,1 km/h (3 Bft) 97,56 %
24.03.2017 04:12 6,2 C 93 % 1021,1 hPa 0,0 l/m 6,6 km/h (2 Bft) NO 51 0 min 0,000 mm 0,0 UV-I 0 W/m 5,2 C 6,1 C 11,3 km/h (2 Bft) 96,61 %
24.03.2017 04:14 6,2 C 93 % 1021,2 hPa 0,0 l/m 8,5 km/h (2 Bft) N-NO 29 0 min 0,000 mm 0,0 UV-I 0 W/m 5,2 C 4,5 C 17,7 km/h (3 Bft) 100,00 %
24.03.2017 04:16 6,2 C 93 % 1021,3 hPa 0,0 l/m 7,1 km/h (2 Bft) O-NO 65 0 min 0,000 mm 0,0 UV-I 0 W/m 5,2 C 5,6 C 11,3 km/h (2 Bft) 98,00 %
24.03.2017 04:18 6,2 C 93 % 1021,3 hPa 0,0 l/m 9,8 km/h (2 Bft) O-NO 59 0 min 0,000 mm 0,0 UV-I 0 W/m 5,2 C 3,5 C 16,1 km/h (3 Bft) 97,14 %
24.03.2017 04:20 6,3 C 93 % 1021,4 hPa 0,0 l/m 9,0 km/h (2 Bft) NO 55 0 min 0,000 mm 0,0 UV-I 0 W/m 5,3 C 4,2 C 14,5 km/h (3 Bft) 100,00 %
24.03.2017 04:22 6,3 C 92 % 1021,6 hPa 0,0 l/m 9,1 km/h (2 Bft) NO 52 0 min 0,000 mm 0,0 UV-I 0 W/m 5,1 C 4,1 C 12,9 km/h (3 Bft) 100,00 %
24.03.2017 04:24 6,3 C 92 % 1021,6 hPa 0,0 l/m 7,4 km/h (2 Bft) O-NO 60 0 min 0,000 mm 0,0 UV-I 0 W/m 5,1 C 5,5 C 9,7 km/h (2 Bft) 98,31 %
24.03.2017 04:26 6,3 C 92 % 1021,6 hPa 0,0 l/m 6,3 km/h (2 Bft) O-NO 68 0 min 0,000 mm 0,0 UV-I 0 W/m 5,1 C 6,3 C 9,7 km/h (2 Bft) 95,74 %
24.03.2017 04:28 6,3 C 92 % 1021,6 hPa 0,0 l/m 7,5 km/h (2 Bft) NO 53 0 min 0,000 mm 0,0 UV-I 0 W/m 5,1 C 5,4 C 12,9 km/h (3 Bft) 95,45 %
24.03.2017 04:30 6,3 C 92 % 1021,7 hPa 0,0 l/m 7,7 km/h (2 Bft) O-NO 61 0 min 0,000 mm 0,0 UV-I 0 W/m 5,1 C 5,2 C 12,9 km/h (3 Bft) 98,00 %
24.03.2017 04:32 6,3 C 92 % 1021,7 hPa 0,0 l/m 6,9 km/h (2 Bft) O-NO 59 0 min 0,000 mm 0,0 UV-I 0 W/m 5,1 C 5,9 C 9,7 km/h (2 Bft) 94,29 %
24.03.2017 04:34 6,3 C 92 % 1021,8 hPa 0,0 l/m 5,3 km/h (1 Bft) NO 56 0 min 0,000 mm 0,0 UV-I 0 W/m 5,1 C 6,3 C 9,7 km/h (2 Bft) 96,23 %
24.03.2017 04:36 6,3 C 92 % 1021,7 hPa 0,0 l/m 7,0 km/h (2 Bft) O-NO 65 0 min 0,000 mm 0,0 UV-I 0 W/m 5,1 C 5,8 C 9,7 km/h (2 Bft) 97,73 %
24.03.2017 04:38 6,3 C 92 % 1021,7 hPa 0,0 l/m 8,4 km/h (2 Bft) NO 54 0 min 0,000 mm 0,0 UV-I 0 W/m 5,1 C 4,7 C 14,5 km/h (3 Bft) 94,00 %
24.03.2017 04:40 6,3 C 92 % 1021,7 hPa 0,0 l/m 6,9 km/h (2 Bft) NO 40 0 min 0,000 mm 0,0 UV-I 0 W/m 5,1 C 5,9 C 9,7 km/h (2 Bft) 95,24 %
24.03.2017 04:42 6,3 C 92 % 1021,8 hPa 0,0 l/m 8,4 km/h (2 Bft) NO 36 0 min 0,000 mm 0,0 UV-I 0 W/m 5,1 C 4,7 C 14,5 km/h (3 Bft) 98,18 %
24.03.2017 04:44 6,3 C 92 % 1021,7 hPa 0,0 l/m 8,3 km/h (2 Bft) O-NO 63 0 min 0,000 mm 0,0 UV-I 0 W/m 5,1 C 4,7 C 14,5 km/h (3 Bft) 91,67 %
24.03.2017 04:46 6,3 C 92 % 1021,8 hPa 0,0 l/m 8,5 km/h (2 Bft) O-NO 59 0 min 0,000 mm 0,0 UV-I 0 W/m 5,1 C 4,6 C 12,9 km/h (3 Bft) 97,87 %
24.03.2017 04:48 6,3 C 92 % 1021,8 hPa 0,0 l/m 9,8 km/h (2 Bft) O-NO 69 0 min 0,000 mm 0,0 UV-I 0 W/m 5,1 C 3,6 C 16,1 km/h (3 Bft) 97,14 %
24.03.2017 04:50 6,3 C 92 % 1021,8 hPa 0,0 l/m 9,4 km/h (2 Bft) O-NO 59 0 min 0,000 mm 0,0 UV-I 0 W/m 5,1 C 3,9 C 14,5 km/h (3 Bft) 94,64 %
24.03.2017 04:52 6,3 C 92 % 1021,8 hPa 0,0 l/m 11,3 km/h (2 Bft) NO 55 0 min 0,000 mm 0,0 UV-I 0 W/m 5,1 C 2,7 C 16,1 km/h (3 Bft) 100,00 %
24.03.2017 04:54 6,3 C 92 % 1021,8 hPa 0,0 l/m 13,2 km/h (3 Bft) O-NO 65 0 min 0,000 mm 0,0 UV-I 0 W/m 5,1 C 1,6 C 17,7 km/h (3 Bft) 96,92 %
24.03.2017 04:56 6,3 C 92 % 1021,9 hPa 0,0 l/m 11,3 km/h (2 Bft) O-NO 61 0 min 0,000 mm 0,0 UV-I 0 W/m 5,1 C 2,7 C 16,1 km/h (3 Bft) 97,87 %
24.03.2017 04:58 6,3 C 92 % 1021,9 hPa 0,0 l/m 8,5 km/h (2 Bft) NO 45 0 min 0,000 mm 0,0 UV-I 0 W/m 5,1 C 4,6 C 16,1 km/h (3 Bft) 95,74 %
24.03.2017 05:00 6,2 C 92 % 1021,9 hPa 0,0 l/m 8,4 km/h (2 Bft) NO 53 0 min 0,000 mm 0,0 UV-I 0 W/m 5,0 C 4,6 C 14,5 km/h (3 Bft) 93,62 %
24.03.2017 05:02 6,2 C 92 % 1021,9 hPa 0,0 l/m 9,6 km/h (2 Bft) NO 48 0 min 0,000 mm 0,0 UV-I 0 W/m 5,0 C 3,7 C 14,5 km/h (3 Bft) 92,45 %
24.03.2017 05:04 6,2 C 92 % 1021,9 hPa 0,0 l/m 9,3 km/h (2 Bft) O-NO 65 0 min 0,000 mm 0,0 UV-I 0 W/m 5,0 C 3,9 C 16,1 km/h (3 Bft) 92,68 %
24.03.2017 05:06 6,2 C 92 % 1022,0 hPa 0,0 l/m 8,1 km/h (2 Bft) O-NO 63 0 min 0,000 mm 0,0 UV-I 0 W/m 5,0 C 4,8 C 12,9 km/h (3 Bft) 93,62 %
24.03.2017 05:08 6,2 C 92 % 1022,0 hPa 0,0 l/m 9,2 km/h (2 Bft) NO 41 0 min 0,000 mm 0,0 UV-I 0 W/m 5,0 C 4,0 C 14,5 km/h (3 Bft) 90,24 %
24.03.2017 05:10 6,2 C 92 % 1022,0 hPa 0,0 l/m 8,8 km/h (2 Bft) NO 44 0 min 0,000 mm 0,0 UV-I 0 W/m 5,0 C 4,2 C 14,5 km/h (3 Bft) 92,00 %
24.03.2017 05:12 6,2 C 91 % 1022,0 hPa 0,0 l/m 10,6 km/h (2 Bft) NO 55 0 min 0,000 mm 0,0 UV-I 0 W/m 4,8 C 3,0 C 16,1 km/h (3 Bft) 96,23 %
24.03.2017 05:14 6,2 C 91 % 1022,0 hPa 0,0 l/m 11,7 km/h (2 Bft) O-NO 63 0 min 0,000 mm 0,0 UV-I 0 W/m 4,8 C 2,3 C 16,1 km/h (3 Bft) 91,49 %
24.03.2017 05:16 6,2 C 91 % 1022,0 hPa 0,0 l/m 13,2 km/h (3 Bft) O-NO 66 0 min 0,000 mm 0,0 UV-I 0 W/m 4,8 C 1,5 C 17,7 km/h (3 Bft) 90,24 %
24.03.2017 05:18 6,2 C 91 % 1022,1 hPa 0,0 l/m 15,2 km/h (3 Bft) NO 44 0 min 0,000 mm 0,0 UV-I 0 W/m 4,8 C 0,4 C 19,3 km/h (3 Bft) 88,68 %
24.03.2017 05:20 6,2 C 91 % 1022,1 hPa 0,0 l/m 12,7 km/h (3 Bft) NO 55 0 min 0,000 mm 0,0 UV-I 0 W/m 4,8 C 1,7 C 19,3 km/h (3 Bft) 92,86 %
24.03.2017 05:22 6,2 C 90 % 1022,2 hPa 0,0 l/m 11,1 km/h (2 Bft) O-NO 62 0 min 0,000 mm 0,0 UV-I 0 W/m 4,7 C 2,7 C 17,7 km/h (3 Bft) 92,54 %
24.03.2017 05:24 6,2 C 91 % 1022,2 hPa 0,0 l/m 13,3 km/h (3 Bft) NO 44 0 min 0,000 mm 0,0 UV-I 0 W/m 4,8 C 1,4 C 17,7 km/h (3 Bft) 92,86 %
24.03.2017 05:26 6,2 C 91 % 1022,2 hPa 0,0 l/m 9,6 km/h (2 Bft) O-NO 63 0 min 0,000 mm 0,0 UV-I 0 W/m 4,8 C 3,7 C 14,5 km/h (3 Bft) 94,00 %
24.03.2017 05:28 6,2 C 91 % 1022,2 hPa 0,0 l/m 9,8 km/h (2 Bft) NO 53 0 min 0,000 mm 0,0 UV-I 0 W/m 4,8 C 3,5 C 16,1 km/h (3 Bft) 92,00 %
24.03.2017 05:30 6,2 C 91 % 1022,2 hPa 0,0 l/m 9,9 km/h (2 Bft) NO 44 0 min 0,000 mm 0,0 UV-I 0 W/m 4,8 C 3,5 C 16,1 km/h (3 Bft) 94,29 %
24.03.2017 05:32 6,2 C 91 % 1022,2 hPa 0,0 l/m 9,4 km/h (2 Bft) NO 48 0 min 0,000 mm 0,0 UV-I 0 W/m 4,8 C 3,8 C 14,5 km/h (3 Bft) 92,45 %
24.03.2017 05:34 6,2 C 91 % 1022,3 hPa 0,0 l/m 9,6 km/h (2 Bft) N-NO 30 0 min 0,000 mm 0,0 UV-I 0 W/m 4,8 C 3,7 C 16,1 km/h (3 Bft) 97,56 %
24.03.2017 05:36 6,2 C 91 % 1022,3 hPa 0,0 l/m 11,8 km/h (2 Bft) NO 49 0 min 0,000 mm 0,0 UV-I 0 W/m 4,8 C 2,3 C 16,1 km/h (3 Bft) 94,64 %
24.03.2017 05:38 6,2 C 91 % 1022,4 hPa 0,0 l/m 11,2 km/h (2 Bft) NO 42 0 min 0,000 mm 0,0 UV-I 0 W/m 4,8 C 2,6 C 17,7 km/h (3 Bft) 97,62 %
24.03.2017 05:40 6,2 C 90 % 1022,5 hPa 0,0 l/m 11,1 km/h (2 Bft) O-NO 57 0 min 0,000 mm 0,0 UV-I 0 W/m 4,7 C 2,7 C 16,1 km/h (3 Bft) 96,08 %
24.03.2017 05:42 6,2 C 90 % 1022,6 hPa 0,0 l/m 8,5 km/h (2 Bft) NO 55 0 min 0,000 mm 0,0 UV-I 0 W/m 4,7 C 4,5 C 12,9 km/h (3 Bft) 94,74 %
24.03.2017 05:44 6,2 C 91 % 1022,6 hPa 0,0 l/m 7,8 km/h (2 Bft) NO 52 0 min 0,000 mm 0,0 UV-I 0 W/m 4,8 C 5,0 C 14,5 km/h (3 Bft) 96,23 %
24.03.2017 05:46 6,2 C 91 % 1022,6 hPa 0,0 l/m 8,1 km/h (2 Bft) O-NO 67 0 min 0,000 mm 0,0 UV-I 0 W/m 4,8 C 4,8 C 11,3 km/h (2 Bft) 97,73 %
24.03.2017 05:48 6,2 C 91 % 1022,6 hPa 0,0 l/m 7,6 km/h (2 Bft) O-NO 59 0 min 0,000 mm 0,0 UV-I 0 W/m 4,8 C 5,2 C 11,3 km/h (2 Bft) 97,73 %
24.03.2017 05:50 6,2 C 91 % 1022,6 hPa 0,0 l/m 7,5 km/h (2 Bft) NO 37 0 min 0,000 mm 0,0 UV-I 0 W/m 4,8 C 5,3 C 12,9 km/h (3 Bft) 94,34 %
24.03.2017 05:52 6,2 C 91 % 1022,7 hPa 0,0 l/m 7,0 km/h (2 Bft) NO 34 0 min 0,000 mm 0,0 UV-I 0 W/m 4,8 C 5,7 C 9,7 km/h (2 Bft) 97,37 %
24.03.2017 05:54 6,2 C 91 % 1022,7 hPa 0,0 l/m 9,4 km/h (2 Bft) N-NO 32 0 min 0,000 mm 0,0 UV-I 0 W/m 4,8 C 3,8 C 14,5 km/h (3 Bft) 94,92 %
24.03.2017 05:56 6,2 C 91 % 1022,7 hPa 0,0 l/m 12,3 km/h (3 Bft) N 11 0 min 0,000 mm 0,0 UV-I 0 W/m 4,8 C 2,0 C 16,1 km/h (3 Bft) 97,37 %
24.03.2017 05:58 6,2 C 91 % 1022,7 hPa 0,0 l/m 11,8 km/h (2 Bft) N-NO 30 0 min 0,000 mm 0,0 UV-I 0 W/m 4,8 C 2,3 C 17,7 km/h (3 Bft) 98,21 %
24.03.2017 06:00 6,2 C 91 % 1022,8 hPa 0,0 l/m 9,6 km/h (2 Bft) O-NO 77 0 min 0,000 mm 0,0 UV-I 0 W/m 4,8 C 3,7 C 14,5 km/h (3 Bft) 97,62 %
24.03.2017 06:02 6,2 C 91 % 1022,8 hPa 0,0 l/m 8,1 km/h (2 Bft) NO 49 0 min 0,000 mm 0,0 UV-I 2 W/m 4,8 C 4,8 C 12,9 km/h (3 Bft) 97,87 %
24.03.2017 06:04 6,2 C 91 % 1022,8 hPa 0,0 l/m 12,0 km/h (2 Bft) NO 50 0 min 0,000 mm 0,0 UV-I 5 W/m 4,8 C 2,1 C 17,7 km/h (3 Bft) 90,91 %
24.03.2017 06:06 6,2 C 91 % 1022,8 hPa 0,0 l/m 10,2 km/h (2 Bft) O-NO 67 0 min 0,000 mm 0,0 UV-I 5 W/m 4,8 C 3,3 C 14,5 km/h (3 Bft) 96,23 %
24.03.2017 06:08 6,3 C 91 % 1022,8 hPa 0,0 l/m 9,5 km/h (2 Bft) NO 53 0 min 0,000 mm 0,0 UV-I 5 W/m 4,9 C 3,9 C 14,5 km/h (3 Bft) 97,56 %
24.03.2017 06:10 6,3 C 91 % 1022,8 hPa 0,0 l/m 8,9 km/h (2 Bft) NO 36 0 min 0,000 mm 0,0 UV-I 6 W/m 4,9 C 4,3 C 14,5 km/h (3 Bft) 96,23 %
24.03.2017 06:12 6,3 C 91 % 1022,8 hPa 0,0 l/m 10,7 km/h (2 Bft) NO 40 0 min 0,000 mm 0,0 UV-I 7 W/m 4,9 C 3,0 C 14,5 km/h (3 Bft) 100,00 %
24.03.2017 06:14 6,3 C 91 % 1022,8 hPa 0,0 l/m 11,3 km/h (2 Bft) NO 50 0 min 0,000 mm 0,0 UV-I 7 W/m 4,9 C 2,7 C 17,7 km/h (3 Bft) 96,00 %
24.03.2017 06:16 6,3 C 91 % 1022,8 hPa 0,0 l/m 9,6 km/h (2 Bft) NO 54 0 min 0,000 mm 0,0 UV-I 7 W/m 4,9 C 3,8 C 16,1 km/h (3 Bft) 96,23 %
24.03.2017 06:18 6,3 C 91 % 1022,8 hPa 0,0 l/m 9,7 km/h (2 Bft) O-NO 59 0 min 0,000 mm 0,0 UV-I 9 W/m 4,9 C 3,7 C 14,5 km/h (3 Bft) 97,37 %
24.03.2017 06:20 6,3 C 91 % 1022,8 hPa 0,0 l/m 12,5 km/h (3 Bft) O-NO 69 0 min 0,000 mm 0,0 UV-I 9 W/m 4,9 C 2,0 C 17,7 km/h (3 Bft) 94,92 %
24.03.2017 06:22 6,3 C 91 % 1022,9 hPa 0,0 l/m 10,8 km/h (2 Bft) NO 48 0 min 0,000 mm 0,0 UV-I 11 W/m 4,9 C 3,0 C 17,7 km/h (3 Bft) 89,36 %
24.03.2017 06:24 6,3 C 91 % 1022,9 hPa 0,0 l/m 11,9 km/h (2 Bft) NO 47 0 min 0,000 mm 0,0 UV-I 11 W/m 4,9 C 2,3 C 17,7 km/h (3 Bft) 97,56 %
24.03.2017 06:25 6,3 C 91 % 1022,9 hPa 0,0 l/m 11,3 km/h (2 Bft) NO 45 0 min 0,000 mm 0,0 UV-I 11 W/m 4,9 C 2,7 C 17,7 km/h (3 Bft) 96,49 %
24.03.2017 06:28 6,3 C 91 % 1022,9 hPa 0,0 l/m 15,6 km/h (3 Bft) NO 38 0 min 0,000 mm 0,0 UV-I 14 W/m 4,9 C 0,4 C 19,3 km/h (3 Bft) 100,00 %
24.03.2017 06:30 6,3 C 91 % 1023,0 hPa 0,0 l/m 10,6 km/h (2 Bft) NO 49 0 min 0,000 mm 0,0 UV-I 15 W/m 4,9 C 3,1 C 16,1 km/h (3 Bft) 94,44 %
24.03.2017 06:32 6,3 C 91 % 1023,0 hPa 0,0 l/m 9,0 km/h (2 Bft) O-NO 61 0 min 0,000 mm 0,0 UV-I 16 W/m 4,9 C 4,2 C 12,9 km/h (3 Bft) 100,00 %
24.03.2017 06:34 6,3 C 91 % 1023,0 hPa 0,0 l/m 9,0 km/h (2 Bft) NO 50 0 min 0,000 mm 0,0 UV-I 18 W/m 4,9 C 4,2 C 14,5 km/h (3 Bft) 93,18 %
24.03.2017 06:36 6,3 C 91 % 1023,1 hPa 0,0 l/m 11,1 km/h (2 Bft) NO 51 0 min 0,000 mm 0,0 UV-I 19 W/m 4,9 C 2,8 C 16,1 km/h (3 Bft) 96,23 %
24.03.2017 06:38 6,3 C 91 % 1023,1 hPa 0,0 l/m 10,8 km/h (2 Bft) NO 44 0 min 0,000 mm 0,0 UV-I 19 W/m 4,9 C 3,0 C 16,1 km/h (3 Bft) 97,56 %
24.03.2017 06:40 6,3 C 91 % 1023,0 hPa 0,0 l/m 9,4 km/h (2 Bft) NO 55 0 min 0,000 mm 0,0 UV-I 20 W/m 4,9 C 3,9 C 14,5 km/h (3 Bft) 95,74 %
24.03.2017 06:42 6,3 C 91 % 1023,0 hPa 0,0 l/m 13,1 km/h (3 Bft) O-NO 64 0 min 0,000 mm 0,0 UV-I 21 W/m 4,9 C 1,6 C 17,7 km/h (3 Bft) 97,87 %
24.03.2017 06:44 6,4 C 90 % 1023,0 hPa 0,0 l/m 9,4 km/h (2 Bft) O-NO 71 0 min 0,000 mm 0,0 UV-I 21 W/m 4,9 C 4,0 C 14,5 km/h (3 Bft) 98,00 %
24.03.2017 06:46 6,4 C 90 % 1023,1 hPa 0,0 l/m 11,7 km/h (2 Bft) NO 42 0 min 0,000 mm 0,0 UV-I 23 W/m 4,9 C 2,5 C 20,9 km/h (4 Bft) 100,00 %
24.03.2017 06:48 6,4 C 90 % 1023,2 hPa 0,0 l/m 13,3 km/h (3 Bft) NO 55 0 min 0,000 mm 0,0 UV-I 24 W/m 4,9 C 1,6 C 17,7 km/h (3 Bft) 85,37 %
24.03.2017 06:50 6,4 C 90 % 1023,2 hPa 0,0 l/m 8,9 km/h (2 Bft) O-NO 66 0 min 0,000 mm 0,0 UV-I 25 W/m 4,9 C 4,4 C 17,7 km/h (3 Bft) 98,31 %
24.03.2017 06:52 6,4 C 90 % 1023,2 hPa 0,0 l/m 11,2 km/h (2 Bft) N-NO 28 0 min 0,000 mm 0,0 UV-I 26 W/m 4,9 C 2,8 C 19,3 km/h (3 Bft) 100,00 %
24.03.2017 06:54 6,4 C 90 % 1023,2 hPa 0,0 l/m 13,5 km/h (3 Bft) O-NO 67 0 min 0,000 mm 0,0 UV-I 26 W/m 4,9 C 1,5 C 19,3 km/h (3 Bft) 98,11 %
24.03.2017 06:56 6,4 C 90 % 1023,3 hPa 0,0 l/m 10,9 km/h (2 Bft) O-NO 62 0 min 0,000 mm 0,0 UV-I 28 W/m 4,9 C 3,0 C 16,1 km/h (3 Bft) 96,00 %
24.03.2017 06:58 6,4 C 90 % 1023,4 hPa 0,0 l/m 11,9 km/h (2 Bft) NO 51 0 min 0,000 mm 0,0 UV-I 28 W/m 4,9 C 2,4 C 16,1 km/h (3 Bft) 97,56 %
24.03.2017 07:00 6,4 C 90 % 1023,4 hPa 0,0 l/m 11,6 km/h (2 Bft) O-NO 63 0 min 0,025 mm 0,0 UV-I 27 W/m 4,9 C 2,6 C 19,3 km/h (3 Bft) 98,11 %
24.03.2017 07:02 6,4 C 90 % 1023,3 hPa 0,0 l/m 10,3 km/h (2 Bft) NO 34 0 min 0,000 mm 0,0 UV-I 28 W/m 4,9 C 3,4 C 16,1 km/h (3 Bft) 97,73 %
24.03.2017 07:04 6,4 C 90 % 1023,4 hPa 0,0 l/m 11,8 km/h (2 Bft) NO 36 0 min 0,000 mm 0,0 UV-I 29 W/m 4,9 C 2,5 C 16,1 km/h (3 Bft) 91,49 %
24.03.2017 07:06 6,4 C 90 % 1023,5 hPa 0,0 l/m 9,1 km/h (2 Bft) NO 53 0 min 0,000 mm 0,0 UV-I 30 W/m 4,9 C 4,2 C 12,9 km/h (3 Bft) 92,00 %
24.03.2017 07:08 6,4 C 90 % 1023,6 hPa 0,0 l/m 8,7 km/h (2 Bft) O-NO 60 0 min 0,000 mm 0,0 UV-I 30 W/m 4,9 C 4,5 C 16,1 km/h (3 Bft) 97,37 %
24.03.2017 07:10 6,4 C 90 % 1023,6 hPa 0,0 l/m 11,4 km/h (2 Bft) NO 45 0 min 0,000 mm 0,0 UV-I 30 W/m 4,9 C 2,7 C 16,1 km/h (3 Bft) 96,00 %
24.03.2017 07:12 6,5 C 90 % 1023,7 hPa 0,0 l/m 7,7 km/h (2 Bft) N-NO 27 0 min 0,000 mm 0,0 UV-I 30 W/m 5,0 C 5,4 C 12,9 km/h (3 Bft) 92,68 %
24.03.2017 07:14 6,5 C 90 % 1023,7 hPa 0,0 l/m 9,1 km/h (2 Bft) NO 45 0 min 0,000 mm 0,0 UV-I 30 W/m 5,0 C 4,4 C 14,5 km/h (3 Bft) 96,72 %
24.03.2017 07:16 6,5 C 90 % 1023,8 hPa 0,0 l/m 6,9 km/h (2 Bft) NO 42 0 min 0,000 mm 0,0 UV-I 32 W/m 5,0 C 6,1 C 11,3 km/h (2 Bft) 94,74 %
24.03.2017 07:18 6,5 C 90 % 1023,8 hPa 0,0 l/m 9,8 km/h (2 Bft) O-NO 74 0 min 0,000 mm 0,0 UV-I 32 W/m 5,0 C 3,9 C 17,7 km/h (3 Bft) 92,86 %
24.03.2017 07:20 6,5 C 89 % 1023,8 hPa 0,0 l/m 7,5 km/h (2 Bft) NO 46 0 min 0,000 mm 0,0 UV-I 30 W/m 4,8 C 5,6 C 11,3 km/h (2 Bft) 90,91 %
24.03.2017 07:22 6,6 C 90 % 1023,8 hPa 0,0 l/m 9,4 km/h (2 Bft) N-NO 26 0 min 0,000 mm 0,0 UV-I 32 W/m 5,1 C 4,2 C 16,1 km/h (3 Bft) 95,24 %
24.03.2017 07:24 6,6 C 90 % 1023,9 hPa 0,0 l/m 8,5 km/h (2 Bft) NO 43 0 min 0,000 mm 0,0 UV-I 33 W/m 5,1 C 4,9 C 14,5 km/h (3 Bft) 98,11 %
24.03.2017 07:26 6,5 C 90 % 1023,8 hPa 0,0 l/m 12,3 km/h (3 Bft) O-NO 60 0 min 0,000 mm 0,0 UV-I 33 W/m 5,0 C 2,3 C 19,3 km/h (3 Bft) 92,11 %
24.03.2017 07:28 6,5 C 90 % 1023,9 hPa 0,0 l/m 13,1 km/h (3 Bft) N-NO 24 0 min 0,000 mm 0,0 UV-I 37 W/m 5,0 C 1,9 C 16,1 km/h (3 Bft) 92,00 %
24.03.2017 07:30 6,5 C 90 % 1024,0 hPa 0,0 l/m 14,5 km/h (3 Bft) NO 44 0 min 0,000 mm 0,0 UV-I 37 W/m 5,0 C 1,1 C 19,3 km/h (3 Bft) 94,34 %
24.03.2017 07:32 6,5 C 90 % 1024,0 hPa 0,0 l/m 14,2 km/h (3 Bft) NO 40 0 min 0,000 mm 0,0 UV-I 38 W/m 5,0 C 1,3 C 20,9 km/h (4 Bft) 95,12 %
24.03.2017 07:34 6,4 C 90 % 1024,0 hPa 0,0 l/m 14,0 km/h (3 Bft) NO 44 0 min 0,000 mm 0,0 UV-I 39 W/m 4,9 C 1,3 C 19,3 km/h (3 Bft) 96,23 %
24.03.2017 07:36 6,4 C 90 % 1024,0 hPa 0,0 l/m 14,3 km/h (3 Bft) N 355 0 min 0,000 mm 0,0 UV-I 39 W/m 4,9 C 1,1 C 17,7 km/h (3 Bft) 95,12 %
24.03.2017 07:38 6,4 C 90 % 1024,1 hPa 0,0 l/m 16,1 km/h (3 Bft) NO 37 0 min 0,000 mm 0,0 UV-I 38 W/m 4,9 C 0,3 C 24,1 km/h (4 Bft) 96,00 %
24.03.2017 07:40 6,4 C 90 % 1024,1 hPa 0,0 l/m 14,8 km/h (3 Bft) N 11 0 min 0,000 mm 0,0 UV-I 40 W/m 4,9 C 0,9 C 22,5 km/h (4 Bft) 97,73 %
24.03.2017 07:42 6,4 C 90 % 1024,1 hPa 0,0 l/m 12,5 km/h (3 Bft) NO 49 0 min 0,000 mm 0,0 UV-I 43 W/m 4,9 C 2,1 C 17,7 km/h (3 Bft) 96,00 %
24.03.2017 07:44 6,4 C 91 % 1024,1 hPa 0,0 l/m 15,8 km/h (3 Bft) O-NO 57 0 min 0,000 mm 0,0 UV-I 43 W/m 5,0 C 0,4 C 20,9 km/h (4 Bft) 98,11 %
24.03.2017 07:46 6,4 C 90 % 1024,1 hPa 0,0 l/m 13,4 km/h (3 Bft) NO 42 0 min 0,000 mm 0,0 UV-I 46 W/m 4,9 C 1,6 C 19,3 km/h (3 Bft) 97,14 %
24.03.2017 07:48 6,4 C 90 % 1024,1 hPa 0,0 l/m 15,3 km/h (3 Bft) N-NO 16 0 min 0,000 mm 0,0 UV-I 46 W/m 4,9 C 0,6 C 19,3 km/h (3 Bft) 100,00 %
24.03.2017 07:50 6,4 C 90 % 1024,2 hPa 0,0 l/m 17,0 km/h (3 Bft) NO 52 0 min 0,000 mm 0,0 UV-I 51 W/m 4,9 C -0,1 C 24,1 km/h (4 Bft) 96,43 %
24.03.2017 07:52 6,4 C 91 % 1024,2 hPa 0,0 l/m 14,6 km/h (3 Bft) O-NO 64 0 min 0,000 mm 0,0 UV-I 49 W/m 5,0 C 1,0 C 19,3 km/h (3 Bft) 97,37 %
24.03.2017 07:54 6,4 C 90 % 1024,3 hPa 0,0 l/m 17,6 km/h (3 Bft) NO 46 0 min 0,000 mm 0,0 UV-I 52 W/m 4,9 C -0,4 C 24,1 km/h (4 Bft) 98,00 %
24.03.2017 07:56 6,3 C 90 % 1024,3 hPa 0,0 l/m 16,4 km/h (3 Bft) NO 46 0 min 0,000 mm 0,0 UV-I 53 W/m 4,8 C -0,0 C 20,9 km/h (4 Bft) 98,00 %
24.03.2017 07:58 6,4 C 90 % 1024,3 hPa 0,0 l/m 12,7 km/h (3 Bft) O-NO 69 0 min 0,000 mm 0,0 UV-I 56 W/m 4,9 C 2,0 C 17,7 km/h (3 Bft) 98,00 %
24.03.2017 08:00 6,3 C 90 % 1024,3 hPa 0,0 l/m 15,1 km/h (3 Bft) N-NO 33 0 min 0,026 mm 0,0 UV-I 60 W/m 4,8 C 0,6 C 20,9 km/h (4 Bft) 94,87 %
24.03.2017 08:02 6,4 C 90 % 1024,3 hPa 0,0 l/m 13,5 km/h (3 Bft) O-NO 57 0 min 0,000 mm 0,0 UV-I 62 W/m 4,9 C 1,5 C 19,3 km/h (3 Bft) 94,23 %
24.03.2017 08:04 6,4 C 90 % 1024,4 hPa 0,0 l/m 14,2 km/h (3 Bft) O-NO 59 0 min 0,000 mm 0,0 UV-I 67 W/m 4,9 C 1,2 C 22,5 km/h (4 Bft) 100,00 %
24.03.2017 08:06 6,4 C 90 % 1024,4 hPa 0,0 l/m 13,7 km/h (3 Bft) NO 53 0 min 0,000 mm 0,0 UV-I 64 W/m 4,9 C 1,4 C 19,3 km/h (3 Bft) 98,21 %
24.03.2017 08:08 6,4 C 90 % 1024,5 hPa 0,0 l/m 11,0 km/h (2 Bft) O-NO 61 0 min 0,000 mm 0,0 UV-I 66 W/m 4,9 C 3,0 C 17,7 km/h (3 Bft) 97,37 %
24.03.2017 08:10 6,4 C 90 % 1024,5 hPa 0,0 l/m 13,2 km/h (3 Bft) NO 55 0 min 0,000 mm 0,0 UV-I 68 W/m 4,9 C 1,7 C 19,3 km/h (3 Bft) 98,00 %
24.03.2017 08:12 6,4 C 90 % 1024,4 hPa 0,0 l/m 15,6 km/h (3 Bft) NO 46 0 min 0,000 mm 0,0 UV-I 71 W/m 4,9 C 0,5 C 20,9 km/h (4 Bft) 97,87 %
24.03.2017 08:14 6,4 C 90 % 1024,4 hPa 0,0 l/m 13,4 km/h (3 Bft) NO 48 0 min 0,000 mm 0,0 UV-I 74 W/m 4,9 C 1,6 C 19,3 km/h (3 Bft) 97,56 %
24.03.2017 08:16 6,4 C 90 % 1024,4 hPa 0,0 l/m 16,3 km/h (3 Bft) NO 52 0 min 0,000 mm 0,0 UV-I 76 W/m 4,9 C 0,2 C 25,7 km/h (4 Bft) 98,11 %
24.03.2017 08:18 6,4 C 90 % 1024,4 hPa 0,0 l/m 16,7 km/h (3 Bft) NO 44 0 min 0,000 mm 0,0 UV-I 77 W/m 4,9 C -0,0 C 27,4 km/h (4 Bft) 100,00 %
24.03.2017 08:20 6,4 C 90 % 1024,4 hPa 0,0 l/m 18,2 km/h (3 Bft) N-NO 30 0 min 0,000 mm 0,0 UV-I 79 W/m 4,9 C -0,7 C 25,7 km/h (4 Bft) 97,87 %
24.03.2017 08:22 6,4 C 90 % 1024,4 hPa 0,0 l/m 15,1 km/h (3 Bft) NO 44 0 min 0,000 mm 0,0 UV-I 80 W/m 4,9 C 0,7 C 27,4 km/h (4 Bft) 96,92 %
24.03.2017 08:24 6,4 C 90 % 1024,4 hPa 0,0 l/m 17,5 km/h (3 Bft) NO 46 0 min 0,000 mm 0,0 UV-I 84 W/m 4,9 C -0,4 C 22,5 km/h (4 Bft) 98,00 %
24.03.2017 08:26 6,4 C 89 % 1024,4 hPa 0,0 l/m 20,1 km/h (4 Bft) NO 53 0 min 0,000 mm 0,0 UV-I 88 W/m 4,7 C -1,4 C 29,0 km/h (5 Bft) 98,00 %
24.03.2017 08:28 6,5 C 90 % 1024,4 hPa 0,0 l/m 18,5 km/h (3 Bft) NO 40 0 min 0,000 mm 0,0 UV-I 81 W/m 5,0 C -0,7 C 22,5 km/h (4 Bft) 95,45 %
24.03.2017 08:30 6,5 C 89 % 1024,4 hPa 0,0 l/m 16,3 km/h (3 Bft) NO 51 0 min 0,000 mm 0,0 UV-I 86 W/m 4,8 C 0,3 C 20,9 km/h (4 Bft) 97,56 %
24.03.2017 08:32 6,5 C 89 % 1024,4 hPa 0,0 l/m 18,4 km/h (3 Bft) NO 46 0 min 0,000 mm 0,0 UV-I 91 W/m 4,8 C -0,6 C 27,4 km/h (4 Bft) 96,23 %
24.03.2017 08:34 6,5 C 89 % 1024,4 hPa 0,0 l/m 16,5 km/h (3 Bft) O-NO 73 0 min 0,000 mm 0,0 UV-I 91 W/m 4,8 C 0,2 C 27,4 km/h (4 Bft) 97,56 %
24.03.2017 08:36 6,5 C 89 % 1024,4 hPa 0,0 l/m 17,5 km/h (3 Bft) O-NO 66 0 min 0,000 mm 0,0 UV-I 86 W/m 4,8 C -0,2 C 24,1 km/h (4 Bft) 96,23 %
24.03.2017 08:38 6,5 C 89 % 1024,5 hPa 0,0 l/m 14,9 km/h (3 Bft) NO 46 0 min 0,000 mm 0,0 UV-I 89 W/m 4,8 C 0,9 C 24,1 km/h (4 Bft) 88,89 %
24.03.2017 08:40 6,5 C 89 % 1024,5 hPa 0,0 l/m 17,0 km/h (3 Bft) O-NO 60 0 min 0,000 mm 0,0 UV-I 90 W/m 4,8 C -0,0 C 22,5 km/h (4 Bft) 94,00 %
24.03.2017 08:42 6,5 C 89 % 1024,5 hPa 0,0 l/m 17,6 km/h (3 Bft) NO 36 0 min 0,000 mm 0,0 UV-I 87 W/m 4,8 C -0,3 C 24,1 km/h (4 Bft) 90,57 %
24.03.2017 08:44 6,5 C 89 % 1024,5 hPa 0,0 l/m 17,6 km/h (3 Bft) O-NO 67 0 min 0,000 mm 0,0 UV-I 88 W/m 4,8 C -0,3 C 24,1 km/h (4 Bft) 96,00 %
24.03.2017 08:46 6,5 C 89 % 1024,6 hPa 0,0 l/m 16,3 km/h (3 Bft) NO 48 0 min 0,000 mm 0,0 UV-I 84 W/m 4,8 C 0,3 C 20,9 km/h (4 Bft) 97,62 %
24.03.2017 08:48 6,5 C 89 % 1024,6 hPa 0,0 l/m 20,4 km/h (4 Bft) O-NO 64 0 min 0,000 mm 0,0 UV-I 82 W/m 4,8 C -1,4 C 25,7 km/h (4 Bft) 92,68 %
24.03.2017 08:50 6,5 C 89 % 1024,7 hPa 0,0 l/m 17,2 km/h (3 Bft) O-NO 65 0 min 0,000 mm 0,0 UV-I 83 W/m 4,8 C -0,1 C 25,7 km/h (4 Bft) 94,92 %
24.03.2017 08:52 6,5 C 89 % 1024,7 hPa 0,0 l/m 20,6 km/h (4 Bft) O-NO 63 0 min 0,000 mm 0,0 UV-I 79 W/m 4,8 C -1,5 C 27,4 km/h (4 Bft) 92,86 %
24.03.2017 08:54 6,5 C 89 % 1024,7 hPa 0,0 l/m 16,0 km/h (3 Bft) O-NO 61 0 min 0,000 mm 0,0 UV-I 78 W/m 4,8 C 0,4 C 24,1 km/h (4 Bft) 97,87 %
24.03.2017 08:56 6,5 C 89 % 1024,7 hPa 0,0 l/m 16,2 km/h (3 Bft) NO 53 0 min 0,000 mm 0,0 UV-I 75 W/m 4,8 C 0,3 C 20,9 km/h (4 Bft) 89,47 %
24.03.2017 08:58 6,5 C 89 % 1024,7 hPa 0,0 l/m 17,6 km/h (3 Bft) O-NO 72 0 min 0,000 mm 0,0 UV-I 75 W/m 4,8 C -0,3 C 27,4 km/h (4 Bft) 94,34 %
24.03.2017 09:00 6,6 C 89 % 1024,8 hPa 0,0 l/m 17,8 km/h (3 Bft) NO 51 0 min 0,051 mm 0,0 UV-I 71 W/m 4,9 C -0,2 C 25,7 km/h (4 Bft) 95,45 %
24.03.2017 09:02 6,6 C 89 % 1024,8 hPa 0,0 l/m 11,1 km/h (2 Bft) O-NO 70 0 min 0,000 mm 0,0 UV-I 67 W/m 4,9 C 3,1 C 17,7 km/h (3 Bft) 96,23 %
24.03.2017 09:04 6,6 C 89 % 1024,9 hPa 0,0 l/m 15,2 km/h (3 Bft) O-NO 60 0 min 0,000 mm 0,0 UV-I 63 W/m 4,9 C 0,9 C 19,3 km/h (3 Bft) 95,12 %
24.03.2017 09:06 6,6 C 89 % 1024,9 hPa 0,0 l/m 14,6 km/h (3 Bft) O-NO 74 0 min 0,000 mm 0,0 UV-I 59 W/m 4,9 C 1,2 C 20,9 km/h (4 Bft) 92,86 %
24.03.2017 09:08 6,6 C 88 % 1024,9 hPa 0,0 l/m 15,1 km/h (3 Bft) NO 53 0 min 0,000 mm 0,0 UV-I 62 W/m 4,8 C 1,0 C 19,3 km/h (3 Bft) 91,43 %
24.03.2017 09:10 6,6 C 88 % 1024,9 hPa 0,0 l/m 14,0 km/h (3 Bft) NO 54 0 min 0,000 mm 0,0 UV-I 59 W/m 4,8 C 1,5 C 20,9 km/h (4 Bft) 94,64 %
24.03.2017 09:12 6,6 C 88 % 1025,0 hPa 0,0 l/m 12,6 km/h (3 Bft) NO 55 0 min 0,000 mm 0,0 UV-I 57 W/m 4,8 C 2,3 C 20,9 km/h (4 Bft) 94,74 %
24.03.2017 09:14 6,6 C 88 % 1025,0 hPa 0,0 l/m 15,8 km/h (3 Bft) O-NO 63 0 min 0,000 mm 0,0 UV-I 62 W/m 4,8 C 0,6 C 19,3 km/h (3 Bft) 92,86 %
24.03.2017 09:16 6,6 C 88 % 1025,0 hPa 0,0 l/m 14,7 km/h (3 Bft) NO 56 0 min 0,000 mm 0,0 UV-I 65 W/m 4,8 C 1,2 C 19,3 km/h (3 Bft) 90,24 %
24.03.2017 09:18 6,6 C 88 % 1025,1 hPa 0,0 l/m 14,8 km/h (3 Bft) NO 53 0 min 0,000 mm 0,0 UV-I 63 W/m 4,8 C 1,1 C 19,3 km/h (3 Bft) 92,00 %
24.03.2017 09:20 6,6 C 88 % 1025,1 hPa 0,0 l/m 15,8 km/h (3 Bft) O-NO 59 0 min 0,000 mm 0,0 UV-I 55 W/m 4,8 C 0,6 C 22,5 km/h (4 Bft) 94,00 %
24.03.2017 09:22 6,6 C 88 % 1025,2 hPa 0,0 l/m 13,6 km/h (3 Bft) O-NO 59 0 min 0,000 mm 0,0 UV-I 50 W/m 4,8 C 1,7 C 22,5 km/h (4 Bft) 97,22 %
24.03.2017 09:24 6,6 C 88 % 1025,2 hPa 0,0 l/m 13,5 km/h (3 Bft) NO 55 0 min 0,000 mm 0,0 UV-I 48 W/m 4,8 C 1,8 C 19,3 km/h (3 Bft) 94,00 %
24.03.2017 09:26 6,6 C 88 % 1025,2 hPa 0,0 l/m 18,7 km/h (3 Bft) NO 49 0 min 0,000 mm 0,0 UV-I 57 W/m 4,8 C -0,6 C 24,1 km/h (4 Bft) 86,79 %
24.03.2017 09:28 6,6 C 88 % 1025,2 hPa 0,0 l/m 14,5 km/h (3 Bft) O-NO 66 0 min 0,000 mm 0,0 UV-I 83 W/m 4,8 C 1,3 C 24,1 km/h (4 Bft) 93,18 %
24.03.2017 09:30 6,6 C 88 % 1025,3 hPa 0,0 l/m 15,9 km/h (3 Bft) NO 45 0 min 0,000 mm 0,0 UV-I 86 W/m 4,8 C 0,6 C 22,5 km/h (4 Bft) 94,34 %
24.03.2017 09:32 6,6 C 88 % 1025,3 hPa 0,0 l/m 13,1 km/h (3 Bft) NO 48 0 min 0,000 mm 0,0 UV-I 88 W/m 4,8 C 2,0 C 17,7 km/h (3 Bft) 88,64 %
24.03.2017 09:34 6,6 C 88 % 1025,3 hPa 0,0 l/m 17,6 km/h (3 Bft) O-NO 58 0 min 0,000 mm 0,3 UV-I 116 W/m 4,8 C -0,2 C 24,1 km/h (4 Bft) 90,00 %
24.03.2017 09:36 6,7 C 88 % 1025,3 hPa 0,0 l/m 19,2 km/h (3 Bft) NO 42 0 min 0,000 mm 0,5 UV-I 127 W/m 4,9 C -0,7 C 24,1 km/h (4 Bft) 92,11 %
24.03.2017 09:38 6,7 C 88 % 1025,3 hPa 0,0 l/m 15,0 km/h (3 Bft) NO 36 0 min 0,000 mm 0,5 UV-I 149 W/m 4,9 C 1,1 C 19,3 km/h (3 Bft) 96,00 %
24.03.2017 09:40 6,8 C 89 % 1025,3 hPa 0,0 l/m 15,3 km/h (3 Bft) NO 53 0 min 0,000 mm 0,6 UV-I 172 W/m 5,1 C 1,1 C 20,9 km/h (4 Bft) 95,74 %
24.03.2017 09:42 6,9 C 89 % 1025,4 hPa 0,0 l/m 12,4 km/h (3 Bft) NO 45 0 min 0,000 mm 0,6 UV-I 188 W/m 5,2 C 2,7 C 19,3 km/h (3 Bft) 94,34 %
24.03.2017 09:44 7,0 C 88 % 1025,3 hPa 0,0 l/m 11,8 km/h (2 Bft) NO 44 0 min 0,000 mm 0,6 UV-I 165 W/m 5,2 C 3,2 C 16,1 km/h (3 Bft) 95,12 %
24.03.2017 09:46 7,1 C 88 % 1025,4 hPa 0,0 l/m 12,7 km/h (3 Bft) N 9 0 min 0,000 mm 0,5 UV-I 146 W/m 5,2 C 2,8 C 19,3 km/h (3 Bft) 94,74 %
24.03.2017 09:48 7,1 C 88 % 1025,2 hPa 0,0 l/m 11,4 km/h (2 Bft) O-NO 65 0 min 0,000 mm 0,6 UV-I 154 W/m 5,2 C 3,5 C 16,1 km/h (3 Bft) 96,30 %
24.03.2017 09:50 7,0 C 87 % 1025,2 hPa 0,0 l/m 12,2 km/h (2 Bft) NO 49 0 min 0,000 mm 0,6 UV-I 178 W/m 5,0 C 2,9 C 17,7 km/h (3 Bft) 94,34 %
24.03.2017 09:52 7,0 C 87 % 1025,2 hPa 0,0 l/m 13,4 km/h (3 Bft) NO 49 0 min 0,000 mm 0,6 UV-I 155 W/m 5,0 C 2,3 C 19,3 km/h (3 Bft) 100,00 %
24.03.2017 09:54 7,0 C 87 % 1025,2 hPa 0,0 l/m 13,6 km/h (3 Bft) NO 47 0 min 0,000 mm 0,6 UV-I 146 W/m 5,0 C 2,2 C 19,3 km/h (3 Bft) 98,00 %
24.03.2017 09:56 7,0 C 88 % 1025,4 hPa 0,0 l/m 10,8 km/h (2 Bft) NO 34 0 min 0,000 mm 0,6 UV-I 135 W/m 5,2 C 3,8 C 19,3 km/h (3 Bft) 96,00 %
24.03.2017 09:58 7,1 C 88 % 1025,4 hPa 0,0 l/m 14,8 km/h (3 Bft) N-NO 26 0 min 0,000 mm 0,5 UV-I 132 W/m 5,2 C 1,7 C 20,9 km/h (4 Bft) 92,00 %
24.03.2017 10:00 7,1 C 88 % 1025,5 hPa 0,0 l/m 16,3 km/h (3 Bft) N 5 0 min 0,050 mm 0,6 UV-I 154 W/m 5,2 C 1,0 C 22,5 km/h (4 Bft) 97,62 %
24.03.2017 10:02 7,1 C 88 % 1025,5 hPa 0,0 l/m 17,9 km/h (3 Bft) NO 41 0 min 0,000 mm 0,6 UV-I 165 W/m 5,2 C 0,4 C 25,7 km/h (4 Bft) 97,96 %
24.03.2017 10:04 7,1 C 88 % 1025,5 hPa 0,0 l/m 16,8 km/h (3 Bft) NO 38 0 min 0,000 mm 0,6 UV-I 156 W/m 5,2 C 0,8 C 20,9 km/h (4 Bft) 97,78 %
24.03.2017 10:06 7,1 C 88 % 1025,6 hPa 0,0 l/m 18,6 km/h (3 Bft) NO 36 0 min 0,000 mm 0,6 UV-I 156 W/m 5,2 C 0,1 C 27,4 km/h (4 Bft) 97,37 %
24.03.2017 10:08 7,1 C 88 % 1025,5 hPa 0,0 l/m 17,7 km/h (3 Bft) O-NO 63 0 min 0,000 mm 0,6 UV-I 159 W/m 5,2 C 0,4 C 24,1 km/h (4 Bft) 98,11 %
24.03.2017 10:10 7,1 C 88 % 1025,6 hPa 0,0 l/m 16,7 km/h (3 Bft) N-NO 26 0 min 0,000 mm 0,6 UV-I 149 W/m 5,2 C 0,9 C 20,9 km/h (4 Bft) 96,00 %
24.03.2017 10:12 7,1 C 88 % 1025,6 hPa 0,0 l/m 17,2 km/h (3 Bft) N-NO 28 0 min 0,000 mm 0,6 UV-I 139 W/m 5,2 C 0,6 C 24,1 km/h (4 Bft) 100,00 %
24.03.2017 10:14 7,1 C 88 % 1025,7 hPa 0,0 l/m 15,7 km/h (3 Bft) NO 51 0 min 0,000 mm 0,6 UV-I 148 W/m 5,2 C 1,3 C 25,7 km/h (4 Bft) 94,34 %
24.03.2017 10:16 7,1 C 88 % 1025,7 hPa 0,0 l/m 16,2 km/h (3 Bft) NO 49 0 min 0,000 mm 0,6 UV-I 159 W/m 5,2 C 1,1 C 20,9 km/h (4 Bft) 97,37 %
24.03.2017 10:18 7,2 C 88 % 1025,6 hPa 0,0 l/m 13,0 km/h (3 Bft) NO 45 0 min 0,000 mm 0,7 UV-I 171 W/m 5,3 C 2,7 C 20,9 km/h (4 Bft) 98,21 %
24.03.2017 10:20 7,2 C 87 % 1025,6 hPa 0,0 l/m 14,4 km/h (3 Bft) NO 54 0 min 0,000 mm 0,7 UV-I 159 W/m 5,2 C 2,0 C 22,5 km/h (4 Bft) 95,74 %
24.03.2017 10:22 7,2 C 87 % 1025,6 hPa 0,0 l/m 13,6 km/h (3 Bft) NO 37 0 min 0,000 mm 0,6 UV-I 157 W/m 5,2 C 2,4 C 22,5 km/h (4 Bft) 96,00 %
24.03.2017 10:24 7,3 C 87 % 1025,7 hPa 0,0 l/m 15,2 km/h (3 Bft) NO 52 0 min 0,000 mm 0,6 UV-I 149 W/m 5,3 C 1,8 C 20,9 km/h (4 Bft) 97,37 %
24.03.2017 10:26 7,3 C 87 % 1025,6 hPa 0,0 l/m 16,8 km/h (3 Bft) O-NO 67 0 min 0,000 mm 0,6 UV-I 143 W/m 5,3 C 1,1 C 25,7 km/h (4 Bft) 100,00 %
24.03.2017 10:28 7,2 C 87 % 1025,6 hPa 0,0 l/m 12,7 km/h (3 Bft) O-NO 63 0 min 0,000 mm 0,6 UV-I 143 W/m 5,2 C 2,9 C 19,3 km/h (3 Bft) 96,43 %
24.03.2017 10:30 7,3 C 87 % 1025,7 hPa 0,0 l/m 14,8 km/h (3 Bft) NO 51 0 min 0,000 mm 0,6 UV-I 139 W/m 5,3 C 2,0 C 19,3 km/h (3 Bft) 96,00 %
24.03.2017 10:32 7,3 C 87 % 1025,7 hPa 0,0 l/m 14,2 km/h (3 Bft) N 9 0 min 0,000 mm 0,6 UV-I 127 W/m 5,3 C 2,2 C 22,5 km/h (4 Bft) 100,00 %
24.03.2017 10:34 7,3 C 87 % 1025,8 hPa 0,0 l/m 18,1 km/h (3 Bft) NO 51 0 min 0,000 mm 0,6 UV-I 124 W/m 5,3 C 0,5 C 25,7 km/h (4 Bft) 96,00 %
24.03.2017 10:36 7,3 C 87 % 1025,7 hPa 0,0 l/m 16,1 km/h (3 Bft) NO 36 0 min 0,000 mm 0,6 UV-I 123 W/m 5,3 C 1,4 C 25,7 km/h (4 Bft) 97,87 %
24.03.2017 10:38 7,3 C 87 % 1025,8 hPa 0,0 l/m 17,0 km/h (3 Bft) NO 43 0 min 0,000 mm 0,6 UV-I 124 W/m 5,3 C 1,0 C 24,1 km/h (4 Bft) 100,00 %
24.03.2017 10:40 7,3 C 87 % 1025,8 hPa 0,0 l/m 16,0 km/h (3 Bft) O-NO 62 0 min 0,000 mm 0,5 UV-I 120 W/m 5,3 C 1,4 C 22,5 km/h (4 Bft) 97,73 %
24.03.2017 10:42 7,2 C 87 % 1025,9 hPa 0,0 l/m 13,3 km/h (3 Bft) NO 36 0 min 0,000 mm 0,6 UV-I 120 W/m 5,2 C 2,6 C 20,9 km/h (4 Bft) 95,24 %
24.03.2017 10:44 7,3 C 87 % 1025,9 hPa 0,0 l/m 14,8 km/h (3 Bft) N-NO 26 0 min 0,000 mm 0,5 UV-I 122 W/m 5,3 C 2,0 C 20,9 km/h (4 Bft) 98,00 %
24.03.2017 10:46 7,3 C 87 % 1025,9 hPa 0,0 l/m 16,8 km/h (3 Bft) NO 43 0 min 0,000 mm 0,6 UV-I 125 W/m 5,3 C 1,1 C 22,5 km/h (4 Bft) 100,00 %
24.03.2017 10:48 7,3 C 87 % 1025,9 hPa 0,0 l/m 16,2 km/h (3 Bft) NO 49 0 min 0,000 mm 0,6 UV-I 131 W/m 5,3 C 1,3 C 22,5 km/h (4 Bft) 98,11 %
24.03.2017 10:50 7,3 C 87 % 1025,8 hPa 0,0 l/m 16,1 km/h (3 Bft) NO 46 0 min 0,000 mm 0,6 UV-I 138 W/m 5,3 C 1,4 C 24,1 km/h (4 Bft) 98,00 %
24.03.2017 10:52 7,3 C 87 % 1025,9 hPa 0,0 l/m 12,5 km/h (3 Bft) NO 43 0 min 0,000 mm 0,6 UV-I 153 W/m 5,3 C 3,1 C 20,9 km/h (4 Bft) 97,56 %
24.03.2017 10:54 7,4 C 87 % 1025,9 hPa 0,0 l/m 12,4 km/h (3 Bft) NO 43 0 min 0,000 mm 0,7 UV-I 154 W/m 5,4 C 3,3 C 24,1 km/h (4 Bft) 100,00 %
24.03.2017 10:56 7,4 C 87 % 1026,0 hPa 0,0 l/m 13,0 km/h (3 Bft) NO 42 0 min 0,000 mm 0,7 UV-I 156 W/m 5,4 C 3,0 C 22,5 km/h (4 Bft) 97,56 %
24.03.2017 10:58 7,4 C 86 % 1026,0 hPa 0,0 l/m 12,4 km/h (3 Bft) NO 53 0 min 0,000 mm 0,7 UV-I 155 W/m 5,2 C 3,3 C 20,9 km/h (4 Bft) 98,00 %
24.03.2017 11:00 7,4 C 86 % 1026,0 hPa 0,0 l/m 17,5 km/h (3 Bft) NO 44 0 min 0,077 mm 0,6 UV-I 136 W/m 5,2 C 0,9 C 25,7 km/h (4 Bft) 96,23 %
24.03.2017 11:02 7,4 C 86 % 1026,0 hPa 0,0 l/m 16,0 km/h (3 Bft) N 10 0 min 0,000 mm 0,6 UV-I 123 W/m 5,2 C 1,5 C 25,7 km/h (4 Bft) 94,74 %
24.03.2017 11:04 7,4 C 86 % 1026,0 hPa 0,0 l/m 13,7 km/h (3 Bft) N-NO 32 0 min 0,000 mm 0,6 UV-I 138 W/m 5,2 C 2,6 C 22,5 km/h (4 Bft) 98,00 %
24.03.2017 11:06 7,4 C 86 % 1026,1 hPa 0,0 l/m 12,8 km/h (3 Bft) NO 51 0 min 0,000 mm 0,7 UV-I 156 W/m 5,2 C 3,1 C 17,7 km/h (3 Bft) 94,29 %
24.03.2017 11:08 7,4 C 87 % 1026,1 hPa 0,0 l/m 11,3 km/h (2 Bft) N-NO 24 0 min 0,000 mm 0,6 UV-I 145 W/m 5,4 C 3,9 C 17,7 km/h (3 Bft) 92,86 %
24.03.2017 11:10 7,4 C 87 % 1026,1 hPa 0,0 l/m 9,5 km/h (2 Bft) NO 52 0 min 0,000 mm 0,6 UV-I 134 W/m 5,4 C 5,1 C 16,1 km/h (3 Bft) 98,11 %
24.03.2017 11:12 7,4 C 87 % 1026,2 hPa 0,0 l/m 11,7 km/h (2 Bft) NO 42 0 min 0,000 mm 0,5 UV-I 126 W/m 5,4 C 3,7 C 16,1 km/h (3 Bft) 95,74 %
24.03.2017 11:14 7,4 C 86 % 1026,2 hPa 0,0 l/m 12,9 km/h (3 Bft) NO 56 0 min 0,000 mm 0,5 UV-I 117 W/m 5,2 C 3,0 C 17,7 km/h (3 Bft) 94,34 %
24.03.2017 11:16 7,4 C 86 % 1026,0 hPa 0,0 l/m 13,6 km/h (3 Bft) O-NO 59 0 min 0,000 mm 0,5 UV-I 111 W/m 5,2 C 2,7 C 17,7 km/h (3 Bft) 97,73 %
24.03.2017 11:18 7,4 C 86 % 1026,0 hPa 0,0 l/m 11,8 km/h (2 Bft) O-NO 69 0 min 0,000 mm 0,5 UV-I 113 W/m 5,2 C 3,6 C 19,3 km/h (3 Bft) 94,87 %
24.03.2017 11:20 7,4 C 86 % 1025,9 hPa 0,0 l/m 12,5 km/h (3 Bft) O-NO 62 0 min 0,000 mm 0,6 UV-I 124 W/m 5,2 C 3,2 C 20,9 km/h (4 Bft) 90,00 %
24.03.2017 11:22 7,4 C 87 % 1025,9 hPa 0,0 l/m 16,3 km/h (3 Bft) NO 44 0 min 0,000 mm 0,6 UV-I 131 W/m 5,4 C 1,4 C 25,7 km/h (4 Bft) 90,00 %
24.03.2017 11:24 7,4 C 86 % 1025,9 hPa 0,0 l/m 18,2 km/h (3 Bft) N-NO 24 0 min 0,000 mm 0,7 UV-I 149 W/m 5,2 C 0,6 C 27,4 km/h (4 Bft) 93,62 %
24.03.2017 11:26 7,4 C 87 % 1025,9 hPa 0,0 l/m 17,6 km/h (3 Bft) NO 53 0 min 0,000 mm 0,7 UV-I 157 W/m 5,4 C 0,8 C 24,1 km/h (4 Bft) 92,11 %
24.03.2017 11:28 7,4 C 87 % 1025,9 hPa 0,0 l/m 14,8 km/h (3 Bft) NO 46 0 min 0,000 mm 0,6 UV-I 129 W/m 5,4 C 2,1 C 20,9 km/h (4 Bft) 94,64 %
24.03.2017 11:30 7,5 C 87 % 1025,9 hPa 0,0 l/m 16,0 km/h (3 Bft) N-NO 24 0 min 0,000 mm 0,6 UV-I 130 W/m 5,5 C 1,7 C 22,5 km/h (4 Bft) 96,55 %
24.03.2017 11:32 7,5 C 87 % 1026,0 hPa 0,0 l/m 14,7 km/h (3 Bft) O-NO 60 0 min 0,000 mm 0,6 UV-I 128 W/m 5,5 C 2,2 C 22,5 km/h (4 Bft) 98,21 %
24.03.2017 11:34 7,5 C 87 % 1026,0 hPa 0,0 l/m 13,2 km/h (3 Bft) O 88 0 min 0,000 mm 0,6 UV-I 129 W/m 5,5 C 3,0 C 20,9 km/h (4 Bft) 98,00 %
24.03.2017 11:36 7,5 C 87 % 1026,1 hPa 0,0 l/m 17,5 km/h (3 Bft) O-NO 60 0 min 0,000 mm 0,6 UV-I 126 W/m 5,5 C 1,0 C 24,1 km/h (4 Bft) 100,00 %
24.03.2017 11:38 7,4 C 86 % 1026,1 hPa 0,0 l/m 17,0 km/h (3 Bft) O-NO 73 0 min 0,000 mm 0,5 UV-I 114 W/m 5,2 C 1,1 C 22,5 km/h (4 Bft) 98,00 %
24.03.2017 11:40 7,4 C 87 % 1026,1 hPa 0,0 l/m 17,8 km/h (3 Bft) O-NO 59 0 min 0,000 mm 0,5 UV-I 114 W/m 5,4 C 0,8 C 22,5 km/h (4 Bft) 95,74 %
24.03.2017 11:42 7,4 C 87 % 1026,1 hPa 0,0 l/m 15,3 km/h (3 Bft) O-NO 62 0 min 0,000 mm 0,5 UV-I 111 W/m 5,4 C 1,8 C 22,5 km/h (4 Bft) 100,00 %
24.03.2017 11:44 7,5 C 87 % 1026,1 hPa 0,0 l/m 15,2 km/h (3 Bft) NO 48 0 min 0,000 mm 0,6 UV-I 119 W/m 5,5 C 2,0 C 20,9 km/h (4 Bft) 100,00 %
24.03.2017 11:46 7,5 C 86 % 1026,1 hPa 0,0 l/m 18,1 km/h (3 Bft) N-NO 28 0 min 0,000 mm 0,5 UV-I 116 W/m 5,3 C 0,8 C 24,1 km/h (4 Bft) 93,62 %
24.03.2017 11:48 7,5 C 87 % 1026,0 hPa 0,0 l/m 16,6 km/h (3 Bft) NO 46 0 min 0,000 mm 0,6 UV-I 120 W/m 5,5 C 1,4 C 25,7 km/h (4 Bft) 97,37 %
24.03.2017 11:50 7,5 C 87 % 1026,1 hPa 0,0 l/m 14,9 km/h (3 Bft) NO 48 0 min 0,000 mm 0,6 UV-I 127 W/m 5,5 C 2,2 C 20,9 km/h (4 Bft) 100,00 %
24.03.2017 11:52 7,6 C 87 % 1026,1 hPa 0,0 l/m 14,8 km/h (3 Bft) NO 54 0 min 0,000 mm 0,6 UV-I 133 W/m 5,6 C 2,3 C 22,5 km/h (4 Bft) 100,00 %
24.03.2017 11:54 7,6 C 87 % 1026,2 hPa 0,0 l/m 14,3 km/h (3 Bft) O-NO 71 0 min 0,000 mm 0,6 UV-I 128 W/m 5,6 C 2,6 C 22,5 km/h (4 Bft) 94,87 %
24.03.2017 11:56 7,6 C 87 % 1026,2 hPa 0,0 l/m 14,5 km/h (3 Bft) O-NO 68 0 min 0,000 mm 0,5 UV-I 121 W/m 5,6 C 2,5 C 19,3 km/h (3 Bft) 98,18 %
24.03.2017 11:58 7,5 C 86 % 1026,2 hPa 0,0 l/m 15,9 km/h (3 Bft) O-NO 67 0 min 0,000 mm 0,5 UV-I 115 W/m 5,3 C 1,7 C 27,4 km/h (4 Bft) 96,00 %
24.03.2017 12:00 7,5 C 87 % 1026,3 hPa 0,0 l/m 16,5 km/h (3 Bft) O 92 0 min 0,076 mm 0,3 UV-I 97 W/m 5,5 C 1,4 C 20,9 km/h (4 Bft) 96,30 %
24.03.2017 12:02 7,5 C 87 % 1026,3 hPa 0,0 l/m 13,8 km/h (3 Bft) O-NO 67 0 min 0,000 mm 0,0 UV-I 90 W/m 5,5 C 2,7 C 19,3 km/h (3 Bft) 98,53 %
24.03.2017 12:04 7,5 C 87 % 1026,3 hPa 0,0 l/m 15,2 km/h (3 Bft) O 95 0 min 0,000 mm 0,0 UV-I 86 W/m 5,5 C 2,0 C 19,3 km/h (3 Bft) 94,87 %
24.03.2017 12:06 7,5 C 87 % 1026,3 hPa 0,0 l/m 11,9 km/h (2 Bft) NO 44 0 min 0,000 mm 0,5 UV-I 85 W/m 5,5 C 3,7 C 20,9 km/h (4 Bft) 96,23 %
24.03.2017 12:08 7,5 C 87 % 1026,3 hPa 0,0 l/m 14,4 km/h (3 Bft) O-NO 59 0 min 0,000 mm 0,3 UV-I 83 W/m 5,5 C 2,4 C 27,4 km/h (4 Bft) 97,37 %
24.03.2017 12:10 7,5 C 87 % 1026,4 hPa 0,0 l/m 18,9 km/h (3 Bft) O-NO 60 0 min 0,000 mm 0,5 UV-I 90 W/m 5,5 C 0,5 C 25,7 km/h (4 Bft) 100,00 %
24.03.2017 12:12 7,4 C 86 % 1026,5 hPa 0,0 l/m 16,4 km/h (3 Bft) O-NO 57 0 min 0,000 mm 0,5 UV-I 105 W/m 5,2 C 1,4 C 22,5 km/h (4 Bft) 100,00 %
24.03.2017 12:14 7,5 C 87 % 1026,6 hPa 0,0 l/m 14,2 km/h (3 Bft) O-NO 76 0 min 0,000 mm 0,5 UV-I 112 W/m 5,5 C 2,5 C 22,5 km/h (4 Bft) 96,23 %
24.03.2017 12:16 7,5 C 87 % 1026,5 hPa 0,0 l/m 14,5 km/h (3 Bft) O 82 0 min 0,000 mm 0,5 UV-I 118 W/m 5,5 C 2,3 C 19,3 km/h (3 Bft) 92,68 %
24.03.2017 12:18 7,5 C 87 % 1026,5 hPa 0,0 l/m 20,8 km/h (4 Bft) O-NO 71 0 min 0,000 mm 0,5 UV-I 112 W/m 5,5 C -0,2 C 29,0 km/h (5 Bft) 98,11 %
24.03.2017 12:20 7,5 C 87 % 1026,4 hPa 0,0 l/m 18,8 km/h (3 Bft) O-NO 70 0 min 0,000 mm 0,5 UV-I 105 W/m 5,5 C 0,5 C 24,1 km/h (4 Bft) 97,56 %
24.03.2017 12:22 7,5 C 86 % 1026,4 hPa 0,0 l/m 20,9 km/h (4 Bft) NO 53 0 min 0,000 mm 0,5 UV-I 100 W/m 5,3 C -0,3 C 25,7 km/h (4 Bft) 100,00 %
24.03.2017 12:24 7,5 C 86 % 1026,3 hPa 0,0 l/m 19,4 km/h (3 Bft) O-NO 62 0 min 0,000 mm 0,5 UV-I 97 W/m 5,3 C 0,3 C 25,7 km/h (4 Bft) 98,21 %
24.03.2017 12:26 7,5 C 86 % 1026,4 hPa 0,0 l/m 16,7 km/h (3 Bft) O-NO 62 0 min 0,000 mm 0,5 UV-I 91 W/m 5,3 C 1,3 C 20,9 km/h (4 Bft) 94,74 %
24.03.2017 12:28 7,5 C 86 % 1026,4 hPa 0,0 l/m 18,9 km/h (3 Bft) NO 55 0 min 0,000 mm 0,5 UV-I 90 W/m 5,3 C 0,5 C 29,0 km/h (5 Bft) 98,21 %
24.03.2017 12:30 7,5 C 87 % 1026,3 hPa 0,0 l/m 20,5 km/h (4 Bft) O-NO 71 0 min 0,000 mm 0,5 UV-I 91 W/m 5,5 C -0,1 C 29,0 km/h (5 Bft) 97,73 %
24.03.2017 12:33 7,6 C 87 % 1026,3 hPa 0,0 l/m 16,8 km/h (3 Bft) O-NO 61 0 min 0,000 mm 0,5 UV-I 91 W/m 5,6 C 1,4 C 27,4 km/h (4 Bft) 95,77 %
24.03.2017 12:34 7,5 C 87 % 1026,3 hPa 0,0 l/m 16,7 km/h (3 Bft) NO 49 0 min 0,000 mm 0,5 UV-I 93 W/m 5,5 C 1,3 C 22,5 km/h (4 Bft) 100,00 %
24.03.2017 12:36 7,6 C 87 % 1026,3 hPa 0,0 l/m 15,6 km/h (3 Bft) NO 52 0 min 0,000 mm 0,5 UV-I 96 W/m 5,6 C 2,0 C 20,9 km/h (4 Bft) 96,55 %
24.03.2017 12:38 7,6 C 87 % 1026,2 hPa 0,0 l/m 18,7 km/h (3 Bft) NO 51 0 min 0,000 mm 0,5 UV-I 95 W/m 5,6 C 0,7 C 25,7 km/h (4 Bft) 100,00 %
24.03.2017 12:40 7,5 C 87 % 1026,2 hPa 0,0 l/m 17,7 km/h (3 Bft) O-NO 61 0 min 0,000 mm 0,5 UV-I 91 W/m 5,5 C 0,9 C 22,5 km/h (4 Bft) 96,15 %
24.03.2017 12:42 7,5 C 87 % 1026,3 hPa 0,0 l/m 16,9 km/h (3 Bft) NO 55 0 min 0,000 mm 0,2 UV-I 91 W/m 5,5 C 1,3 C 24,1 km/h (4 Bft) 100,00 %
24.03.2017 12:44 7,6 C 87 % 1026,3 hPa 0,0 l/m 17,5 km/h (3 Bft) NO 55 0 min 0,000 mm 0,5 UV-I 98 W/m 5,6 C 1,1 C 20,9 km/h (4 Bft) 98,11 %
24.03.2017 12:46 7,6 C 87 % 1026,3 hPa 0,0 l/m 17,3 km/h (3 Bft) O-NO 62 0 min 0,000 mm 0,5 UV-I 100 W/m 5,6 C 1,2 C 25,7 km/h (4 Bft) 100,00 %
24.03.2017 12:48 7,6 C 87 % 1026,2 hPa 0,0 l/m 16,4 km/h (3 Bft) NO 46 0 min 0,000 mm 0,5 UV-I 100 W/m 5,6 C 1,6 C 22,5 km/h (4 Bft) 92,00 %
24.03.2017 12:50 7,6 C 87 % 1026,2 hPa 0,0 l/m 15,5 km/h (3 Bft) NO 44 0 min 0,000 mm 0,5 UV-I 104 W/m 5,6 C 2,0 C 22,5 km/h (4 Bft) 95,12 %
24.03.2017 12:52 7,6 C 87 % 1026,3 hPa 0,0 l/m 17,8 km/h (3 Bft) NO 53 0 min 0,000 mm 0,3 UV-I 94 W/m 5,6 C 1,0 C 22,5 km/h (4 Bft) 93,18 %
24.03.2017 12:54 7,6 C 87 % 1026,3 hPa 0,0 l/m 18,2 km/h (3 Bft) O-NO 71 0 min 0,000 mm 0,0 UV-I 92 W/m 5,6 C 0,9 C 24,1 km/h (4 Bft) 97,73 %
24.03.2017 12:56 7,6 C 87 % 1026,3 hPa 0,0 l/m 15,2 km/h (3 Bft) N-NO 16 0 min 0,000 mm 0,0 UV-I 93 W/m 5,6 C 2,1 C 19,3 km/h (3 Bft) 98,31 %
24.03.2017 12:58 7,6 C 87 % 1026,3 hPa 0,0 l/m 19,8 km/h (3 Bft) NO 41 0 min 0,000 mm 0,4 UV-I 99 W/m 5,6 C 0,3 C 32,2 km/h (5 Bft) 97,73 %
24.03.2017 13:00 7,6 C 87 % 1026,2 hPa 0,0 l/m 15,8 km/h (3 Bft) O-NO 71 0 min 0,051 mm 0,5 UV-I 110 W/m 5,6 C 1,9 C 20,9 km/h (4 Bft) 93,10 %
24.03.2017 13:02 7,6 C 87 % 1026,2 hPa 0,0 l/m 17,2 km/h (3 Bft) NO 51 0 min 0,000 mm 0,5 UV-I 123 W/m 5,6 C 1,3 C 22,5 km/h (4 Bft) 92,31 %
24.03.2017 13:04 7,6 C 87 % 1026,3 hPa 0,0 l/m 13,1 km/h (3 Bft) O-NO 59 0 min 0,000 mm 0,5 UV-I 122 W/m 5,6 C 3,2 C 20,9 km/h (4 Bft) 92,11 %
24.03.2017 13:06 7,6 C 87 % 1026,3 hPa 0,0 l/m 20,1 km/h (4 Bft) NO 56 0 min 0,000 mm 0,5 UV-I 119 W/m 5,6 C 0,2 C 27,4 km/h (4 Bft) 94,00 %
24.03.2017 13:08 7,6 C 86 % 1026,2 hPa 0,0 l/m 17,2 km/h (3 Bft) O-NO 69 0 min 0,000 mm 0,6 UV-I 125 W/m 5,4 C 1,3 C 25,7 km/h (4 Bft) 92,00 %
24.03.2017 13:10 7,6 C 86 % 1026,2 hPa 0,0 l/m 16,0 km/h (3 Bft) O-NO 59 0 min 0,000 mm 0,6 UV-I 128 W/m 5,4 C 1,8 C 19,3 km/h (3 Bft) 90,24 %
24.03.2017 13:12 7,7 C 86 % 1026,1 hPa 0,0 l/m 16,1 km/h (3 Bft) NO 50 0 min 0,000 mm 0,6 UV-I 134 W/m 5,5 C 1,9 C 22,5 km/h (4 Bft) 94,34 %
24.03.2017 13:14 7,7 C 86 % 1026,1 hPa 0,0 l/m 16,0 km/h (3 Bft) NO 56 0 min 0,000 mm 0,6 UV-I 137 W/m 5,5 C 1,9 C 20,9 km/h (4 Bft) 90,00 %
24.03.2017 13:16 7,7 C 86 % 1026,1 hPa 0,0 l/m 18,3 km/h (3 Bft) O-NO 60 0 min 0,000 mm 0,6 UV-I 136 W/m 5,5 C 0,9 C 24,1 km/h (4 Bft) 93,62 %
24.03.2017 13:18 7,7 C 86 % 1026,1 hPa 0,0 l/m 17,7 km/h (3 Bft) NO 51 0 min 0,000 mm 0,6 UV-I 135 W/m 5,5 C 1,2 C 24,1 km/h (4 Bft) 89,47 %
24.03.2017 13:20 7,7 C 85 % 1026,1 hPa 0,0 l/m 18,7 km/h (3 Bft) O-NO 59 0 min 0,000 mm 0,6 UV-I 136 W/m 5,3 C 0,8 C 24,1 km/h (4 Bft) 91,49 %
24.03.2017 13:22 7,7 C 86 % 1026,1 hPa 0,0 l/m 17,2 km/h (3 Bft) O-NO 66 0 min 0,000 mm 0,6 UV-I 134 W/m 5,5 C 1,4 C 24,1 km/h (4 Bft) 96,00 %
24.03.2017 13:24 7,7 C 86 % 1026,1 hPa 0,0 l/m 15,6 km/h (3 Bft) O-NO 57 0 min 0,000 mm 0,6 UV-I 130 W/m 5,5 C 2,1 C 22,5 km/h (4 Bft) 95,12 %
24.03.2017 13:26 7,8 C 86 % 1026,1 hPa 0,0 l/m 12,2 km/h (2 Bft) NO 55 0 min 0,000 mm 0,6 UV-I 127 W/m 5,6 C 3,9 C 22,5 km/h (4 Bft) 92,45 %
24.03.2017 13:28 7,8 C 86 % 1026,2 hPa 0,0 l/m 14,7 km/h (3 Bft) O-NO 63 0 min 0,000 mm 0,6 UV-I 125 W/m 5,6 C 2,6 C 20,9 km/h (4 Bft) 97,56 %
24.03.2017 13:30 7,8 C 86 % 1026,2 hPa 0,0 l/m 17,7 km/h (3 Bft) NO 46 0 min 0,000 mm 0,5 UV-I 125 W/m 5,6 C 1,3 C 22,5 km/h (4 Bft) 96,23 %
24.03.2017 13:32 7,8 C 85 % 1026,1 hPa 0,0 l/m 18,3 km/h (3 Bft) O-NO 61 0 min 0,000 mm 0,5 UV-I 127 W/m 5,4 C 1,1 C 24,1 km/h (4 Bft) 93,62 %
24.03.2017 13:34 7,8 C 85 % 1026,1 hPa 0,0 l/m 18,9 km/h (3 Bft) NO 44 0 min 0,000 mm 0,5 UV-I 128 W/m 5,4 C 0,8 C 24,1 km/h (4 Bft) 96,00 %
24.03.2017 13:36 7,8 C 85 % 1026,1 hPa 0,0 l/m 17,1 km/h (3 Bft) O-NO 71 0 min 0,000 mm 0,5 UV-I 126 W/m 5,4 C 1,6 C 24,1 km/h (4 Bft) 97,14 %
24.03.2017 13:38 7,8 C 86 % 1026,1 hPa 0,0 l/m 18,7 km/h (3 Bft) O-NO 60 0 min 0,000 mm 0,5 UV-I 121 W/m 5,6 C 0,9 C 24,1 km/h (4 Bft) 94,83 %
24.03.2017 13:40 7,8 C 85 % 1026,1 hPa 0,0 l/m 18,5 km/h (3 Bft) O-NO 74 0 min 0,000 mm 0,5 UV-I 121 W/m 5,4 C 1,0 C 24,1 km/h (4 Bft) 90,24 %
24.03.2017 13:42 7,7 C 85 % 1026,1 hPa 0,0 l/m 16,9 km/h (3 Bft) O 93 0 min 0,000 mm 0,5 UV-I 130 W/m 5,3 C 1,5 C 22,5 km/h (4 Bft) 96,23 %
24.03.2017 13:44 7,7 C 85 % 1026,1 hPa 0,0 l/m 16,7 km/h (3 Bft) O-NO 76 0 min 0,000 mm 0,7 UV-I 164 W/m 5,3 C 1,6 C 24,1 km/h (4 Bft) 97,56 %
24.03.2017 13:46 7,8 C 86 % 1026,1 hPa 0,0 l/m 17,7 km/h (3 Bft) O 84 0 min 0,000 mm 1,1 UV-I 255 W/m 5,6 C 1,3 C 24,1 km/h (4 Bft) 96,00 %
24.03.2017 13:48 7,8 C 85 % 1026,1 hPa 0,0 l/m 16,1 km/h (3 Bft) O 80 0 min 0,000 mm 1,2 UV-I 273 W/m 5,4 C 2,0 C 24,1 km/h (4 Bft) 97,87 %
24.03.2017 13:50 7,9 C 85 % 1026,1 hPa 0,0 l/m 17,5 km/h (3 Bft) O 80 0 min 0,000 mm 1,1 UV-I 269 W/m 5,5 C 1,5 C 24,1 km/h (4 Bft) 97,56 %
24.03.2017 13:52 8,0 C 85 % 1026,1 hPa 0,0 l/m 16,7 km/h (3 Bft) O-NO 74 0 min 0,000 mm 1,1 UV-I 267 W/m 5,6 C 2,0 C 22,5 km/h (4 Bft) 98,00 %
24.03.2017 13:54 8,1 C 84 % 1026,1 hPa 0,0 l/m 17,1 km/h (3 Bft) O 80 0 min 0,000 mm 1,2 UV-I 291 W/m 5,6 C 1,9 C 24,1 km/h (4 Bft) 97,83 %
24.03.2017 13:56 8,1 C 83 % 1026,0 hPa 0,0 l/m 13,2 km/h (3 Bft) O-NO 76 0 min 0,000 mm 1,2 UV-I 316 W/m 5,4 C 3,7 C 17,7 km/h (3 Bft) 94,23 %
24.03.2017 13:58 8,2 C 84 % 1026,0 hPa 0,0 l/m 14,8 km/h (3 Bft) O-NO 71 2 min 0,000 mm 1,2 UV-I 341 W/m 5,7 C 3,0 C 20,9 km/h (4 Bft) 100,00 %
24.03.2017 14:00 8,3 C 84 % 1025,9 hPa 0,0 l/m 15,3 km/h (3 Bft) O-NO 61 2 min 0,101 mm 1,3 UV-I 351 W/m 5,8 C 2,9 C 20,9 km/h (4 Bft) 96,23 %
24.03.2017 14:02 8,4 C 83 % 1025,9 hPa 0,0 l/m 17,9 km/h (3 Bft) O-NO 71 2 min 0,000 mm 1,3 UV-I 357 W/m 5,7 C 2,0 C 22,5 km/h (4 Bft) 97,87 %
24.03.2017 14:04 8,4 C 83 % 1025,8 hPa 0,0 l/m 13,7 km/h (3 Bft) O 101 2 min 0,000 mm 1,2 UV-I 338 W/m 5,7 C 3,8 C 17,7 km/h (3 Bft) 100,00 %
24.03.2017 14:06 8,5 C 83 % 1025,8 hPa 0,0 l/m 19,4 km/h (3 Bft) O-NO 71 0 min 0,000 mm 1,1 UV-I 310 W/m 5,8 C 1,6 C 24,1 km/h (4 Bft) 100,00 %
24.03.2017 14:08 8,5 C 82 % 1025,9 hPa 0,0 l/m 18,3 km/h (3 Bft) O-NO 77 0 min 0,000 mm 1,1 UV-I 285 W/m 5,6 C 2,0 C 27,4 km/h (4 Bft) 98,21 %
24.03.2017 14:10 8,6 C 82 % 1025,9 hPa 0,0 l/m 17,2 km/h (3 Bft) O-NO 71 0 min 0,000 mm 1,0 UV-I 273 W/m 5,7 C 2,5 C 22,5 km/h (4 Bft) 98,11 %
24.03.2017 14:12 8,6 C 81 % 1025,9 hPa 0,0 l/m 18,0 km/h (3 Bft) O-NO 61 0 min 0,000 mm 1,0 UV-I 275 W/m 5,5 C 2,2 C 24,1 km/h (4 Bft) 100,00 %
24.03.2017 14:14 8,6 C 81 % 1025,9 hPa 0,0 l/m 14,4 km/h (3 Bft) O 87 0 min 0,000 mm 1,0 UV-I 274 W/m 5,5 C 3,7 C 19,3 km/h (3 Bft) 98,00 %
24.03.2017 14:16 8,6 C 81 % 1025,8 hPa 0,0 l/m 16,8 km/h (3 Bft) O 80 0 min 0,000 mm 0,9 UV-I 260 W/m 5,5 C 2,7 C 24,1 km/h (4 Bft) 98,00 %
24.03.2017 14:18 8,7 C 81 % 1025,8 hPa 0,0 l/m 18,3 km/h (3 Bft) O-NO 75 0 min 0,000 mm 1,0 UV-I 279 W/m 5,6 C 2,2 C 24,1 km/h (4 Bft) 95,45 %
24.03.2017 14:20 8,7 C 82 % 1025,8 hPa 0,0 l/m 12,5 km/h (3 Bft) O-NO 71 0 min 0,000 mm 1,0 UV-I 280 W/m 5,8 C 4,8 C 19,3 km/h (3 Bft) 96,00 %
24.03.2017 14:22 8,8 C 82 % 1025,9 hPa 0,0 l/m 17,6 km/h (3 Bft) NO 53 0 min 0,000 mm 0,9 UV-I 254 W/m 5,9 C 2,6 C 27,4 km/h (4 Bft) 97,73 %
24.03.2017 14:24 8,8 C 80 % 1025,8 hPa 0,0 l/m 16,6 km/h (3 Bft) O-NO 65 0 min 0,000 mm 0,8 UV-I 240 W/m 5,5 C 3,0 C 25,7 km/h (4 Bft) 100,00 %
24.03.2017 14:26 8,8 C 81 % 1025,8 hPa 0,0 l/m 17,4 km/h (3 Bft) O-NO 60 0 min 0,000 mm 0,8 UV-I 195 W/m 5,7 C 2,7 C 24,1 km/h (4 Bft) 98,11 %
24.03.2017 14:28 8,8 C 81 % 1025,8 hPa 0,0 l/m 24,3 km/h (4 Bft) NO 56 0 min 0,000 mm 0,7 UV-I 172 W/m 5,7 C 0,4 C 32,2 km/h (5 Bft) 95,12 %
24.03.2017 14:30 8,7 C 81 % 1025,8 hPa 0,0 l/m 19,8 km/h (3 Bft) NO 44 0 min 0,000 mm 0,6 UV-I 163 W/m 5,6 C 1,7 C 25,7 km/h (4 Bft) 97,44 %
24.03.2017 14:32 8,7 C 81 % 1025,8 hPa 0,0 l/m 20,1 km/h (4 Bft) O-NO 59 0 min 0,000 mm 0,6 UV-I 155 W/m 5,6 C 1,6 C 24,1 km/h (4 Bft) 100,00 %
24.03.2017 14:34 8,7 C 81 % 1025,8 hPa 0,0 l/m 15,4 km/h (3 Bft) O 81 0 min 0,000 mm 0,6 UV-I 147 W/m 5,6 C 3,4 C 20,9 km/h (4 Bft) 100,00 %
24.03.2017 14:36 8,7 C 82 % 1025,8 hPa 0,0 l/m 17,4 km/h (3 Bft) O-NO 58 0 min 0,000 mm 0,5 UV-I 144 W/m 5,8 C 2,6 C 25,7 km/h (4 Bft) 98,28 %
24.03.2017 14:38 8,7 C 81 % 1025,8 hPa 0,0 l/m 16,4 km/h (3 Bft) NO 42 0 min 0,000 mm 0,6 UV-I 149 W/m 5,6 C 3,0 C 24,1 km/h (4 Bft) 97,62 %
24.03.2017 14:40 8,7 C 81 % 1025,9 hPa 0,0 l/m 14,7 km/h (3 Bft) O-NO 75 0 min 0,000 mm 0,6 UV-I 151 W/m 5,6 C 3,7 C 20,9 km/h (4 Bft) 96,15 %
24.03.2017 14:42 8,7 C 81 % 1025,9 hPa 0,0 l/m 17,9 km/h (3 Bft) O-NO 63 0 min 0,000 mm 0,5 UV-I 143 W/m 5,6 C 2,4 C 24,1 km/h (4 Bft) 98,59 %
24.03.2017 14:44 8,7 C 81 % 1025,8 hPa 0,0 l/m 22,9 km/h (4 Bft) NO 41 0 min 0,000 mm 0,5 UV-I 142 W/m 5,6 C 0,7 C 29,0 km/h (5 Bft) 100,00 %
24.03.2017 14:46 8,7 C 81 % 1025,8 hPa 0,0 l/m 17,9 km/h (3 Bft) O 86 0 min 0,000 mm 0,5 UV-I 144 W/m 5,6 C 2,4 C 29,0 km/h (5 Bft) 98,08 %
24.03.2017 14:48 8,7 C 80 % 1025,8 hPa 0,0 l/m 22,9 km/h (4 Bft) NO 56 0 min 0,000 mm 0,6 UV-I 149 W/m 5,4 C 0,7 C 27,4 km/h (4 Bft) 96,23 %
24.03.2017 14:50 8,7 C 80 % 1025,9 hPa 0,0 l/m 20,3 km/h (4 Bft) NO 53 0 min 0,000 mm 0,5 UV-I 140 W/m 5,4 C 1,5 C 25,7 km/h (4 Bft) 97,37 %
24.03.2017 14:52 8,7 C 81 % 1025,9 hPa 0,0 l/m 17,5 km/h (3 Bft) O-NO 67 0 min 0,000 mm 0,5 UV-I 134 W/m 5,6 C 2,5 C 22,5 km/h (4 Bft) 98,04 %
24.03.2017 14:54 8,7 C 82 % 1025,9 hPa 0,0 l/m 13,7 km/h (3 Bft) O-NO 71 0 min 0,000 mm 0,5 UV-I 135 W/m 5,8 C 4,2 C 17,7 km/h (3 Bft) 97,87 %
24.03.2017 14:56 8,7 C 81 % 1025,9 hPa 0,0 l/m 17,7 km/h (3 Bft) NO 53 0 min 0,000 mm 0,5 UV-I 137 W/m 5,6 C 2,4 C 25,7 km/h (4 Bft) 100,00 %
24.03.2017 14:58 8,7 C 81 % 1025,9 hPa 0,0 l/m 20,6 km/h (4 Bft) NO 42 0 min 0,000 mm 0,5 UV-I 136 W/m 5,6 C 1,4 C 24,1 km/h (4 Bft) 89,47 %
24.03.2017 15:00 8,7 C 80 % 1025,9 hPa 0,0 l/m 21,2 km/h (4 Bft) O-NO 62 0 min 0,000 mm 0,3 UV-I 134 W/m 5,4 C 1,2 C 27,4 km/h (4 Bft) 97,87 %
24.03.2017 15:02 8,7 C 80 % 1025,9 hPa 0,0 l/m 18,0 km/h (3 Bft) O-NO 59 0 min 0,127 mm 0,0 UV-I 124 W/m 5,4 C 2,3 C 22,5 km/h (4 Bft) 97,87 %
24.03.2017 15:04 8,7 C 81 % 1025,9 hPa 0,0 l/m 17,2 km/h (3 Bft) NO 50 0 min 0,000 mm 0,0 UV-I 117 W/m 5,6 C 2,6 C 24,1 km/h (4 Bft) 97,56 %
24.03.2017 15:06 8,7 C 80 % 1026,0 hPa 0,0 l/m 19,8 km/h (3 Bft) NO 43 0 min 0,000 mm 0,0 UV-I 111 W/m 5,4 C 1,7 C 27,4 km/h (4 Bft) 92,86 %
24.03.2017 15:08 8,7 C 80 % 1026,0 hPa 0,0 l/m 16,3 km/h (3 Bft) O-NO 63 0 min 0,000 mm 0,0 UV-I 104 W/m 5,4 C 3,0 C 22,5 km/h (4 Bft) 94,00 %
24.03.2017 15:10 8,7 C 81 % 1025,9 hPa 0,0 l/m 18,1 km/h (3 Bft) N-NO 26 0 min 0,000 mm 0,0 UV-I 99 W/m 5,6 C 2,3 C 24,1 km/h (4 Bft) 94,74 %
24.03.2017 15:12 8,7 C 81 % 1025,8 hPa 0,0 l/m 16,2 km/h (3 Bft) NO 53 0 min 0,000 mm 0,0 UV-I 99 W/m 5,6 C 3,0 C 22,5 km/h (4 Bft) 94,00 %
24.03.2017 15:14 8,7 C 81 % 1025,9 hPa 0,0 l/m 18,4 km/h (3 Bft) O-NO 57 0 min 0,000 mm 0,0 UV-I 108 W/m 5,6 C 2,2 C 25,7 km/h (4 Bft) 93,75 %
24.03.2017 15:16 8,7 C 81 % 1025,9 hPa 0,0 l/m 20,8 km/h (4 Bft) O-NO 61 0 min 0,000 mm 0,0 UV-I 113 W/m 5,6 C 1,3 C 25,7 km/h (4 Bft) 94,23 %
24.03.2017 15:18 8,7 C 81 % 1025,9 hPa 0,0 l/m 19,0 km/h (3 Bft) NO 55 0 min 0,000 mm 0,0 UV-I 113 W/m 5,6 C 2,0 C 27,4 km/h (4 Bft) 95,24 %
24.03.2017 15:20 8,7 C 81 % 1025,9 hPa 0,0 l/m 18,8 km/h (3 Bft) NO 46 0 min 0,000 mm 0,0 UV-I 122 W/m 5,6 C 2,0 C 25,7 km/h (4 Bft) 95,12 %
24.03.2017 15:22 8,7 C 81 % 1025,9 hPa 0,0 l/m 19,5 km/h (3 Bft) O-NO 58 0 min 0,000 mm 0,0 UV-I 132 W/m 5,6 C 1,8 C 24,1 km/h (4 Bft) 96,23 %
24.03.2017 15:24 8,7 C 81 % 1026,0 hPa 0,0 l/m 19,9 km/h (4 Bft) O-NO 63 0 min 0,000 mm 0,0 UV-I 122 W/m 5,6 C 1,6 C 25,7 km/h (4 Bft) 90,00 %
24.03.2017 15:26 8,7 C 81 % 1026,0 hPa 0,0 l/m 18,8 km/h (3 Bft) O-NO 60 0 min 0,000 mm 0,0 UV-I 110 W/m 5,6 C 2,0 C 24,1 km/h (4 Bft) 96,00 %
24.03.2017 15:28 8,7 C 81 % 1026,0 hPa 0,0 l/m 18,7 km/h (3 Bft) O-NO 65 0 min 0,000 mm 0,0 UV-I 103 W/m 5,6 C 2,1 C 27,4 km/h (4 Bft) 97,14 %
24.03.2017 15:30 8,7 C 81 % 1026,0 hPa 0,0 l/m 14,6 km/h (3 Bft) NO 51 0 min 0,000 mm 0,0 UV-I 98 W/m 5,6 C 3,7 C 19,3 km/h (3 Bft) 94,00 %
24.03.2017 15:32 8,7 C 81 % 1026,0 hPa 0,0 l/m 14,3 km/h (3 Bft) O-NO 66 0 min 0,000 mm 0,0 UV-I 96 W/m 5,6 C 3,9 C 19,3 km/h (3 Bft) 95,12 %
24.03.2017 15:34 8,7 C 81 % 1026,0 hPa 0,0 l/m 14,5 km/h (3 Bft) O-NO 71 0 min 0,000 mm 0,0 UV-I 92 W/m 5,6 C 3,8 C 20,9 km/h (4 Bft) 95,12 %
24.03.2017 15:36 8,7 C 81 % 1026,0 hPa 0,0 l/m 14,6 km/h (3 Bft) N 11 0 min 0,000 mm 0,0 UV-I 91 W/m 5,6 C 3,7 C 17,7 km/h (3 Bft) 94,34 %
24.03.2017 15:38 8,7 C 82 % 1025,9 hPa 0,0 l/m 19,6 km/h (3 Bft) O-NO 69 0 min 0,000 mm 0,0 UV-I 93 W/m 5,8 C 1,7 C 29,0 km/h (5 Bft) 98,21 %
24.03.2017 15:40 8,7 C 81 % 1025,9 hPa 0,0 l/m 18,9 km/h (3 Bft) O-NO 74 0 min 0,000 mm 0,0 UV-I 90 W/m 5,6 C 2,0 C 24,1 km/h (4 Bft) 100,00 %
24.03.2017 15:42 8,7 C 81 % 1026,0 hPa 0,0 l/m 18,7 km/h (3 Bft) O 92 0 min 0,000 mm 0,0 UV-I 86 W/m 5,6 C 2,1 C 25,7 km/h (4 Bft) 98,21 %
24.03.2017 15:44 8,7 C 81 % 1026,0 hPa 0,0 l/m 18,7 km/h (3 Bft) O 81 0 min 0,000 mm 0,0 UV-I 86 W/m 5,6 C 2,1 C 25,7 km/h (4 Bft) 97,50 %
24.03.2017 15:46 8,7 C 81 % 1026,0 hPa 0,0 l/m 16,5 km/h (3 Bft) NO 53 0 min 0,000 mm 0,0 UV-I 86 W/m 5,6 C 2,9 C 20,9 km/h (4 Bft) 100,00 %
24.03.2017 15:48 8,7 C 81 % 1026,0 hPa 0,0 l/m 18,1 km/h (3 Bft) O-NO 67 0 min 0,000 mm 0,0 UV-I 86 W/m 5,6 C 2,3 C 22,5 km/h (4 Bft) 93,18 %
24.03.2017 15:50 8,7 C 81 % 1026,0 hPa 0,0 l/m 20,0 km/h (4 Bft) O-NO 69 0 min 0,000 mm 0,0 UV-I 78 W/m 5,6 C 1,6 C 24,1 km/h (4 Bft) 97,73 %
24.03.2017 15:52 8,7 C 81 % 1026,0 hPa 0,0 l/m 17,7 km/h (3 Bft) O-NO 61 0 min 0,000 mm 0,0 UV-I 73 W/m 5,6 C 2,4 C 24,1 km/h (4 Bft) 100,00 %
24.03.2017 15:54 8,7 C 81 % 1026,0 hPa 0,0 l/m 16,4 km/h (3 Bft) NO 46 0 min 0,000 mm 0,0 UV-I 72 W/m 5,6 C 3,0 C 19,3 km/h (3 Bft) 96,67 %
24.03.2017 15:56 8,7 C 81 % 1026,0 hPa 0,0 l/m 14,6 km/h (3 Bft) O-NO 66 0 min 0,000 mm 0,0 UV-I 72 W/m 5,6 C 3,7 C 22,5 km/h (4 Bft) 100,00 %
24.03.2017 15:58 8,7 C 81 % 1026,0 hPa 0,0 l/m 16,0 km/h (3 Bft) NO 44 0 min 0,000 mm 0,0 UV-I 77 W/m 5,6 C 3,1 C 20,9 km/h (4 Bft) 95,24 %
24.03.2017 16:00 8,7 C 81 % 1026,0 hPa 0,0 l/m 11,2 km/h (2 Bft) O-NO 65 0 min 0,000 mm 0,0 UV-I 92 W/m 5,6 C 5,5 C 17,7 km/h (3 Bft) 95,12 %
24.03.2017 16:02 8,7 C 82 % 1025,9 hPa 0,0 l/m 10,9 km/h (2 Bft) O 84 0 min 0,076 mm 0,0 UV-I 103 W/m 5,8 C 5,6 C 17,7 km/h (3 Bft) 96,43 %
24.03.2017 16:04 8,7 C 81 % 1026,0 hPa 0,0 l/m 12,8 km/h (3 Bft) O 81 0 min 0,000 mm 0,0 UV-I 98 W/m 5,6 C 4,6 C 20,9 km/h (4 Bft) 100,00 %
24.03.2017 16:06 8,7 C 81 % 1026,0 hPa 0,0 l/m 12,8 km/h (3 Bft) O 94 0 min 0,000 mm 0,0 UV-I 90 W/m 5,6 C 4,6 C 20,9 km/h (4 Bft) 97,37 %
24.03.2017 16:08 8,7 C 82 % 1026,0 hPa 0,0 l/m 14,1 km/h (3 Bft) O-NO 72 0 min 0,000 mm 0,0 UV-I 88 W/m 5,8 C 4,0 C 25,7 km/h (4 Bft) 96,61 %
24.03.2017 16:10 8,7 C 81 % 1026,0 hPa 0,0 l/m 15,9 km/h (3 Bft) O-NO 74 0 min 0,000 mm 0,0 UV-I 83 W/m 5,6 C 3,2 C 20,9 km/h (4 Bft) 100,00 %
24.03.2017 16:12 8,7 C 81 % 1026,1 hPa 0,0 l/m 13,6 km/h (3 Bft) NO 45 0 min 0,000 mm 0,0 UV-I 76 W/m 5,6 C 4,2 C 16,1 km/h (3 Bft) 98,08 %
24.03.2017 16:14 8,7 C 81 % 1026,1 hPa 0,0 l/m 13,6 km/h (3 Bft) O-NO 63 0 min 0,000 mm 0,0 UV-I 72 W/m 5,6 C 4,2 C 17,7 km/h (3 Bft) 100,00 %
24.03.2017 16:16 8,7 C 81 % 1026,1 hPa 0,0 l/m 12,4 km/h (3 Bft) O 79 0 min 0,000 mm 0,0 UV-I 68 W/m 5,6 C 4,8 C 16,1 km/h (3 Bft) 100,00 %
24.03.2017 16:18 8,7 C 81 % 1026,1 hPa 0,0 l/m 14,7 km/h (3 Bft) O 82 0 min 0,000 mm 0,0 UV-I 67 W/m 5,6 C 3,7 C 19,3 km/h (3 Bft) 100,00 %
24.03.2017 16:20 8,7 C 82 % 1026,1 hPa 0,0 l/m 11,9 km/h (2 Bft) O-NO 61 0 min 0,000 mm 0,0 UV-I 70 W/m 5,8 C 5,1 C 17,7 km/h (3 Bft) 97,56 %
24.03.2017 16:22 8,7 C 82 % 1026,1 hPa 0,0 l/m 17,4 km/h (3 Bft) NO 52 0 min 0,000 mm 0,0 UV-I 72 W/m 5,8 C 2,6 C 22,5 km/h (4 Bft) 92,68 %
24.03.2017 16:24 8,8 C 81 % 1026,0 hPa 0,0 l/m 16,1 km/h (3 Bft) NO 50 0 min 0,000 mm 0,0 UV-I 70 W/m 5,7 C 3,2 C 20,9 km/h (4 Bft) 100,00 %
24.03.2017 16:26 8,8 C 81 % 1026,1 hPa 0,0 l/m 14,9 km/h (3 Bft) NO 45 0 min 0,000 mm 0,0 UV-I 63 W/m 5,7 C 3,7 C 20,9 km/h (4 Bft) 96,23 %
24.03.2017 16:28 8,8 C 81 % 1026,0 hPa 0,0 l/m 13,8 km/h (3 Bft) O 79 0 min 0,000 mm 0,0 UV-I 59 W/m 5,7 C 4,2 C 19,3 km/h (3 Bft) 97,37 %
24.03.2017 16:30 8,8 C 82 % 1026,0 hPa 0,0 l/m 13,2 km/h (3 Bft) O-NO 67 0 min 0,000 mm 0,0 UV-I 55 W/m 5,9 C 4,5 C 17,7 km/h (3 Bft) 98,00 %
24.03.2017 16:32 8,7 C 81 % 1026,0 hPa 0,0 l/m 15,6 km/h (3 Bft) O-NO 60 0 min 0,000 mm 0,0 UV-I 51 W/m 5,6 C 3,3 C 20,9 km/h (4 Bft) 100,00 %
24.03.2017 16:34 8,7 C 81 % 1026,0 hPa 0,0 l/m 17,1 km/h (3 Bft) O-NO 60 0 min 0,000 mm 0,0 UV-I 48 W/m 5,6 C 2,7 C 24,1 km/h (4 Bft) 95,24 %
24.03.2017 16:36 8,7 C 82 % 1026,1 hPa 0,0 l/m 18,7 km/h (3 Bft) NO 54 0 min 0,000 mm 0,0 UV-I 46 W/m 5,8 C 2,1 C 25,7 km/h (4 Bft) 96,00 %
24.03.2017 16:38 8,7 C 81 % 1026,1 hPa 0,0 l/m 17,8 km/h (3 Bft) O-NO 73 0 min 0,000 mm 0,0 UV-I 43 W/m 5,6 C 2,4 C 24,1 km/h (4 Bft) 97,37 %
24.03.2017 16:40 8,7 C 82 % 1026,1 hPa 0,0 l/m 13,0 km/h (3 Bft) O-NO 57 0 min 0,000 mm 0,0 UV-I 42 W/m 5,8 C 4,5 C 19,3 km/h (3 Bft) 98,31 %
24.03.2017 16:42 8,7 C 82 % 1026,1 hPa 0,0 l/m 12,3 km/h (3 Bft) O-NO 61 0 min 0,000 mm 0,0 UV-I 42 W/m 5,8 C 4,9 C 17,7 km/h (3 Bft) 97,87 %
24.03.2017 16:44 8,7 C 81 % 1026,1 hPa 0,0 l/m 15,9 km/h (3 Bft) O-NO 70 0 min 0,000 mm 0,0 UV-I 42 W/m 5,6 C 3,2 C 19,3 km/h (3 Bft) 100,00 %
24.03.2017 16:46 8,7 C 82 % 1026,2 hPa 0,0 l/m 12,7 km/h (3 Bft) O-NO 67 0 min 0,000 mm 0,0 UV-I 42 W/m 5,8 C 4,7 C 17,7 km/h (3 Bft) 100,00 %
24.03.2017 16:48 8,7 C 82 % 1026,1 hPa 0,0 l/m 12,0 km/h (2 Bft) O-NO 57 0 min 0,000 mm 0,0 UV-I 42 W/m 5,8 C 5,0 C 19,3 km/h (3 Bft) 100,00 %
24.03.2017 16:50 8,7 C 82 % 1026,1 hPa 0,0 l/m 13,9 km/h (3 Bft) O-NO 71 0 min 0,000 mm 0,0 UV-I 40 W/m 5,8 C 4,1 C 19,3 km/h (3 Bft) 95,45 %
24.03.2017 16:52 8,7 C 82 % 1026,1 hPa 0,0 l/m 13,8 km/h (3 Bft) O-NO 76 0 min 0,000 mm 0,0 UV-I 39 W/m 5,8 C 4,1 C 19,3 km/h (3 Bft) 97,56 %
24.03.2017 16:54 8,7 C 82 % 1026,1 hPa 0,0 l/m 14,7 km/h (3 Bft) NO 44 0 min 0,000 mm 0,0 UV-I 37 W/m 5,8 C 3,7 C 19,3 km/h (3 Bft) 93,22 %
24.03.2017 16:56 8,7 C 82 % 1026,1 hPa 0,0 l/m 13,6 km/h (3 Bft) NO 54 0 min 0,000 mm 0,0 UV-I 35 W/m 5,8 C 4,2 C 17,7 km/h (3 Bft) 100,00 %
24.03.2017 16:58 8,7 C 82 % 1026,1 hPa 0,0 l/m 12,3 km/h (3 Bft) O-NO 62 0 min 0,000 mm 0,0 UV-I 32 W/m 5,8 C 4,9 C 19,3 km/h (3 Bft) 95,74 %
24.03.2017 17:00 8,7 C 82 % 1026,2 hPa 0,0 l/m 14,5 km/h (3 Bft) O-NO 74 0 min 0,000 mm 0,0 UV-I 32 W/m 5,8 C 3,8 C 19,3 km/h (3 Bft) 95,12 %
24.03.2017 17:02 8,7 C 83 % 1026,1 hPa 0,0 l/m 10,8 km/h (2 Bft) NO 51 0 min 0,051 mm 0,0 UV-I 32 W/m 6,0 C 5,7 C 17,7 km/h (3 Bft) 96,00 %
24.03.2017 17:04 8,7 C 83 % 1026,1 hPa 0,0 l/m 12,2 km/h (2 Bft) O-NO 65 0 min 0,000 mm 0,0 UV-I 32 W/m 6,0 C 4,9 C 16,1 km/h (3 Bft) 96,00 %
24.03.2017 17:06 8,7 C 83 % 1026,1 hPa 0,0 l/m 12,2 km/h (2 Bft) O-NO 61 0 min 0,000 mm 0,0 UV-I 32 W/m 6,0 C 4,9 C 17,7 km/h (3 Bft) 92,11 %
24.03.2017 17:08 8,6 C 83 % 1026,1 hPa 0,0 l/m 11,2 km/h (2 Bft) NO 47 0 min 0,000 mm 0,0 UV-I 31 W/m 5,9 C 5,3 C 17,7 km/h (3 Bft) 92,45 %
24.03.2017 17:10 8,6 C 83 % 1026,1 hPa 0,0 l/m 11,7 km/h (2 Bft) O-NO 60 0 min 0,000 mm 0,0 UV-I 28 W/m 5,9 C 5,1 C 17,7 km/h (3 Bft) 94,00 %
24.03.2017 17:12 8,6 C 83 % 1026,1 hPa 0,0 l/m 13,5 km/h (3 Bft) NO 51 0 min 0,000 mm 0,0 UV-I 28 W/m 5,9 C 4,1 C 17,7 km/h (3 Bft) 91,67 %
24.03.2017 17:14 8,6 C 83 % 1026,2 hPa 0,0 l/m 12,4 km/h (3 Bft) O-NO 61 0 min 0,000 mm 0,0 UV-I 29 W/m 5,9 C 4,7 C 17,7 km/h (3 Bft) 93,10 %
24.03.2017 17:16 8,6 C 83 % 1026,1 hPa 0,0 l/m 14,8 km/h (3 Bft) O-NO 69 0 min 0,000 mm 0,0 UV-I 26 W/m 5,9 C 3,5 C 19,3 km/h (3 Bft) 95,24 %
24.03.2017 17:18 8,6 C 83 % 1026,1 hPa 0,0 l/m 13,2 km/h (3 Bft) NO 49 0 min 0,000 mm 0,0 UV-I 26 W/m 5,9 C 4,3 C 19,3 km/h (3 Bft) 95,74 %
24.03.2017 17:20 8,6 C 83 % 1026,1 hPa 0,0 l/m 11,6 km/h (2 Bft) O-NO 59 0 min 0,000 mm 0,0 UV-I 26 W/m 5,9 C 5,1 C 16,1 km/h (3 Bft) 94,34 %
24.03.2017 17:22 8,6 C 84 % 1026,2 hPa 0,0 l/m 11,2 km/h (2 Bft) O-NO 59 0 min 0,000 mm 0,0 UV-I 26 W/m 6,1 C 5,3 C 16,1 km/h (3 Bft) 95,45 %
24.03.2017 17:24 8,6 C 84 % 1026,2 hPa 0,0 l/m 8,2 km/h (2 Bft) O 80 0 min 0,000 mm 0,0 UV-I 26 W/m 6,1 C 7,2 C 12,9 km/h (3 Bft) 95,12 %
24.03.2017 17:26 8,6 C 84 % 1026,3 hPa 0,0 l/m 10,4 km/h (2 Bft) O-NO 61 0 min 0,000 mm 0,0 UV-I 24 W/m 6,1 C 5,8 C 17,7 km/h (3 Bft) 96,00 %
24.03.2017 17:28 8,6 C 84 % 1026,3 hPa 0,0 l/m 7,8 km/h (2 Bft) NO 52 0 min 0,000 mm 0,0 UV-I 23 W/m 6,1 C 7,5 C 11,3 km/h (2 Bft) 92,45 %
24.03.2017 17:30 8,6 C 84 % 1026,3 hPa 0,0 l/m 10,9 km/h (2 Bft) NO 55 0 min 0,000 mm 0,0 UV-I 20 W/m 6,1 C 5,5 C 19,3 km/h (3 Bft) 97,73 %
24.03.2017 17:32 8,6 C 84 % 1026,3 hPa 0,0 l/m 12,5 km/h (3 Bft) O-NO 64 0 min 0,000 mm 0,0 UV-I 19 W/m 6,1 C 4,6 C 17,7 km/h (3 Bft) 95,12 %
24.03.2017 17:34 8,6 C 84 % 1026,2 hPa 0,0 l/m 8,9 km/h (2 Bft) O-NO 61 0 min 0,000 mm 0,0 UV-I 19 W/m 6,1 C 6,8 C 12,9 km/h (3 Bft) 95,24 %
24.03.2017 17:36 8,6 C 84 % 1026,3 hPa 0,0 l/m 9,7 km/h (2 Bft) N 5 0 min 0,000 mm 0,0 UV-I 18 W/m 6,1 C 6,2 C 14,5 km/h (3 Bft) 97,56 %
24.03.2017 17:38 8,6 C 84 % 1026,3 hPa 0,0 l/m 8,2 km/h (2 Bft) NO 45 0 min 0,000 mm 0,0 UV-I 16 W/m 6,1 C 7,2 C 11,3 km/h (2 Bft) 98,11 %
24.03.2017 17:40 8,5 C 84 % 1026,3 hPa 0,0 l/m 9,2 km/h (2 Bft) NO 51 0 min 0,000 mm 0,0 UV-I 16 W/m 6,0 C 6,4 C 14,5 km/h (3 Bft) 94,34 %
24.03.2017 17:42 8,5 C 84 % 1026,4 hPa 0,0 l/m 9,6 km/h (2 Bft) N-NO 31 0 min 0,000 mm 0,0 UV-I 14 W/m 6,0 C 6,2 C 14,5 km/h (3 Bft) 92,45 %
24.03.2017 17:44 8,4 C 84 % 1026,4 hPa 0,0 l/m 9,0 km/h (2 Bft) NO 52 0 min 0,000 mm 0,0 UV-I 13 W/m 5,9 C 6,5 C 14,5 km/h (3 Bft) 95,74 %
24.03.2017 17:46 8,4 C 85 % 1026,5 hPa 0,0 l/m 8,0 km/h (2 Bft) NO 38 0 min 0,000 mm 0,0 UV-I 12 W/m 6,0 C 7,2 C 12,9 km/h (3 Bft) 97,56 %
24.03.2017 17:48 8,4 C 84 % 1026,5 hPa 0,0 l/m 10,3 km/h (2 Bft) NO 46 0 min 0,000 mm 0,0 UV-I 12 W/m 5,9 C 5,6 C 14,5 km/h (3 Bft) 95,45 %
24.03.2017 17:50 8,4 C 84 % 1026,5 hPa 0,0 l/m 8,4 km/h (2 Bft) NO 44 0 min 0,000 mm 0,0 UV-I 11 W/m 5,9 C 6,9 C 12,9 km/h (3 Bft) 95,56 %
24.03.2017 17:52 8,4 C 84 % 1026,5 hPa 0,0 l/m 9,7 km/h (2 Bft) NO 44 0 min 0,000 mm 0,0 UV-I 11 W/m 5,9 C 6,0 C 14,5 km/h (3 Bft) 96,36 %
24.03.2017 17:54 8,4 C 84 % 1026,6 hPa 0,0 l/m 11,3 km/h (2 Bft) NO 47 0 min 0,000 mm 0,0 UV-I 10 W/m 5,9 C 5,1 C 16,1 km/h (3 Bft) 97,62 %
24.03.2017 17:56 8,4 C 84 % 1026,6 hPa 0,0 l/m 8,5 km/h (2 Bft) O-NO 61 0 min 0,000 mm 0,0 UV-I 9 W/m 5,9 C 6,8 C 12,9 km/h (3 Bft) 94,34 %
24.03.2017 17:58 8,3 C 84 % 1026,6 hPa 0,0 l/m 6,4 km/h (2 Bft) NO 47 0 min 0,000 mm 0,0 UV-I 9 W/m 5,8 C 8,3 C 9,7 km/h (2 Bft) 97,87 %
24.03.2017 18:00 8,4 C 84 % 1026,6 hPa 0,0 l/m 6,2 km/h (2 Bft) NO 53 0 min 0,000 mm 0,0 UV-I 7 W/m 5,9 C 8,4 C 8,0 km/h (2 Bft) 95,12 %
24.03.2017 18:02 8,4 C 84 % 1026,6 hPa 0,0 l/m 10,6 km/h (2 Bft) O-NO 61 0 min 0,026 mm 0,0 UV-I 7 W/m 5,9 C 5,5 C 14,5 km/h (3 Bft) 91,49 %
24.03.2017 18:04 8,3 C 84 % 1026,7 hPa 0,0 l/m 9,7 km/h (2 Bft) NO 37 0 min 0,000 mm 0,0 UV-I 7 W/m 5,8 C 5,9 C 14,5 km/h (3 Bft) 95,12 %
24.03.2017 18:06 8,3 C 84 % 1026,6 hPa 0,0 l/m 11,7 km/h (2 Bft) NO 54 0 min 0,000 mm 0,0 UV-I 6 W/m 5,8 C 4,7 C 17,7 km/h (3 Bft) 96,23 %
24.03.2017 18:08 8,3 C 84 % 1026,6 hPa 0,0 l/m 9,5 km/h (2 Bft) O-NO 64 0 min 0,000 mm 0,0 UV-I 5 W/m 5,8 C 6,0 C 14,5 km/h (3 Bft) 96,00 %
24.03.2017 18:10 8,3 C 83 % 1026,7 hPa 0,0 l/m 10,7 km/h (2 Bft) NO 44 0 min 0,000 mm 0,0 UV-I 5 W/m 5,6 C 5,3 C 16,1 km/h (3 Bft) 93,62 %
24.03.2017 18:12 8,3 C 83 % 1026,7 hPa 0,0 l/m 11,0 km/h (2 Bft) NO 41 0 min 0,000 mm 0,0 UV-I 5 W/m 5,6 C 5,1 C 16,1 km/h (3 Bft) 92,00 %
24.03.2017 18:14 8,3 C 83 % 1026,8 hPa 0,0 l/m 11,3 km/h (2 Bft) NO 42 0 min 0,000 mm 0,0 UV-I 5 W/m 5,6 C 4,9 C 16,1 km/h (3 Bft) 97,56 %
24.03.2017 18:16 8,3 C 83 % 1026,8 hPa 0,0 l/m 9,8 km/h (2 Bft) N-NO 21 0 min 0,000 mm 0,0 UV-I 2 W/m 5,6 C 5,8 C 16,1 km/h (3 Bft) 97,73 %
24.03.2017 18:18 8,3 C 84 % 1026,8 hPa 0,0 l/m 9,2 km/h (2 Bft) NO 36 0 min 0,000 mm 0,0 UV-I 0 W/m 5,8 C 6,2 C 16,1 km/h (3 Bft) 100,00 %
24.03.2017 18:20 8,2 C 84 % 1026,8 hPa 0,0 l/m 11,9 km/h (2 Bft) NO 34 0 min 0,000 mm 0,0 UV-I 0 W/m 5,7 C 4,5 C 20,9 km/h (4 Bft) 100,00 %
24.03.2017 18:22 8,2 C 84 % 1026,8 hPa 0,0 l/m 11,6 km/h (2 Bft) NO 36 0 min 0,000 mm 0,0 UV-I 0 W/m 5,7 C 4,7 C 19,3 km/h (3 Bft) 98,00 %
24.03.2017 18:24 8,2 C 83 % 1026,8 hPa 0,0 l/m 8,7 km/h (2 Bft) O-NO 59 0 min 0,000 mm 0,0 UV-I 0 W/m 5,5 C 6,5 C 12,9 km/h (3 Bft) 97,56 %
24.03.2017 18:26 8,2 C 83 % 1026,7 hPa 0,0 l/m 9,5 km/h (2 Bft) O-NO 57 0 min 0,000 mm 0,0 UV-I 0 W/m 5,5 C 5,9 C 16,1 km/h (3 Bft) 94,00 %
24.03.2017 18:28 8,2 C 83 % 1026,7 hPa 0,0 l/m 9,3 km/h (2 Bft) NO 42 0 min 0,000 mm 0,0 UV-I 0 W/m 5,5 C 6,1 C 16,1 km/h (3 Bft) 100,00 %
24.03.2017 18:30 8,2 C 83 % 1026,7 hPa 0,0 l/m 9,0 km/h (2 Bft) NO 35 0 min 0,000 mm 0,0 UV-I 0 W/m 5,5 C 6,3 C 16,1 km/h (3 Bft) 95,12 %
24.03.2017 18:32 8,2 C 83 % 1026,8 hPa 0,0 l/m 8,7 km/h (2 Bft) NO 40 0 min 0,000 mm 0,0 UV-I 0 W/m 5,5 C 6,5 C 14,5 km/h (3 Bft) 100,00 %
24.03.2017 18:34 8,2 C 83 % 1026,8 hPa 0,0 l/m 7,2 km/h (2 Bft) O-NO 59 0 min 0,000 mm 0,0 UV-I 0 W/m 5,5 C 7,6 C 9,7 km/h (2 Bft) 100,00 %
24.03.2017 18:36 8,2 C 83 % 1026,8 hPa 0,0 l/m 8,1 km/h (2 Bft) NO 38 0 min 0,000 mm 0,0 UV-I 0 W/m 5,5 C 6,9 C 11,3 km/h (2 Bft) 95,12 %
24.03.2017 18:38 8,2 C 83 % 1026,8 hPa 0,0 l/m 10,4 km/h (2 Bft) N-NO 29 0 min 0,000 mm 0,0 UV-I 0 W/m 5,5 C 5,4 C 16,1 km/h (3 Bft) 96,23 %
24.03.2017 18:40 8,2 C 83 % 1026,8 hPa 0,0 l/m 10,1 km/h (2 Bft) N-NO 29 0 min 0,000 mm 0,0 UV-I 0 W/m 5,5 C 5,5 C 14,5 km/h (3 Bft) 100,00 %
24.03.2017 18:42 8,2 C 83 % 1026,9 hPa 0,0 l/m 5,4 km/h (1 Bft) NO 53 0 min 0,000 mm 0,0 UV-I 0 W/m 5,5 C 8,2 C 8,0 km/h (2 Bft) 90,24 %
24.03.2017 18:44 8,2 C 83 % 1026,9 hPa 0,0 l/m 7,5 km/h (2 Bft) O-NO 63 0 min 0,000 mm 0,0 UV-I 0 W/m 5,5 C 7,3 C 11,3 km/h (2 Bft) 92,68 %
24.03.2017 18:46 8,2 C 83 % 1026,9 hPa 0,0 l/m 6,8 km/h (2 Bft) NO 51 0 min 0,000 mm 0,0 UV-I 0 W/m 5,5 C 7,9 C 9,7 km/h (2 Bft) 98,00 %
24.03.2017 18:48 8,2 C 83 % 1026,9 hPa 0,0 l/m 6,2 km/h (2 Bft) NO 51 0 min 0,000 mm 0,0 UV-I 0 W/m 5,5 C 8,2 C 8,0 km/h (2 Bft) 94,34 %
24.03.2017 18:50 8,2 C 83 % 1026,9 hPa 0,0 l/m 8,5 km/h (2 Bft) O-NO 75 0 min 0,000 mm 0,0 UV-I 0 W/m 5,5 C 6,6 C 14,5 km/h (3 Bft) 97,37 %
24.03.2017 18:52 8,2 C 83 % 1026,9 hPa 0,0 l/m 8,2 km/h (2 Bft) O-NO 57 0 min 0,000 mm 0,0 UV-I 0 W/m 5,5 C 6,8 C 12,9 km/h (3 Bft) 92,45 %
24.03.2017 18:54 8,2 C 83 % 1027,0 hPa 0,0 l/m 9,1 km/h (2 Bft) O-NO 63 0 min 0,000 mm 0,0 UV-I 0 W/m 5,5 C 6,2 C 14,5 km/h (3 Bft) 95,12 %
24.03.2017 18:56 8,2 C 84 % 1027,0 hPa 0,0 l/m 8,2 km/h (2 Bft) O-NO 60 0 min 0,000 mm 0,0 UV-I 0 W/m 5,7 C 6,8 C 11,3 km/h (2 Bft) 96,23 %
24.03.2017 18:58 8,2 C 84 % 1027,0 hPa 0,0 l/m 8,2 km/h (2 Bft) NO 50 0 min 0,000 mm 0,0 UV-I 0 W/m 5,7 C 6,8 C 11,3 km/h (2 Bft) 90,24 %
24.03.2017 19:00 8,2 C 84 % 1027,0 hPa 0,0 l/m 7,8 km/h (2 Bft) NO 42 0 min 0,025 mm 0,0 UV-I 0 W/m 5,7 C 7,1 C 12,9 km/h (3 Bft) 96,00 %
24.03.2017 19:02 8,2 C 84 % 1027,0 hPa 0,0 l/m 8,6 km/h (2 Bft) NO 53 0 min 0,000 mm 0,0 UV-I 0 W/m 5,7 C 6,5 C 14,5 km/h (3 Bft) 95,12 %
24.03.2017 19:04 8,1 C 84 % 1027,0 hPa 0,0 l/m 7,5 km/h (2 Bft) NO 43 0 min 0,000 mm 0,0 UV-I 0 W/m 5,6 C 7,2 C 9,7 km/h (2 Bft) 94,34 %
24.03.2017 19:06 8,2 C 84 % 1027,0 hPa 0,0 l/m 8,0 km/h (2 Bft) O-NO 63 0 min 0,000 mm 0,0 UV-I 0 W/m 5,7 C 7,0 C 11,3 km/h (2 Bft) 95,45 %
24.03.2017 19:08 8,1 C 84 % 1027,1 hPa 0,0 l/m 8,0 km/h (2 Bft) O-NO 63 0 min 0,000 mm 0,0 UV-I 0 W/m 5,6 C 6,9 C 12,9 km/h (3 Bft) 92,86 %
24.03.2017 19:10 8,1 C 84 % 1027,1 hPa 0,0 l/m 7,7 km/h (2 Bft) O-NO 57 0 min 0,000 mm 0,0 UV-I 0 W/m 5,6 C 7,1 C 9,7 km/h (2 Bft) 100,00 %
24.03.2017 19:12 8,1 C 84 % 1027,1 hPa 0,0 l/m 6,8 km/h (2 Bft) O-NO 68 0 min 0,000 mm 0,0 UV-I 0 W/m 5,6 C 7,8 C 9,7 km/h (2 Bft) 94,29 %
24.03.2017 19:14 8,1 C 84 % 1027,1 hPa 0,0 l/m 6,5 km/h (2 Bft) NO 56 0 min 0,000 mm 0,0 UV-I 0 W/m 5,6 C 8,0 C 8,0 km/h (2 Bft) 95,31 %
24.03.2017 19:16 8,1 C 85 % 1027,2 hPa 0,0 l/m 6,8 km/h (2 Bft) NO 55 0 min 0,000 mm 0,0 UV-I 0 W/m 5,7 C 7,8 C 9,7 km/h (2 Bft) 90,48 %
24.03.2017 19:18 8,1 C 85 % 1027,2 hPa 0,0 l/m 4,8 km/h (1 Bft) NO 44 0 min 0,000 mm 0,0 UV-I 0 W/m 5,7 C 8,1 C 8,0 km/h (2 Bft) 98,00 %
24.03.2017 19:20 8,1 C 85 % 1027,2 hPa 0,0 l/m 5,9 km/h (2 Bft) NO 54 0 min 0,000 mm 0,0 UV-I 0 W/m 5,7 C 8,1 C 8,0 km/h (2 Bft) 95,74 %
24.03.2017 19:22 8,1 C 85 % 1027,3 hPa 0,0 l/m 6,5 km/h (2 Bft) O-NO 59 0 min 0,000 mm 0,0 UV-I 0 W/m 5,7 C 8,0 C 9,7 km/h (2 Bft) 95,74 %
24.03.2017 19:24 8,1 C 85 % 1027,4 hPa 0,0 l/m 5,2 km/h (1 Bft) O-NO 57 0 min 0,000 mm 0,0 UV-I 0 W/m 5,7 C 8,1 C 8,0 km/h (2 Bft) 97,87 %
24.03.2017 19:26 8,1 C 85 % 1027,4 hPa 0,0 l/m 5,2 km/h (1 Bft) N-NO 28 0 min 0,000 mm 0,0 UV-I 0 W/m 5,7 C 8,1 C 8,0 km/h (2 Bft) 97,87 %
24.03.2017 19:28 8,0 C 85 % 1027,4 hPa 0,0 l/m 5,9 km/h (2 Bft) N-NO 32 0 min 0,000 mm 0,0 UV-I 0 W/m 5,6 C 8,0 C 9,7 km/h (2 Bft) 95,92 %
24.03.2017 19:30 8,0 C 85 % 1027,4 hPa 0,0 l/m 6,2 km/h (2 Bft) O-NO 59 0 min 0,000 mm 0,0 UV-I 0 W/m 5,6 C 8,0 C 9,7 km/h (2 Bft) 95,12 %
24.03.2017 19:33 8,1 C 85 % 1027,5 hPa 0,0 l/m 6,6 km/h (2 Bft) NO 39 0 min 0,000 mm 0,0 UV-I 0 W/m 5,7 C 8,0 C 9,7 km/h (2 Bft) 97,47 %
24.03.2017 19:34 8,1 C 85 % 1027,5 hPa 0,0 l/m 5,2 km/h (1 Bft) O-NO 68 0 min 0,000 mm 0,0 UV-I 0 W/m 5,7 C 8,1 C 6,4 km/h (2 Bft) 91,67 %
24.03.2017 19:36 8,1 C 85 % 1027,5 hPa 0,0 l/m 6,7 km/h (2 Bft) O-NO 59 0 min 0,000 mm 0,0 UV-I 0 W/m 5,7 C 7,9 C 9,7 km/h (2 Bft) 100,00 %
24.03.2017 19:38 8,1 C 85 % 1027,5 hPa 0,0 l/m 7,5 km/h (2 Bft) O-NO 63 0 min 0,000 mm 0,0 UV-I 0 W/m 5,7 C 7,2 C 9,7 km/h (2 Bft) 98,00 %
24.03.2017 19:40 8,1 C 85 % 1027,5 hPa 0,0 l/m 6,6 km/h (2 Bft) O-NO 60 0 min 0,000 mm 0,0 UV-I 0 W/m 5,7 C 8,0 C 9,7 km/h (2 Bft) 92,00 %
24.03.2017 19:42 8,1 C 85 % 1027,6 hPa 0,0 l/m 7,0 km/h (2 Bft) NO 43 0 min 0,000 mm 0,0 UV-I 0 W/m 5,7 C 7,6 C 9,7 km/h (2 Bft) 93,18 %
24.03.2017 19:44 8,1 C 86 % 1027,6 hPa 0,0 l/m 4,4 km/h (1 Bft) NO 50 0 min 0,000 mm 0,0 UV-I 0 W/m 5,9 C 8,1 C 6,4 km/h (2 Bft) 97,37 %
24.03.2017 19:46 8,1 C 85 % 1027,6 hPa 0,0 l/m 6,7 km/h (2 Bft) NO 55 0 min 0,000 mm 0,0 UV-I 0 W/m 5,7 C 7,9 C 9,7 km/h (2 Bft) 98,28 %
24.03.2017 19:48 8,1 C 85 % 1027,6 hPa 0,0 l/m 5,2 km/h (1 Bft) O-NO 57 0 min 0,000 mm 0,0 UV-I 0 W/m 5,7 C 8,1 C 8,0 km/h (2 Bft) 100,00 %
24.03.2017 19:50 8,1 C 85 % 1027,6 hPa 0,0 l/m 6,5 km/h (2 Bft) NO 46 0 min 0,000 mm 0,0 UV-I 0 W/m 5,7 C 8,0 C 9,7 km/h (2 Bft) 94,03 %
24.03.2017 19:52 8,1 C 85 % 1027,5 hPa 0,0 l/m 7,2 km/h (2 Bft) NO 38 0 min 0,000 mm 0,0 UV-I 0 W/m 5,7 C 7,5 C 9,7 km/h (2 Bft) 100,00 %
24.03.2017 19:54 8,1 C 85 % 1027,6 hPa 0,0 l/m 6,3 km/h (2 Bft) NO 46 0 min 0,000 mm 0,0 UV-I 0 W/m 5,7 C 8,1 C 8,0 km/h (2 Bft) 100,00 %
24.03.2017 19:56 8,1 C 86 % 1027,7 hPa 0,0 l/m 4,6 km/h (1 Bft) NO 46 0 min 0,000 mm 0,0 UV-I 0 W/m 5,9 C 8,1 C 6,4 km/h (2 Bft) 96,15 %
24.03.2017 19:58 8,1 C 86 % 1027,7 hPa 0,0 l/m 7,3 km/h (2 Bft) O-NO 57 0 min 0,000 mm 0,0 UV-I 0 W/m 5,9 C 7,4 C 11,3 km/h (2 Bft) 96,43 %
24.03.2017 20:00 8,0 C 86 % 1027,7 hPa 0,0 l/m 7,2 km/h (2 Bft) NO 51 0 min 0,025 mm 0,0 UV-I 0 W/m 5,8 C 7,4 C 9,7 km/h (2 Bft) 100,00 %
24.03.2017 20:02 8,0 C 86 % 1027,7 hPa 0,0 l/m 6,5 km/h (2 Bft) NO 49 0 min 0,000 mm 0,0 UV-I 0 W/m 5,8 C 7,9 C 9,7 km/h (2 Bft) 94,34 %
24.03.2017 20:04 8,0 C 86 % 1027,7 hPa 0,0 l/m 5,9 km/h (2 Bft) NO 42 0 min 0,000 mm 0,0 UV-I 0 W/m 5,8 C 8,0 C 8,0 km/h (2 Bft) 100,00 %
24.03.2017 20:06 8,0 C 86 % 1027,7 hPa 0,0 l/m 5,5 km/h (1 Bft) NO 52 0 min 0,000 mm 0,0 UV-I 0 W/m 5,8 C 8,0 C 8,0 km/h (2 Bft) 98,11 %
24.03.2017 20:08 8,0 C 86 % 1027,7 hPa 0,0 l/m 6,3 km/h (2 Bft) NO 39 0 min 0,000 mm 0,0 UV-I 0 W/m 5,8 C 8,0 C 9,7 km/h (2 Bft) 100,00 %
24.03.2017 20:10 8,1 C 85 % 1027,7 hPa 0,0 l/m 5,7 km/h (1 Bft) N-NO 29 0 min 0,000 mm 0,0 UV-I 0 W/m 5,7 C 8,1 C 8,0 km/h (2 Bft) 94,74 %
24.03.2017 20:12 8,1 C 85 % 1027,8 hPa 0,0 l/m 7,7 km/h (2 Bft) N-NO 22 0 min 0,000 mm 0,0 UV-I 0 W/m 5,7 C 7,1 C 12,9 km/h (3 Bft) 98,21 %
24.03.2017 20:14 8,0 C 85 % 1027,8 hPa 0,0 l/m 8,6 km/h (2 Bft) NO 43 0 min 0,000 mm 0,0 UV-I 0 W/m 5,6 C 6,3 C 12,9 km/h (3 Bft) 93,18 %
24.03.2017 20:16 8,0 C 85 % 1027,8 hPa 0,0 l/m 6,0 km/h (2 Bft) NO 55 0 min 0,000 mm 0,0 UV-I 0 W/m 5,6 C 8,0 C 9,7 km/h (2 Bft) 96,55 %
24.03.2017 20:18 8,0 C 85 % 1027,8 hPa 0,0 l/m 6,6 km/h (2 Bft) NO 55 0 min 0,000 mm 0,0 UV-I 0 W/m 5,6 C 7,9 C 8,0 km/h (2 Bft) 98,53 %
24.03.2017 20:20 8,0 C 85 % 1027,8 hPa 0,0 l/m 7,1 km/h (2 Bft) N-NO 33 0 min 0,000 mm 0,0 UV-I 0 W/m 5,6 C 7,4 C 9,7 km/h (2 Bft) 97,73 %
24.03.2017 20:22 8,0 C 85 % 1027,8 hPa 0,0 l/m 6,0 km/h (2 Bft) O-NO 63 0 min 0,000 mm 0,0 UV-I 0 W/m 5,6 C 8,0 C 9,7 km/h (2 Bft) 91,49 %
24.03.2017 20:24 8,0 C 85 % 1027,8 hPa 0,0 l/m 6,3 km/h (2 Bft) NO 40 0 min 0,000 mm 0,0 UV-I 0 W/m 5,6 C 8,0 C 9,7 km/h (2 Bft) 100,00 %
24.03.2017 20:26 8,0 C 85 % 1027,8 hPa 0,0 l/m 6,1 km/h (2 Bft) O-NO 63 0 min 0,000 mm 0,0 UV-I 0 W/m 5,6 C 8,0 C 8,0 km/h (2 Bft) 100,00 %
24.03.2017 20:28 8,0 C 85 % 1027,8 hPa 0,0 l/m 5,5 km/h (1 Bft) O-NO 57 0 min 0,000 mm 0,0 UV-I 0 W/m 5,6 C 8,0 C 8,0 km/h (2 Bft) 92,00 %
24.03.2017 20:30 8,0 C 85 % 1027,9 hPa 0,0 l/m 6,0 km/h (2 Bft) NO 49 0 min 0,000 mm 0,0 UV-I 0 W/m 5,6 C 8,0 C 8,0 km/h (2 Bft) 97,62 %
24.03.2017 20:32 8,0 C 85 % 1028,0 hPa 0,0 l/m 6,4 km/h (2 Bft) NO 38 0 min 0,000 mm 0,0 UV-I 0 W/m 5,6 C 8,0 C 9,7 km/h (2 Bft) 95,12 %
24.03.2017 20:34 7,9 C 85 % 1028,0 hPa 0,0 l/m 7,5 km/h (2 Bft) NO 42 0 min 0,000 mm 0,0 UV-I 0 W/m 5,5 C 7,0 C 11,3 km/h (2 Bft) 96,61 %
24.03.2017 20:36 7,9 C 85 % 1028,0 hPa 0,0 l/m 7,9 km/h (2 Bft) NO 35 0 min 0,000 mm 0,0 UV-I 0 W/m 5,5 C 6,7 C 11,3 km/h (2 Bft) 100,00 %
24.03.2017 20:38 7,9 C 85 % 1028,0 hPa 0,0 l/m 7,7 km/h (2 Bft) NO 42 0 min 0,000 mm 0,0 UV-I 0 W/m 5,5 C 6,9 C 9,7 km/h (2 Bft) 94,64 %
24.03.2017 20:40 7,9 C 85 % 1028,0 hPa 0,0 l/m 9,8 km/h (2 Bft) NO 38 0 min 0,000 mm 0,0 UV-I 0 W/m 5,5 C 5,4 C 12,9 km/h (3 Bft) 100,00 %
24.03.2017 20:42 7,9 C 85 % 1028,0 hPa 0,0 l/m 8,9 km/h (2 Bft) NO 56 0 min 0,000 mm 0,0 UV-I 0 W/m 5,5 C 6,0 C 12,9 km/h (3 Bft) 97,56 %
24.03.2017 20:44 7,9 C 85 % 1028,0 hPa 0,0 l/m 10,8 km/h (2 Bft) NO 43 0 min 0,000 mm 0,0 UV-I 0 W/m 5,5 C 4,8 C 14,5 km/h (3 Bft) 97,56 %
24.03.2017 20:46 7,9 C 85 % 1028,0 hPa 0,0 l/m 10,4 km/h (2 Bft) NO 49 0 min 0,000 mm 0,0 UV-I 0 W/m 5,5 C 5,0 C 16,1 km/h (3 Bft) 96,23 %
24.03.2017 20:48 7,9 C 85 % 1028,0 hPa 0,0 l/m 8,9 km/h (2 Bft) NO 40 0 min 0,000 mm 0,0 UV-I 0 W/m 5,5 C 6,0 C 14,5 km/h (3 Bft) 93,22 %
24.03.2017 20:50 7,9 C 85 % 1028,0 hPa 0,0 l/m 10,8 km/h (2 Bft) NO 53 0 min 0,000 mm 0,0 UV-I 0 W/m 5,5 C 4,8 C 16,1 km/h (3 Bft) 97,37 %
24.03.2017 20:52 7,9 C 85 % 1028,0 hPa 0,0 l/m 11,6 km/h (2 Bft) NO 36 0 min 0,000 mm 0,0 UV-I 0 W/m 5,5 C 4,3 C 16,1 km/h (3 Bft) 98,11 %
24.03.2017 20:54 7,9 C 85 % 1028,1 hPa 0,0 l/m 7,9 km/h (2 Bft) NO 35 0 min 0,000 mm 0,0 UV-I 0 W/m 5,5 C 6,7 C 14,5 km/h (3 Bft) 95,74 %
24.03.2017 20:56 7,9 C 85 % 1028,0 hPa 0,0 l/m 7,6 km/h (2 Bft) NO 49 0 min 0,000 mm 0,0 UV-I 0 W/m 5,5 C 7,0 C 11,3 km/h (2 Bft) 100,00 %
24.03.2017 20:58 7,9 C 85 % 1028,0 hPa 0,0 l/m 10,1 km/h (2 Bft) NO 36 0 min 0,000 mm 0,0 UV-I 0 W/m 5,5 C 5,2 C 16,1 km/h (3 Bft) 92,00 %
24.03.2017 21:00 7,9 C 85 % 1028,0 hPa 0,0 l/m 12,5 km/h (3 Bft) O-NO 61 0 min 0,000 mm 0,0 UV-I 0 W/m 5,5 C 3,8 C 17,7 km/h (3 Bft) 97,37 %
24.03.2017 21:02 7,9 C 85 % 1028,0 hPa 0,0 l/m 9,2 km/h (2 Bft) NO 37 0 min 0,026 mm 0,0 UV-I 0 W/m 5,5 C 5,8 C 14,5 km/h (3 Bft) 94,00 %
24.03.2017 21:04 7,9 C 85 % 1028,0 hPa 0,0 l/m 8,5 km/h (2 Bft) NO 49 0 min 0,000 mm 0,0 UV-I 0 W/m 5,5 C 6,3 C 11,3 km/h (2 Bft) 96,43 %
24.03.2017 21:06 7,9 C 85 % 1028,0 hPa 0,0 l/m 10,1 km/h (2 Bft) N-NO 30 0 min 0,000 mm 0,0 UV-I 0 W/m 5,5 C 5,2 C 14,5 km/h (3 Bft) 93,62 %
24.03.2017 21:08 7,9 C 85 % 1028,0 hPa 0,0 l/m 9,7 km/h (2 Bft) NO 36 0 min 0,000 mm 0,0 UV-I 0 W/m 5,5 C 5,5 C 16,1 km/h (3 Bft) 89,74 %
24.03.2017 21:10 7,8 C 85 % 1028,0 hPa 0,0 l/m 11,8 km/h (2 Bft) NO 52 0 min 0,000 mm 0,0 UV-I 0 W/m 5,4 C 4,1 C 19,3 km/h (3 Bft) 95,92 %
24.03.2017 21:12 7,8 C 85 % 1028,0 hPa 0,0 l/m 8,9 km/h (2 Bft) NO 34 0 min 0,000 mm 0,0 UV-I 0 W/m 5,4 C 5,9 C 12,9 km/h (3 Bft) 87,80 %
24.03.2017 21:14 7,9 C 85 % 1028,1 hPa 0,0 l/m 11,1 km/h (2 Bft) N-NO 32 0 min 0,000 mm 0,0 UV-I 0 W/m 5,5 C 4,6 C 16,1 km/h (3 Bft) 94,34 %
24.03.2017 21:16 7,9 C 85 % 1028,1 hPa 0,0 l/m 10,6 km/h (2 Bft) NO 34 0 min 0,000 mm 0,0 UV-I 0 W/m 5,5 C 4,9 C 16,1 km/h (3 Bft) 87,80 %
24.03.2017 21:18 7,9 C 85 % 1028,1 hPa 0,0 l/m 11,4 km/h (2 Bft) O-NO 65 0 min 0,000 mm 0,0 UV-I 0 W/m 5,5 C 4,4 C 16,1 km/h (3 Bft) 94,92 %
24.03.2017 21:20 7,9 C 84 % 1028,1 hPa 0,0 l/m 9,6 km/h (2 Bft) NO 51 0 min 0,000 mm 0,0 UV-I 0 W/m 5,4 C 5,5 C 14,5 km/h (3 Bft) 89,36 %
24.03.2017 21:22 7,9 C 84 % 1028,1 hPa 0,0 l/m 8,6 km/h (2 Bft) O-NO 74 0 min 0,000 mm 0,0 UV-I 0 W/m 5,4 C 6,2 C 14,5 km/h (3 Bft) 92,11 %
24.03.2017 21:24 7,9 C 84 % 1028,1 hPa 0,0 l/m 8,5 km/h (2 Bft) NO 44 0 min 0,000 mm 0,0 UV-I 0 W/m 5,4 C 6,3 C 14,5 km/h (3 Bft) 93,62 %
24.03.2017 21:26 7,9 C 84 % 1028,1 hPa 0,0 l/m 8,4 km/h (2 Bft) NO 42 0 min 0,000 mm 0,0 UV-I 0 W/m 5,4 C 6,4 C 12,9 km/h (3 Bft) 90,57 %
24.03.2017 21:28 7,9 C 84 % 1028,1 hPa 0,0 l/m 8,2 km/h (2 Bft) NO 48 0 min 0,000 mm 0,0 UV-I 0 W/m 5,4 C 6,5 C 9,7 km/h (2 Bft) 94,00 %
24.03.2017 21:30 7,9 C 84 % 1028,0 hPa 0,0 l/m 7,9 km/h (2 Bft) NO 36 0 min 0,000 mm 0,0 UV-I 0 W/m 5,4 C 6,7 C 14,5 km/h (3 Bft) 97,37 %
24.03.2017 21:32 7,9 C 85 % 1028,0 hPa 0,0 l/m 6,7 km/h (2 Bft) N-NO 33 0 min 0,000 mm 0,0 UV-I 0 W/m 5,5 C 7,7 C 9,7 km/h (2 Bft) 90,00 %
24.03.2017 21:34 7,8 C 85 % 1028,1 hPa 0,0 l/m 7,8 km/h (2 Bft) NO 37 0 min 0,000 mm 0,0 UV-I 0 W/m 5,4 C 6,7 C 9,7 km/h (2 Bft) 87,80 %
24.03.2017 21:36 7,8 C 85 % 1028,1 hPa 0,0 l/m 9,8 km/h (2 Bft) NO 48 0 min 0,000 mm 0,0 UV-I 0 W/m 5,4 C 5,3 C 14,5 km/h (3 Bft) 93,62 %
24.03.2017 21:38 7,8 C 85 % 1028,1 hPa 0,0 l/m 8,1 km/h (2 Bft) N-NO 27 0 min 0,000 mm 0,0 UV-I 0 W/m 5,4 C 6,5 C 11,3 km/h (2 Bft) 97,87 %
24.03.2017 21:40 7,8 C 85 % 1028,1 hPa 0,0 l/m 7,9 km/h (2 Bft) NO 36 0 min 0,000 mm 0,0 UV-I 0 W/m 5,4 C 6,6 C 11,3 km/h (2 Bft) 89,36 %
24.03.2017 21:42 7,7 C 86 % 1028,2 hPa 0,0 l/m 9,6 km/h (2 Bft) NO 49 0 min 0,000 mm 0,0 UV-I 0 W/m 5,5 C 5,3 C 14,5 km/h (3 Bft) 95,24 %
24.03.2017 21:44 7,7 C 86 % 1028,2 hPa 0,0 l/m 9,2 km/h (2 Bft) NO 47 0 min 0,000 mm 0,0 UV-I 0 W/m 5,5 C 5,6 C 14,5 km/h (3 Bft) 96,00 %
24.03.2017 21:46 7,7 C 86 % 1028,2 hPa 0,0 l/m 7,8 km/h (2 Bft) NO 36 0 min 0,000 mm 0,0 UV-I 0 W/m 5,5 C 6,6 C 14,5 km/h (3 Bft) 98,18 %
24.03.2017 21:48 7,7 C 86 % 1028,1 hPa 0,0 l/m 7,7 km/h (2 Bft) NO 53 0 min 0,000 mm 0,0 UV-I 0 W/m 5,5 C 6,7 C 11,3 km/h (2 Bft) 96,00 %
24.03.2017 21:50 7,7 C 86 % 1028,1 hPa 0,0 l/m 6,6 km/h (2 Bft) NO 44 0 min 0,000 mm 0,0 UV-I 0 W/m 5,5 C 7,6 C 9,7 km/h (2 Bft) 97,87 %
24.03.2017 21:52 7,7 C 86 % 1028,2 hPa 0,0 l/m 7,8 km/h (2 Bft) NO 39 0 min 0,000 mm 0,0 UV-I 0 W/m 5,5 C 6,6 C 14,5 km/h (3 Bft) 97,44 %
24.03.2017 21:54 7,7 C 86 % 1028,3 hPa 0,0 l/m 7,3 km/h (2 Bft) NO 45 0 min 0,000 mm 0,0 UV-I 0 W/m 5,5 C 7,0 C 9,7 km/h (2 Bft) 94,00 %
24.03.2017 21:56 7,7 C 86 % 1028,2 hPa 0,0 l/m 7,4 km/h (2 Bft) N-NO 32 0 min 0,000 mm 0,0 UV-I 0 W/m 5,5 C 6,9 C 9,7 km/h (2 Bft) 93,18 %
24.03.2017 21:58 7,6 C 86 % 1028,3 hPa 0,0 l/m 7,8 km/h (2 Bft) N-NO 24 0 min 0,000 mm 0,0 UV-I 0 W/m 5,4 C 6,5 C 14,5 km/h (3 Bft) 92,45 %
24.03.2017 22:00 7,6 C 86 % 1028,2 hPa 0,0 l/m 8,6 km/h (2 Bft) N-NO 27 0 min 0,000 mm 0,0 UV-I 0 W/m 5,4 C 5,9 C 12,9 km/h (3 Bft) 97,37 %
24.03.2017 22:02 7,6 C 86 % 1028,3 hPa 0,0 l/m 7,9 km/h (2 Bft) NO 46 0 min 0,025 mm 0,0 UV-I 0 W/m 5,4 C 6,4 C 12,9 km/h (3 Bft) 96,30 %
24.03.2017 22:04 7,6 C 86 % 1028,3 hPa 0,0 l/m 9,0 km/h (2 Bft) NO 46 0 min 0,000 mm 0,0 UV-I 0 W/m 5,4 C 5,6 C 14,5 km/h (3 Bft) 94,74 %
24.03.2017 22:06 7,6 C 86 % 1028,3 hPa 0,0 l/m 8,5 km/h (2 Bft) N-NO 30 0 min 0,000 mm 0,0 UV-I 0 W/m 5,4 C 6,0 C 12,9 km/h (3 Bft) 91,07 %
24.03.2017 22:08 7,6 C 85 % 1028,3 hPa 0,0 l/m 9,4 km/h (2 Bft) NO 48 0 min 0,000 mm 0,0 UV-I 0 W/m 5,2 C 5,3 C 14,5 km/h (3 Bft) 95,12 %
24.03.2017 22:10 7,6 C 85 % 1028,3 hPa 0,0 l/m 11,8 km/h (2 Bft) NO 53 0 min 0,000 mm 0,0 UV-I 0 W/m 5,2 C 3,9 C 16,1 km/h (3 Bft) 95,45 %
24.03.2017 22:12 7,6 C 85 % 1028,3 hPa 0,0 l/m 9,8 km/h (2 Bft) NO 40 0 min 0,000 mm 0,0 UV-I 0 W/m 5,2 C 5,1 C 14,5 km/h (3 Bft) 96,00 %
24.03.2017 22:14 7,6 C 85 % 1028,3 hPa 0,0 l/m 9,3 km/h (2 Bft) NO 47 0 min 0,000 mm 0,0 UV-I 0 W/m 5,2 C 5,4 C 14,5 km/h (3 Bft) 97,73 %
24.03.2017 22:16 7,6 C 85 % 1028,3 hPa 0,0 l/m 7,2 km/h (2 Bft) O-NO 63 0 min 0,000 mm 0,0 UV-I 0 W/m 5,2 C 7,0 C 11,3 km/h (2 Bft) 97,87 %
24.03.2017 22:18 7,6 C 84 % 1028,3 hPa 0,0 l/m 7,4 km/h (2 Bft) N-NO 29 0 min 0,000 mm 0,0 UV-I 0 W/m 5,1 C 6,8 C 12,9 km/h (3 Bft) 100,00 %
24.03.2017 22:20 7,6 C 85 % 1028,3 hPa 0,0 l/m 9,4 km/h (2 Bft) N-NO 19 0 min 0,000 mm 0,0 UV-I 0 W/m 5,2 C 5,3 C 12,9 km/h (3 Bft) 97,87 %
24.03.2017 22:22 7,6 C 85 % 1028,3 hPa 0,0 l/m 8,7 km/h (2 Bft) N-NO 28 0 min 0,000 mm 0,0 UV-I 0 W/m 5,2 C 5,8 C 12,9 km/h (3 Bft) 100,00 %
24.03.2017 22:24 7,5 C 85 % 1028,3 hPa 0,0 l/m 10,6 km/h (2 Bft) O-NO 59 0 min 0,000 mm 0,0 UV-I 0 W/m 5,1 C 4,5 C 14,5 km/h (3 Bft) 96,15 %
24.03.2017 22:26 7,4 C 85 % 1028,4 hPa 0,0 l/m 7,9 km/h (2 Bft) NO 34 0 min 0,000 mm 0,0 UV-I 0 W/m 5,0 C 6,2 C 9,7 km/h (2 Bft) 96,34 %
24.03.2017 22:28 7,4 C 85 % 1028,3 hPa 0,0 l/m 8,6 km/h (2 Bft) NO 48 0 min 0,000 mm 0,0 UV-I 0 W/m 5,0 C 5,7 C 11,3 km/h (2 Bft) 97,62 %
24.03.2017 22:30 7,4 C 85 % 1028,4 hPa 0,0 l/m 7,3 km/h (2 Bft) N-NO 28 0 min 0,000 mm 0,0 UV-I 0 W/m 5,0 C 6,7 C 11,3 km/h (2 Bft) 100,00 %
24.03.2017 22:32 7,4 C 85 % 1028,3 hPa 0,0 l/m 8,9 km/h (2 Bft) N-NO 32 0 min 0,000 mm 0,0 UV-I 0 W/m 5,0 C 5,5 C 14,5 km/h (3 Bft) 100,00 %
24.03.2017 22:34 7,3 C 86 % 1028,4 hPa 0,0 l/m 7,9 km/h (2 Bft) NO 47 0 min 0,000 mm 0,0 UV-I 0 W/m 5,1 C 6,1 C 14,5 km/h (3 Bft) 94,34 %
24.03.2017 22:36 7,3 C 86 % 1028,4 hPa 0,0 l/m 8,8 km/h (2 Bft) N-NO 30 0 min 0,000 mm 0,0 UV-I 0 W/m 5,1 C 5,4 C 14,5 km/h (3 Bft) 100,00 %
24.03.2017 22:38 7,3 C 86 % 1028,3 hPa 0,0 l/m 9,4 km/h (2 Bft) NO 42 0 min 0,000 mm 0,0 UV-I 0 W/m 5,1 C 5,0 C 14,5 km/h (3 Bft) 90,24 %
24.03.2017 22:40 7,3 C 86 % 1028,4 hPa 0,0 l/m 10,3 km/h (2 Bft) N-NO 33 0 min 0,000 mm 0,0 UV-I 0 W/m 5,1 C 4,4 C 16,1 km/h (3 Bft) 97,56 %
24.03.2017 22:42 7,3 C 85 % 1028,3 hPa 0,0 l/m 9,7 km/h (2 Bft) N-NO 33 0 min 0,000 mm 0,0 UV-I 0 W/m 4,9 C 4,8 C 14,5 km/h (3 Bft) 97,73 %
24.03.2017 22:44 7,3 C 85 % 1028,3 hPa 0,0 l/m 8,9 km/h (2 Bft) NO 54 0 min 0,000 mm 0,0 UV-I 0 W/m 4,9 C 5,4 C 14,5 km/h (3 Bft) 92,45 %
24.03.2017 22:46 7,3 C 84 % 1028,3 hPa 0,0 l/m 9,1 km/h (2 Bft) NO 49 0 min 0,000 mm 0,0 UV-I 0 W/m 4,8 C 5,2 C 16,1 km/h (3 Bft) 95,45 %
24.03.2017 22:48 7,3 C 84 % 1028,3 hPa 0,0 l/m 9,6 km/h (2 Bft) NO 45 0 min 0,000 mm 0,0 UV-I 0 W/m 4,8 C 4,9 C 14,5 km/h (3 Bft) 98,00 %
24.03.2017 22:50 7,3 C 84 % 1028,4 hPa 0,0 l/m 10,0 km/h (2 Bft) O-NO 57 0 min 0,000 mm 0,0 UV-I 0 W/m 4,8 C 4,6 C 17,7 km/h (3 Bft) 100,00 %
24.03.2017 22:52 7,3 C 84 % 1028,4 hPa 0,0 l/m 7,3 km/h (2 Bft) NO 55 0 min 0,000 mm 0,0 UV-I 0 W/m 4,8 C 6,6 C 11,3 km/h (2 Bft) 97,01 %
24.03.2017 22:54 7,3 C 83 % 1028,3 hPa 0,0 l/m 8,2 km/h (2 Bft) NO 49 0 min 0,000 mm 0,0 UV-I 0 W/m 4,6 C 5,9 C 11,3 km/h (2 Bft) 94,34 %
24.03.2017 22:56 7,3 C 83 % 1028,3 hPa 0,0 l/m 8,6 km/h (2 Bft) NO 49 0 min 0,000 mm 0,0 UV-I 0 W/m 4,6 C 5,6 C 12,9 km/h (3 Bft) 97,73 %
24.03.2017 22:58 7,3 C 83 % 1028,3 hPa 0,0 l/m 9,0 km/h (2 Bft) NO 44 0 min 0,000 mm 0,0 UV-I 0 W/m 4,6 C 5,3 C 14,5 km/h (3 Bft) 100,00 %
24.03.2017 23:00 7,3 C 83 % 1028,3 hPa 0,0 l/m 9,0 km/h (2 Bft) N-NO 21 0 min 0,000 mm 0,0 UV-I 0 W/m 4,6 C 5,3 C 14,5 km/h (3 Bft) 100,00 %
24.03.2017 23:02 7,3 C 83 % 1028,3 hPa 0,0 l/m 10,4 km/h (2 Bft) N-NO 32 0 min 0,026 mm 0,0 UV-I 0 W/m 4,6 C 4,4 C 16,1 km/h (3 Bft) 100,00 %
24.03.2017 23:04 7,3 C 82 % 1028,3 hPa 0,0 l/m 11,8 km/h (2 Bft) NO 47 0 min 0,000 mm 0,0 UV-I 0 W/m 4,4 C 3,5 C 19,3 km/h (3 Bft) 100,00 %
24.03.2017 23:06 7,3 C 82 % 1028,4 hPa 0,0 l/m 9,7 km/h (2 Bft) N-NO 33 0 min 0,000 mm 0,0 UV-I 0 W/m 4,4 C 4,8 C 14,5 km/h (3 Bft) 97,44 %
24.03.2017 23:08 7,3 C 83 % 1028,4 hPa 0,0 l/m 12,5 km/h (3 Bft) NO 38 0 min 0,000 mm 0,0 UV-I 0 W/m 4,6 C 3,1 C 17,7 km/h (3 Bft) 98,00 %
24.03.2017 23:10 7,3 C 83 % 1028,4 hPa 0,0 l/m 11,7 km/h (2 Bft) N-NO 22 0 min 0,000 mm 0,0 UV-I 0 W/m 4,6 C 3,6 C 16,1 km/h (3 Bft) 97,73 %
24.03.2017 23:12 7,3 C 82 % 1028,4 hPa 0,0 l/m 11,9 km/h (2 Bft) NO 51 0 min 0,000 mm 0,0 UV-I 0 W/m 4,4 C 3,5 C 17,7 km/h (3 Bft) 98,00 %
24.03.2017 23:14 7,3 C 82 % 1028,3 hPa 0,0 l/m 11,9 km/h (2 Bft) NO 40 0 min 0,000 mm 0,0 UV-I 0 W/m 4,4 C 3,5 C 16,1 km/h (3 Bft) 97,37 %
24.03.2017 23:16 7,3 C 82 % 1028,3 hPa 0,0 l/m 10,5 km/h (2 Bft) NO 39 0 min 0,000 mm 0,0 UV-I 0 W/m 4,4 C 4,3 C 17,7 km/h (3 Bft) 96,23 %
24.03.2017 23:18 7,3 C 82 % 1028,3 hPa 0,0 l/m 8,3 km/h (2 Bft) NO 53 0 min 0,000 mm 0,0 UV-I 0 W/m 4,4 C 5,8 C 14,5 km/h (3 Bft) 98,11 %
24.03.2017 23:20 7,3 C 82 % 1028,3 hPa 0,0 l/m 10,1 km/h (2 Bft) O-NO 58 0 min 0,000 mm 0,0 UV-I 0 W/m 4,4 C 4,5 C 16,1 km/h (3 Bft) 97,37 %
24.03.2017 23:22 7,3 C 82 % 1028,3 hPa 0,0 l/m 9,4 km/h (2 Bft) NO 34 0 min 0,000 mm 0,0 UV-I 0 W/m 4,4 C 5,0 C 16,1 km/h (3 Bft) 98,21 %
24.03.2017 23:24 7,2 C 82 % 1028,3 hPa 0,0 l/m 10,4 km/h (2 Bft) N-NO 25 0 min 0,000 mm 0,0 UV-I 0 W/m 4,3 C 4,2 C 16,1 km/h (3 Bft) 97,14 %
24.03.2017 23:26 7,2 C 82 % 1028,3 hPa 0,0 l/m 9,5 km/h (2 Bft) NO 42 0 min 0,000 mm 0,0 UV-I 0 W/m 4,3 C 4,8 C 14,5 km/h (3 Bft) 98,31 %
24.03.2017 23:28 7,2 C 82 % 1028,4 hPa 0,0 l/m 11,5 km/h (2 Bft) N-NO 31 0 min 0,000 mm 0,0 UV-I 0 W/m 4,3 C 3,6 C 16,1 km/h (3 Bft) 97,56 %
24.03.2017 23:30 7,2 C 83 % 1028,4 hPa 0,0 l/m 14,5 km/h (3 Bft) N-NO 21 0 min 0,000 mm 0,0 UV-I 0 W/m 4,5 C 2,0 C 20,9 km/h (4 Bft) 96,30 %
24.03.2017 23:32 7,1 C 82 % 1028,4 hPa 0,0 l/m 12,9 km/h (3 Bft) NO 36 0 min 0,000 mm 0,0 UV-I 0 W/m 4,2 C 2,7 C 19,3 km/h (3 Bft) 95,71 %
24.03.2017 23:34 7,1 C 83 % 1028,4 hPa 0,0 l/m 10,3 km/h (2 Bft) NO 42 0 min 0,000 mm 0,0 UV-I 0 W/m 4,4 C 4,2 C 16,1 km/h (3 Bft) 95,74 %
24.03.2017 23:36 7,1 C 82 % 1028,4 hPa 0,0 l/m 10,7 km/h (2 Bft) NO 52 0 min 0,000 mm 0,0 UV-I 0 W/m 4,2 C 3,9 C 16,1 km/h (3 Bft) 98,00 %
24.03.2017 23:38 7,1 C 83 % 1028,3 hPa 0,0 l/m 13,4 km/h (3 Bft) NO 47 0 min 0,000 mm 0,0 UV-I 0 W/m 4,4 C 2,4 C 17,7 km/h (3 Bft) 97,56 %
24.03.2017 23:40 7,1 C 83 % 1028,3 hPa 0,0 l/m 12,3 km/h (3 Bft) NO 42 0 min 0,000 mm 0,0 UV-I 0 W/m 4,4 C 3,0 C 16,1 km/h (3 Bft) 96,00 %
24.03.2017 23:42 7,1 C 83 % 1028,3 hPa 0,0 l/m 11,3 km/h (2 Bft) NO 37 0 min 0,000 mm 0,0 UV-I 0 W/m 4,4 C 3,6 C 17,7 km/h (3 Bft) 100,00 %
24.03.2017 23:44 7,1 C 83 % 1028,3 hPa 0,0 l/m 11,1 km/h (2 Bft) NO 39 0 min 0,000 mm 0,0 UV-I 0 W/m 4,4 C 3,7 C 16,1 km/h (3 Bft) 100,00 %
24.03.2017 23:46 7,1 C 83 % 1028,3 hPa 0,0 l/m 11,9 km/h (2 Bft) NO 35 0 min 0,000 mm 0,0 UV-I 0 W/m 4,4 C 3,2 C 17,7 km/h (3 Bft) 100,00 %
24.03.2017 23:48 7,1 C 83 % 1028,2 hPa 0,0 l/m 10,4 km/h (2 Bft) NO 35 0 min 0,000 mm 0,0 UV-I 0 W/m 4,4 C 4,1 C 17,7 km/h (3 Bft) 100,00 %
24.03.2017 23:50 7,1 C 83 % 1028,3 hPa 0,0 l/m 13,8 km/h (3 Bft) N-NO 21 0 min 0,000 mm 0,0 UV-I 0 W/m 4,4 C 2,2 C 19,3 km/h (3 Bft) 100,00 %
24.03.2017 23:52 7,1 C 83 % 1028,3 hPa 0,0 l/m 13,7 km/h (3 Bft) O-NO 63 0 min 0,000 mm 0,0 UV-I 0 W/m 4,4 C 2,3 C 17,7 km/h (3 Bft) 100,00 %
24.03.2017 23:54 7,1 C 82 % 1028,3 hPa 0,0 l/m 11,8 km/h (2 Bft) O-NO 72 0 min 0,000 mm 0,0 UV-I 0 W/m 4,2 C 3,3 C 20,9 km/h (4 Bft) 100,00 %
24.03.2017 23:56 7,1 C 83 % 1028,3 hPa 0,0 l/m 17,7 km/h (3 Bft) NO 45 0 min 0,000 mm 0,0 UV-I 0 W/m 4,4 C 0,4 C 22,5 km/h (4 Bft) 100,00 %
24.03.2017 23:58 7,1 C 82 % 1028,2 hPa 0,0 l/m 13,0 km/h (3 Bft) NO 42 0 min 0,000 mm 0,0 UV-I 0 W/m 4,2 C 2,6 C 20,9 km/h (4 Bft) 100,00 %
_ Min-Zeit 00:54 14:24 00:00 - 01:30 - - - - - - 00:54 08:52 01:30 06:48
Minimum _ 4,6 C 80 % 1018,7 hPa - 0,7 km/h (0 Bft) - - - - - - 3,9 C -1,5 C 3,2 km/h (1 Bft) 85,37 %
_ Max-Zeit 14:22 01:00 22:26 00:00 14:28 - - 13:58 15:02 14:00 14:02 17:22 18:00 12:58 00:04
Maximum _ 8,8 C 96 % 1028,4 hPa 0,0 l/m 24,3 km/h
NO (4 Bft)
- - 2 min 0,127 mm 1,3 UV-I 357 W/m 6,1 C 8,4 C 32,2 km/h
NO (5 Bft)
100,00 %
Durchschnitt _ 7,2 C 88 % 1024,8 hPa #0,0 l/m 11,6 km/h (2 Bft) NO - #8 min. #0,864 mm 0,6 UV-I 95 W/m 5,2 C 3,7 C 16,9 km/h (3 Bft) 96,31 %